<?xml version="1.0" encoding="UTF-8" standalone="no" ?>
<gpx xmlns="http://www.topografix.com/GPX/1/1" xmlns:xsi="http://www.w3.org/2001/XMLSchema-instance" xsi:schemaLocation="http://www.topografix.com/GPX/1/1 http://www.topografix.com/GPX/1/1/gpx.xsd" version="1.1" creator="VisuGPX - https://www.visugpx.com">
  <metadata>
    <name>Revel-Laval-mouilles-revel</name>
    <desc><![CDATA[File with points/tracks from Locus Map/3.41.0]]></desc>
  </metadata>
  <trk>
    <name><![CDATA[2019-12-08 13:18:37]]></name>
    <desc><![CDATA[Laval]]></desc>
    <trkseg>
      <trkpt lat="45.18374" lon="5.87379">
        <ele>667.25</ele>
        <time>2019-12-08T12:18:43.000Z</time>
      </trkpt>
      <trkpt lat="45.18386" lon="5.87378">
        <ele>680.84</ele>
        <time>2019-12-08T12:19:48.000Z</time>
      </trkpt>
      <trkpt lat="45.18388" lon="5.87355">
        <ele>681.58</ele>
        <time>2019-12-08T12:19:53.000Z</time>
      </trkpt>
      <trkpt lat="45.18388" lon="5.87324">
        <ele>679.53</ele>
        <time>2019-12-08T12:19:58.000Z</time>
      </trkpt>
      <trkpt lat="45.18392" lon="5.87283">
        <ele>679.32</ele>
        <time>2019-12-08T12:20:03.000Z</time>
      </trkpt>
      <trkpt lat="45.18405" lon="5.87239">
        <ele>679.61</ele>
        <time>2019-12-08T12:20:08.000Z</time>
      </trkpt>
      <trkpt lat="45.18425" lon="5.87202">
        <ele>673.62</ele>
        <time>2019-12-08T12:20:13.000Z</time>
      </trkpt>
      <trkpt lat="45.18441" lon="5.87181">
        <ele>672.99</ele>
        <time>2019-12-08T12:20:18.000Z</time>
      </trkpt>
      <trkpt lat="45.18427" lon="5.87178">
        <ele>669.22</ele>
        <time>2019-12-08T12:20:23.000Z</time>
      </trkpt>
      <trkpt lat="45.18411" lon="5.87149">
        <ele>668.8</ele>
        <time>2019-12-08T12:20:28.000Z</time>
      </trkpt>
      <trkpt lat="45.18446" lon="5.87118">
        <ele>664.53</ele>
        <time>2019-12-08T12:20:33.000Z</time>
      </trkpt>
      <trkpt lat="45.18487" lon="5.871">
        <ele>666.28</ele>
        <time>2019-12-08T12:20:38.000Z</time>
      </trkpt>
      <trkpt lat="45.1852" lon="5.8707">
        <ele>667.26</ele>
        <time>2019-12-08T12:20:43.000Z</time>
      </trkpt>
      <trkpt lat="45.18555" lon="5.87068">
        <ele>667.53</ele>
        <time>2019-12-08T12:20:48.000Z</time>
      </trkpt>
      <trkpt lat="45.18579" lon="5.87006">
        <ele>662.37</ele>
        <time>2019-12-08T12:20:53.000Z</time>
      </trkpt>
      <trkpt lat="45.18583" lon="5.86955">
        <ele>660.5</ele>
        <time>2019-12-08T12:20:58.000Z</time>
      </trkpt>
      <trkpt lat="45.18577" lon="5.8689">
        <ele>659.63</ele>
        <time>2019-12-08T12:21:03.000Z</time>
      </trkpt>
      <trkpt lat="45.186" lon="5.86871">
        <ele>661.5</ele>
        <time>2019-12-08T12:21:08.000Z</time>
      </trkpt>
      <trkpt lat="45.18616" lon="5.8689">
        <ele>662.71</ele>
        <time>2019-12-08T12:21:13.000Z</time>
      </trkpt>
      <trkpt lat="45.18639" lon="5.86923">
        <ele>665.22</ele>
        <time>2019-12-08T12:21:18.000Z</time>
      </trkpt>
      <trkpt lat="45.18653" lon="5.86904">
        <ele>655.68</ele>
        <time>2019-12-08T12:21:23.000Z</time>
      </trkpt>
      <trkpt lat="45.18688" lon="5.86844">
        <ele>650.95</ele>
        <time>2019-12-08T12:21:28.000Z</time>
      </trkpt>
      <trkpt lat="45.18713" lon="5.86791">
        <ele>650.38</ele>
        <time>2019-12-08T12:21:33.000Z</time>
      </trkpt>
      <trkpt lat="45.18767" lon="5.8671">
        <ele>648.32</ele>
        <time>2019-12-08T12:21:38.000Z</time>
      </trkpt>
      <trkpt lat="45.18797" lon="5.86628">
        <ele>638.91</ele>
        <time>2019-12-08T12:21:43.000Z</time>
      </trkpt>
      <trkpt lat="45.18791" lon="5.86552">
        <ele>631.35</ele>
        <time>2019-12-08T12:21:48.000Z</time>
      </trkpt>
      <trkpt lat="45.18795" lon="5.86463">
        <ele>629.02</ele>
        <time>2019-12-08T12:21:53.000Z</time>
      </trkpt>
      <trkpt lat="45.18841" lon="5.86435">
        <ele>615.42</ele>
        <time>2019-12-08T12:21:58.000Z</time>
      </trkpt>
      <trkpt lat="45.18883" lon="5.86373">
        <ele>604.03</ele>
        <time>2019-12-08T12:22:03.000Z</time>
      </trkpt>
      <trkpt lat="45.18909" lon="5.863">
        <ele>602.73</ele>
        <time>2019-12-08T12:22:08.000Z</time>
      </trkpt>
      <trkpt lat="45.18929" lon="5.86225">
        <ele>602.18</ele>
        <time>2019-12-08T12:22:13.000Z</time>
      </trkpt>
      <trkpt lat="45.18937" lon="5.86135">
        <ele>597.36</ele>
        <time>2019-12-08T12:22:18.000Z</time>
      </trkpt>
      <trkpt lat="45.18954" lon="5.86047">
        <ele>592.31</ele>
        <time>2019-12-08T12:22:23.000Z</time>
      </trkpt>
      <trkpt lat="45.18963" lon="5.85976">
        <ele>590.77</ele>
        <time>2019-12-08T12:22:28.000Z</time>
      </trkpt>
      <trkpt lat="45.18955" lon="5.85891">
        <ele>590.1</ele>
        <time>2019-12-08T12:22:33.000Z</time>
      </trkpt>
      <trkpt lat="45.1895" lon="5.85802">
        <ele>582.81</ele>
        <time>2019-12-08T12:22:38.000Z</time>
      </trkpt>
      <trkpt lat="45.18933" lon="5.8572">
        <ele>579.82</ele>
        <time>2019-12-08T12:22:43.000Z</time>
      </trkpt>
      <trkpt lat="45.18942" lon="5.85641">
        <ele>578.24</ele>
        <time>2019-12-08T12:22:48.000Z</time>
      </trkpt>
      <trkpt lat="45.18965" lon="5.85568">
        <ele>576.23</ele>
        <time>2019-12-08T12:22:53.000Z</time>
      </trkpt>
      <trkpt lat="45.19025" lon="5.85515">
        <ele>577.16</ele>
        <time>2019-12-08T12:22:58.000Z</time>
      </trkpt>
      <trkpt lat="45.19093" lon="5.85491">
        <ele>574.72</ele>
        <time>2019-12-08T12:23:03.000Z</time>
      </trkpt>
      <trkpt lat="45.19174" lon="5.85413">
        <ele>562.88</ele>
        <time>2019-12-08T12:23:08.000Z</time>
      </trkpt>
      <trkpt lat="45.19242" lon="5.85364">
        <ele>559.84</ele>
        <time>2019-12-08T12:23:13.000Z</time>
      </trkpt>
      <trkpt lat="45.19306" lon="5.8534">
        <ele>558.76</ele>
        <time>2019-12-08T12:23:18.000Z</time>
      </trkpt>
      <trkpt lat="45.19349" lon="5.85334">
        <ele>558.33</ele>
        <time>2019-12-08T12:23:23.000Z</time>
      </trkpt>
      <trkpt lat="45.19349" lon="5.85407">
        <ele>554.65</ele>
        <time>2019-12-08T12:23:28.000Z</time>
      </trkpt>
      <trkpt lat="45.19358" lon="5.85387">
        <ele>549.74</ele>
        <time>2019-12-08T12:23:33.000Z</time>
      </trkpt>
      <trkpt lat="45.19361" lon="5.8531">
        <ele>552.48</ele>
        <time>2019-12-08T12:23:38.000Z</time>
      </trkpt>
      <trkpt lat="45.19376" lon="5.85256">
        <ele>553.22</ele>
        <time>2019-12-08T12:23:43.000Z</time>
      </trkpt>
      <trkpt lat="45.19429" lon="5.85238">
        <ele>554.24</ele>
        <time>2019-12-08T12:23:48.000Z</time>
      </trkpt>
      <trkpt lat="45.19398" lon="5.85277">
        <ele>553.67</ele>
        <time>2019-12-08T12:23:53.000Z</time>
      </trkpt>
      <trkpt lat="45.19434" lon="5.85215">
        <ele>553.94</ele>
        <time>2019-12-08T12:23:58.000Z</time>
      </trkpt>
      <trkpt lat="45.19499" lon="5.85149">
        <ele>551.13</ele>
        <time>2019-12-08T12:24:03.000Z</time>
      </trkpt>
      <trkpt lat="45.19555" lon="5.8508">
        <ele>553.04</ele>
        <time>2019-12-08T12:24:08.000Z</time>
      </trkpt>
      <trkpt lat="45.19594" lon="5.85034">
        <ele>556.1</ele>
        <time>2019-12-08T12:24:13.000Z</time>
      </trkpt>
      <trkpt lat="45.19637" lon="5.84996">
        <ele>554.46</ele>
        <time>2019-12-08T12:24:18.000Z</time>
      </trkpt>
      <trkpt lat="45.19808" lon="5.84873">
        <ele>550.97</ele>
        <time>2019-12-08T12:24:34.000Z</time>
      </trkpt>
      <trkpt lat="45.19833" lon="5.848">
        <ele>548.13</ele>
        <time>2019-12-08T12:24:39.000Z</time>
      </trkpt>
      <trkpt lat="45.19838" lon="5.84743">
        <ele>546</ele>
        <time>2019-12-08T12:24:44.000Z</time>
      </trkpt>
      <trkpt lat="45.19856" lon="5.84701">
        <ele>538.43</ele>
        <time>2019-12-08T12:24:49.000Z</time>
      </trkpt>
      <trkpt lat="45.19895" lon="5.84642">
        <ele>537.28</ele>
        <time>2019-12-08T12:24:54.000Z</time>
      </trkpt>
      <trkpt lat="45.19954" lon="5.84627">
        <ele>535</ele>
        <time>2019-12-08T12:24:59.000Z</time>
      </trkpt>
      <trkpt lat="45.20015" lon="5.84592">
        <ele>532.43</ele>
        <time>2019-12-08T12:25:04.000Z</time>
      </trkpt>
      <trkpt lat="45.20094" lon="5.84446">
        <ele>509.33</ele>
        <time>2019-12-08T12:25:09.000Z</time>
      </trkpt>
      <trkpt lat="45.20574" lon="5.84948">
        <ele>482.19</ele>
        <time>2019-12-08T12:26:11.000Z</time>
      </trkpt>
      <trkpt lat="45.20548" lon="5.84866">
        <ele>471.31</ele>
        <time>2019-12-08T12:26:16.000Z</time>
      </trkpt>
      <trkpt lat="45.20518" lon="5.84775">
        <ele>467.35</ele>
        <time>2019-12-08T12:26:21.000Z</time>
      </trkpt>
      <trkpt lat="45.20472" lon="5.84675">
        <ele>461.43</ele>
        <time>2019-12-08T12:26:26.000Z</time>
      </trkpt>
      <trkpt lat="45.20434" lon="5.84581">
        <ele>457.14</ele>
        <time>2019-12-08T12:26:31.000Z</time>
      </trkpt>
      <trkpt lat="45.20431" lon="5.8449">
        <ele>450.47</ele>
        <time>2019-12-08T12:26:36.000Z</time>
      </trkpt>
      <trkpt lat="45.20394" lon="5.84385">
        <ele>433.09</ele>
        <time>2019-12-08T12:26:41.000Z</time>
      </trkpt>
      <trkpt lat="45.20368" lon="5.84295">
        <ele>427.95</ele>
        <time>2019-12-08T12:26:46.000Z</time>
      </trkpt>
      <trkpt lat="45.20328" lon="5.84282">
        <ele>426.91</ele>
        <time>2019-12-08T12:26:51.000Z</time>
      </trkpt>
      <trkpt lat="45.20138" lon="5.8422">
        <ele>386.51</ele>
        <time>2019-12-08T12:26:56.000Z</time>
      </trkpt>
      <trkpt lat="45.20043" lon="5.84214">
        <ele>354.63</ele>
        <time>2019-12-08T12:27:01.000Z</time>
      </trkpt>
      <trkpt lat="45.19989" lon="5.84229">
        <ele>355.4</ele>
        <time>2019-12-08T12:27:06.000Z</time>
      </trkpt>
      <trkpt lat="45.19975" lon="5.84294">
        <ele>347.44</ele>
        <time>2019-12-08T12:27:11.000Z</time>
      </trkpt>
      <trkpt lat="45.20045" lon="5.84203">
        <ele>345.1</ele>
        <time>2019-12-08T12:27:24.000Z</time>
      </trkpt>
      <trkpt lat="45.20064" lon="5.84174">
        <ele>346.4</ele>
        <time>2019-12-08T12:27:29.000Z</time>
      </trkpt>
      <trkpt lat="45.20101" lon="5.84116">
        <ele>335.48</ele>
        <time>2019-12-08T12:27:34.000Z</time>
      </trkpt>
      <trkpt lat="45.20121" lon="5.84087">
        <ele>330.49</ele>
        <time>2019-12-08T12:27:39.000Z</time>
      </trkpt>
      <trkpt lat="45.20134" lon="5.84052">
        <ele>329.67</ele>
        <time>2019-12-08T12:27:44.000Z</time>
      </trkpt>
      <trkpt lat="45.20147" lon="5.84006">
        <ele>318.51</ele>
        <time>2019-12-08T12:27:49.000Z</time>
      </trkpt>
      <trkpt lat="45.20158" lon="5.84008">
        <ele>313.94</ele>
        <time>2019-12-08T12:27:58.000Z</time>
      </trkpt>
      <trkpt lat="45.20181" lon="5.8404">
        <ele>314.21</ele>
        <time>2019-12-08T12:28:03.000Z</time>
      </trkpt>
      <trkpt lat="45.20203" lon="5.84055">
        <ele>311.63</ele>
        <time>2019-12-08T12:28:08.000Z</time>
      </trkpt>
      <trkpt lat="45.20215" lon="5.8406">
        <ele>309.88</ele>
        <time>2019-12-08T12:28:13.000Z</time>
      </trkpt>
      <trkpt lat="45.20211" lon="5.84121">
        <ele>303.37</ele>
        <time>2019-12-08T12:28:18.000Z</time>
      </trkpt>
      <trkpt lat="45.20753" lon="5.84909">
        <ele>252.15</ele>
        <time>2019-12-08T12:29:58.000Z</time>
      </trkpt>
      <trkpt lat="45.20764" lon="5.84947">
        <ele>247.35</ele>
        <time>2019-12-08T12:30:03.000Z</time>
      </trkpt>
      <trkpt lat="45.20779" lon="5.84982">
        <ele>244.67</ele>
        <time>2019-12-08T12:30:08.000Z</time>
      </trkpt>
      <trkpt lat="45.20793" lon="5.85021">
        <ele>244.09</ele>
        <time>2019-12-08T12:30:13.000Z</time>
      </trkpt>
      <trkpt lat="45.20809" lon="5.85058">
        <ele>245.83</ele>
        <time>2019-12-08T12:30:18.000Z</time>
      </trkpt>
      <trkpt lat="45.20828" lon="5.85098">
        <ele>245.95</ele>
        <time>2019-12-08T12:30:23.000Z</time>
      </trkpt>
      <trkpt lat="45.20846" lon="5.85106">
        <ele>247.58</ele>
        <time>2019-12-08T12:30:28.000Z</time>
      </trkpt>
      <trkpt lat="45.20859" lon="5.8516">
        <ele>248.07</ele>
        <time>2019-12-08T12:30:33.000Z</time>
      </trkpt>
      <trkpt lat="45.20873" lon="5.85197">
        <ele>247.63</ele>
        <time>2019-12-08T12:30:38.000Z</time>
      </trkpt>
      <trkpt lat="45.20903" lon="5.85216">
        <ele>243.38</ele>
        <time>2019-12-08T12:30:43.000Z</time>
      </trkpt>
      <trkpt lat="45.20929" lon="5.8522">
        <ele>237.01</ele>
        <time>2019-12-08T12:30:48.000Z</time>
      </trkpt>
      <trkpt lat="45.20949" lon="5.85258">
        <ele>237.64</ele>
        <time>2019-12-08T12:30:53.000Z</time>
      </trkpt>
      <trkpt lat="45.2096" lon="5.85294">
        <ele>235.53</ele>
        <time>2019-12-08T12:30:58.000Z</time>
      </trkpt>
      <trkpt lat="45.20985" lon="5.85328">
        <ele>229.26</ele>
        <time>2019-12-08T12:31:03.000Z</time>
      </trkpt>
      <trkpt lat="45.21003" lon="5.85356">
        <ele>232.31</ele>
        <time>2019-12-08T12:31:08.000Z</time>
      </trkpt>
      <trkpt lat="45.21014" lon="5.85391">
        <ele>234.45</ele>
        <time>2019-12-08T12:31:13.000Z</time>
      </trkpt>
      <trkpt lat="45.21033" lon="5.85418">
        <ele>234</ele>
        <time>2019-12-08T12:31:18.000Z</time>
      </trkpt>
      <trkpt lat="45.21053" lon="5.85445">
        <ele>229.16</ele>
        <time>2019-12-08T12:31:23.000Z</time>
      </trkpt>
      <trkpt lat="45.21066" lon="5.85465">
        <ele>227.29</ele>
        <time>2019-12-08T12:31:28.000Z</time>
      </trkpt>
      <trkpt lat="45.21077" lon="5.85481">
        <ele>230.04</ele>
        <time>2019-12-08T12:31:33.000Z</time>
      </trkpt>
      <trkpt lat="45.21092" lon="5.85511">
        <ele>229.21</ele>
        <time>2019-12-08T12:31:38.000Z</time>
      </trkpt>
      <trkpt lat="45.21107" lon="5.85557">
        <ele>230.01</ele>
        <time>2019-12-08T12:31:43.000Z</time>
      </trkpt>
      <trkpt lat="45.21124" lon="5.85579">
        <ele>229.08</ele>
        <time>2019-12-08T12:31:48.000Z</time>
      </trkpt>
      <trkpt lat="45.21141" lon="5.85608">
        <ele>230.24</ele>
        <time>2019-12-08T12:31:53.000Z</time>
      </trkpt>
      <trkpt lat="45.21158" lon="5.85647">
        <ele>223.86</ele>
        <time>2019-12-08T12:31:58.000Z</time>
      </trkpt>
      <trkpt lat="45.21177" lon="5.85671">
        <ele>225.03</ele>
        <time>2019-12-08T12:32:03.000Z</time>
      </trkpt>
      <trkpt lat="45.21188" lon="5.85704">
        <ele>223.89</ele>
        <time>2019-12-08T12:32:08.000Z</time>
      </trkpt>
      <trkpt lat="45.21209" lon="5.85734">
        <ele>219.45</ele>
        <time>2019-12-08T12:32:13.000Z</time>
      </trkpt>
      <trkpt lat="45.21228" lon="5.85768">
        <ele>216.66</ele>
        <time>2019-12-08T12:32:18.000Z</time>
      </trkpt>
      <trkpt lat="45.21238" lon="5.85787">
        <ele>215.68</ele>
        <time>2019-12-08T12:32:23.000Z</time>
      </trkpt>
      <trkpt lat="45.21259" lon="5.85812">
        <ele>219.7</ele>
        <time>2019-12-08T12:32:28.000Z</time>
      </trkpt>
      <trkpt lat="45.21276" lon="5.85826">
        <ele>218.34</ele>
        <time>2019-12-08T12:32:33.000Z</time>
      </trkpt>
      <trkpt lat="45.21289" lon="5.85856">
        <ele>217.76</ele>
        <time>2019-12-08T12:32:38.000Z</time>
      </trkpt>
      <trkpt lat="45.21303" lon="5.85892">
        <ele>215.8</ele>
        <time>2019-12-08T12:32:43.000Z</time>
      </trkpt>
      <trkpt lat="45.21329" lon="5.8593">
        <ele>216.52</ele>
        <time>2019-12-08T12:32:48.000Z</time>
      </trkpt>
      <trkpt lat="45.21343" lon="5.85945">
        <ele>218.44</ele>
        <time>2019-12-08T12:32:53.000Z</time>
      </trkpt>
      <trkpt lat="45.2136" lon="5.8598">
        <ele>217.48</ele>
        <time>2019-12-08T12:32:58.000Z</time>
      </trkpt>
      <trkpt lat="45.21375" lon="5.86012">
        <ele>220.5</ele>
        <time>2019-12-08T12:33:03.000Z</time>
      </trkpt>
      <trkpt lat="45.214" lon="5.86043">
        <ele>220.68</ele>
        <time>2019-12-08T12:33:08.000Z</time>
      </trkpt>
      <trkpt lat="45.21427" lon="5.86078">
        <ele>219.75</ele>
        <time>2019-12-08T12:33:13.000Z</time>
      </trkpt>
      <trkpt lat="45.21457" lon="5.86102">
        <ele>219.38</ele>
        <time>2019-12-08T12:33:18.000Z</time>
      </trkpt>
      <trkpt lat="45.21491" lon="5.86121">
        <ele>219.64</ele>
        <time>2019-12-08T12:33:23.000Z</time>
      </trkpt>
      <trkpt lat="45.21514" lon="5.86147">
        <ele>218.52</ele>
        <time>2019-12-08T12:33:28.000Z</time>
      </trkpt>
      <trkpt lat="45.21547" lon="5.86159">
        <ele>218.61</ele>
        <time>2019-12-08T12:33:33.000Z</time>
      </trkpt>
      <trkpt lat="45.21576" lon="5.86209">
        <ele>220.46</ele>
        <time>2019-12-08T12:33:38.000Z</time>
      </trkpt>
      <trkpt lat="45.21581" lon="5.86235">
        <ele>219.39</ele>
        <time>2019-12-08T12:33:43.000Z</time>
      </trkpt>
      <trkpt lat="45.21588" lon="5.86259">
        <ele>219.79</ele>
        <time>2019-12-08T12:33:48.000Z</time>
      </trkpt>
      <trkpt lat="45.21597" lon="5.86278">
        <ele>219.66</ele>
        <time>2019-12-08T12:33:53.000Z</time>
      </trkpt>
      <trkpt lat="45.21617" lon="5.86291">
        <ele>219.73</ele>
        <time>2019-12-08T12:33:58.000Z</time>
      </trkpt>
      <trkpt lat="45.21812" lon="5.86539">
        <ele>216.66</ele>
        <time>2019-12-08T12:34:27.000Z</time>
      </trkpt>
      <trkpt lat="45.21838" lon="5.86571">
        <ele>217.85</ele>
        <time>2019-12-08T12:34:32.000Z</time>
      </trkpt>
      <trkpt lat="45.21868" lon="5.86599">
        <ele>219.31</ele>
        <time>2019-12-08T12:34:37.000Z</time>
      </trkpt>
      <trkpt lat="45.21897" lon="5.86608">
        <ele>218.41</ele>
        <time>2019-12-08T12:34:42.000Z</time>
      </trkpt>
      <trkpt lat="45.21923" lon="5.86638">
        <ele>219.56</ele>
        <time>2019-12-08T12:34:47.000Z</time>
      </trkpt>
      <trkpt lat="45.21945" lon="5.86671">
        <ele>217.98</ele>
        <time>2019-12-08T12:34:52.000Z</time>
      </trkpt>
      <trkpt lat="45.21973" lon="5.86695">
        <ele>217.34</ele>
        <time>2019-12-08T12:34:57.000Z</time>
      </trkpt>
      <trkpt lat="45.21999" lon="5.86716">
        <ele>218.43</ele>
        <time>2019-12-08T12:35:02.000Z</time>
      </trkpt>
      <trkpt lat="45.22025" lon="5.86743">
        <ele>218.51</ele>
        <time>2019-12-08T12:35:07.000Z</time>
      </trkpt>
      <trkpt lat="45.22056" lon="5.86784">
        <ele>216.07</ele>
        <time>2019-12-08T12:35:12.000Z</time>
      </trkpt>
      <trkpt lat="45.22079" lon="5.86822">
        <ele>215.64</ele>
        <time>2019-12-08T12:35:17.000Z</time>
      </trkpt>
      <trkpt lat="45.22123" lon="5.86801">
        <ele>216.3</ele>
        <time>2019-12-08T12:35:26.000Z</time>
      </trkpt>
      <trkpt lat="45.22145" lon="5.86836">
        <ele>218.23</ele>
        <time>2019-12-08T12:35:31.000Z</time>
      </trkpt>
      <trkpt lat="45.22164" lon="5.86853">
        <ele>219.31</ele>
        <time>2019-12-08T12:35:36.000Z</time>
      </trkpt>
      <trkpt lat="45.22183" lon="5.86884">
        <ele>220</ele>
        <time>2019-12-08T12:35:41.000Z</time>
      </trkpt>
      <trkpt lat="45.22205" lon="5.869">
        <ele>220.8</ele>
        <time>2019-12-08T12:35:46.000Z</time>
      </trkpt>
      <trkpt lat="45.22237" lon="5.86932">
        <ele>222.96</ele>
        <time>2019-12-08T12:35:51.000Z</time>
      </trkpt>
      <trkpt lat="45.22264" lon="5.86954">
        <ele>221.61</ele>
        <time>2019-12-08T12:35:56.000Z</time>
      </trkpt>
      <trkpt lat="45.22277" lon="5.86994">
        <ele>220.48</ele>
        <time>2019-12-08T12:36:01.000Z</time>
      </trkpt>
      <trkpt lat="45.22289" lon="5.87021">
        <ele>217.32</ele>
        <time>2019-12-08T12:36:06.000Z</time>
      </trkpt>
      <trkpt lat="45.22311" lon="5.87045">
        <ele>216.08</ele>
        <time>2019-12-08T12:36:11.000Z</time>
      </trkpt>
      <trkpt lat="45.22335" lon="5.87064">
        <ele>215.53</ele>
        <time>2019-12-08T12:36:16.000Z</time>
      </trkpt>
      <trkpt lat="45.22348" lon="5.87076">
        <ele>214.61</ele>
        <time>2019-12-08T12:36:21.000Z</time>
      </trkpt>
      <trkpt lat="45.22383" lon="5.87132">
        <ele>217.47</ele>
        <time>2019-12-08T12:36:26.000Z</time>
      </trkpt>
      <trkpt lat="45.2241" lon="5.87189">
        <ele>212.3</ele>
        <time>2019-12-08T12:36:37.000Z</time>
      </trkpt>
      <trkpt lat="45.22444" lon="5.87205">
        <ele>211.53</ele>
        <time>2019-12-08T12:36:42.000Z</time>
      </trkpt>
      <trkpt lat="45.2248" lon="5.87265">
        <ele>213.22</ele>
        <time>2019-12-08T12:36:47.000Z</time>
      </trkpt>
      <trkpt lat="45.22508" lon="5.87302">
        <ele>211.45</ele>
        <time>2019-12-08T12:36:52.000Z</time>
      </trkpt>
      <trkpt lat="45.22538" lon="5.87326">
        <ele>211.6</ele>
        <time>2019-12-08T12:36:57.000Z</time>
      </trkpt>
      <trkpt lat="45.22557" lon="5.87339">
        <ele>212.3</ele>
        <time>2019-12-08T12:37:02.000Z</time>
      </trkpt>
      <trkpt lat="45.22594" lon="5.87344">
        <ele>211.85</ele>
        <time>2019-12-08T12:37:07.000Z</time>
      </trkpt>
      <trkpt lat="45.22609" lon="5.87344">
        <ele>213.4</ele>
        <time>2019-12-08T12:37:12.000Z</time>
      </trkpt>
      <trkpt lat="45.22637" lon="5.87348">
        <ele>212.8</ele>
        <time>2019-12-08T12:37:17.000Z</time>
      </trkpt>
      <trkpt lat="45.22656" lon="5.8738">
        <ele>212.37</ele>
        <time>2019-12-08T12:37:22.000Z</time>
      </trkpt>
      <trkpt lat="45.22669" lon="5.87404">
        <ele>207.14</ele>
        <time>2019-12-08T12:37:27.000Z</time>
      </trkpt>
      <trkpt lat="45.22677" lon="5.87447">
        <ele>204.14</ele>
        <time>2019-12-08T12:37:32.000Z</time>
      </trkpt>
      <trkpt lat="45.227" lon="5.87478">
        <ele>204.84</ele>
        <time>2019-12-08T12:37:37.000Z</time>
      </trkpt>
      <trkpt lat="45.2273" lon="5.87518">
        <ele>203.96</ele>
        <time>2019-12-08T12:37:42.000Z</time>
      </trkpt>
      <trkpt lat="45.22757" lon="5.8754">
        <ele>204.47</ele>
        <time>2019-12-08T12:37:47.000Z</time>
      </trkpt>
      <trkpt lat="45.22777" lon="5.87567">
        <ele>203.54</ele>
        <time>2019-12-08T12:37:52.000Z</time>
      </trkpt>
      <trkpt lat="45.22799" lon="5.87597">
        <ele>203.19</ele>
        <time>2019-12-08T12:37:57.000Z</time>
      </trkpt>
      <trkpt lat="45.22828" lon="5.87628">
        <ele>206.24</ele>
        <time>2019-12-08T12:38:02.000Z</time>
      </trkpt>
      <trkpt lat="45.2285" lon="5.87639">
        <ele>210.23</ele>
        <time>2019-12-08T12:38:07.000Z</time>
      </trkpt>
      <trkpt lat="45.22876" lon="5.87664">
        <ele>210.1</ele>
        <time>2019-12-08T12:38:12.000Z</time>
      </trkpt>
      <trkpt lat="45.22893" lon="5.87698">
        <ele>211.13</ele>
        <time>2019-12-08T12:38:17.000Z</time>
      </trkpt>
      <trkpt lat="45.22915" lon="5.87715">
        <ele>212.48</ele>
        <time>2019-12-08T12:38:22.000Z</time>
      </trkpt>
      <trkpt lat="45.22928" lon="5.87724">
        <ele>209.71</ele>
        <time>2019-12-08T12:38:27.000Z</time>
      </trkpt>
      <trkpt lat="45.22968" lon="5.87759">
        <ele>210.1</ele>
        <time>2019-12-08T12:38:41.000Z</time>
      </trkpt>
      <trkpt lat="45.22995" lon="5.87797">
        <ele>208.2</ele>
        <time>2019-12-08T12:38:46.000Z</time>
      </trkpt>
      <trkpt lat="45.23005" lon="5.87793">
        <ele>207.01</ele>
        <time>2019-12-08T12:38:51.000Z</time>
      </trkpt>
      <trkpt lat="45.23033" lon="5.87797">
        <ele>212.38</ele>
        <time>2019-12-08T12:38:56.000Z</time>
      </trkpt>
      <trkpt lat="45.23068" lon="5.87806">
        <ele>217.91</ele>
        <time>2019-12-08T12:39:01.000Z</time>
      </trkpt>
      <trkpt lat="45.23101" lon="5.87831">
        <ele>219.88</ele>
        <time>2019-12-08T12:39:06.000Z</time>
      </trkpt>
      <trkpt lat="45.23127" lon="5.87905">
        <ele>225.33</ele>
        <time>2019-12-08T12:39:11.000Z</time>
      </trkpt>
      <trkpt lat="45.23146" lon="5.87956">
        <ele>229.51</ele>
        <time>2019-12-08T12:39:16.000Z</time>
      </trkpt>
      <trkpt lat="45.23168" lon="5.87976">
        <ele>226.83</ele>
        <time>2019-12-08T12:39:21.000Z</time>
      </trkpt>
      <trkpt lat="45.23187" lon="5.88007">
        <ele>228.74</ele>
        <time>2019-12-08T12:39:26.000Z</time>
      </trkpt>
      <trkpt lat="45.23215" lon="5.88046">
        <ele>228.59</ele>
        <time>2019-12-08T12:39:31.000Z</time>
      </trkpt>
      <trkpt lat="45.23251" lon="5.88065">
        <ele>225.97</ele>
        <time>2019-12-08T12:39:36.000Z</time>
      </trkpt>
      <trkpt lat="45.2327" lon="5.8808">
        <ele>224.72</ele>
        <time>2019-12-08T12:39:41.000Z</time>
      </trkpt>
      <trkpt lat="45.23287" lon="5.88109">
        <ele>222.61</ele>
        <time>2019-12-08T12:39:46.000Z</time>
      </trkpt>
      <trkpt lat="45.23312" lon="5.88138">
        <ele>222.3</ele>
        <time>2019-12-08T12:39:51.000Z</time>
      </trkpt>
      <trkpt lat="45.23351" lon="5.88172">
        <ele>215.25</ele>
        <time>2019-12-08T12:39:56.000Z</time>
      </trkpt>
      <trkpt lat="45.23376" lon="5.88205">
        <ele>215.67</ele>
        <time>2019-12-08T12:40:01.000Z</time>
      </trkpt>
      <trkpt lat="45.23379" lon="5.88232">
        <ele>218.34</ele>
        <time>2019-12-08T12:40:06.000Z</time>
      </trkpt>
      <trkpt lat="45.23384" lon="5.88245">
        <ele>220.81</ele>
        <time>2019-12-08T12:40:11.000Z</time>
      </trkpt>
      <trkpt lat="45.23404" lon="5.88267">
        <ele>218.87</ele>
        <time>2019-12-08T12:40:31.000Z</time>
      </trkpt>
      <trkpt lat="45.23418" lon="5.88287">
        <ele>220.07</ele>
        <time>2019-12-08T12:40:36.000Z</time>
      </trkpt>
      <trkpt lat="45.23485" lon="5.88382">
        <ele>221.28</ele>
        <time>2019-12-08T12:40:58.000Z</time>
      </trkpt>
      <trkpt lat="45.23515" lon="5.8841">
        <ele>219.91</ele>
        <time>2019-12-08T12:41:03.000Z</time>
      </trkpt>
      <trkpt lat="45.23546" lon="5.88432">
        <ele>224.87</ele>
        <time>2019-12-08T12:41:08.000Z</time>
      </trkpt>
      <trkpt lat="45.23579" lon="5.88466">
        <ele>228.64</ele>
        <time>2019-12-08T12:41:13.000Z</time>
      </trkpt>
      <trkpt lat="45.23959" lon="5.88994">
        <ele>229.78</ele>
        <time>2019-12-08T12:42:47.000Z</time>
      </trkpt>
      <trkpt lat="45.24068" lon="5.89108">
        <ele>229.41</ele>
        <time>2019-12-08T12:43:07.000Z</time>
      </trkpt>
      <trkpt lat="45.24104" lon="5.89137">
        <ele>231.02</ele>
        <time>2019-12-08T12:43:12.000Z</time>
      </trkpt>
      <trkpt lat="45.24379" lon="5.89359">
        <ele>230.73</ele>
        <time>2019-12-08T12:44:10.000Z</time>
      </trkpt>
      <trkpt lat="45.24523" lon="5.89526">
        <ele>234.07</ele>
        <time>2019-12-08T12:45:06.000Z</time>
      </trkpt>
      <trkpt lat="45.24568" lon="5.8952">
        <ele>234.33</ele>
        <time>2019-12-08T12:45:11.000Z</time>
      </trkpt>
      <trkpt lat="45.24591" lon="5.89506">
        <ele>230.7</ele>
        <time>2019-12-08T12:45:16.000Z</time>
      </trkpt>
      <trkpt lat="45.24618" lon="5.89536">
        <ele>236.27</ele>
        <time>2019-12-08T12:45:21.000Z</time>
      </trkpt>
      <trkpt lat="45.24637" lon="5.8955">
        <ele>241.59</ele>
        <time>2019-12-08T12:45:26.000Z</time>
      </trkpt>
      <trkpt lat="45.2464" lon="5.89584">
        <ele>242</ele>
        <time>2019-12-08T12:45:31.000Z</time>
      </trkpt>
      <trkpt lat="45.24649" lon="5.89582">
        <ele>241.22</ele>
        <time>2019-12-08T12:45:36.000Z</time>
      </trkpt>
      <trkpt lat="45.24697" lon="5.89569">
        <ele>237.67</ele>
        <time>2019-12-08T12:46:24.000Z</time>
      </trkpt>
      <trkpt lat="45.24701" lon="5.896">
        <ele>239.24</ele>
        <time>2019-12-08T12:46:29.000Z</time>
      </trkpt>
      <trkpt lat="45.24698" lon="5.89646">
        <ele>242.05</ele>
        <time>2019-12-08T12:46:34.000Z</time>
      </trkpt>
      <trkpt lat="45.24736" lon="5.89637">
        <ele>241.34</ele>
        <time>2019-12-08T12:46:39.000Z</time>
      </trkpt>
      <trkpt lat="45.24755" lon="5.89654">
        <ele>242.41</ele>
        <time>2019-12-08T12:46:44.000Z</time>
      </trkpt>
      <trkpt lat="45.24908" lon="5.8981">
        <ele>246.85</ele>
        <time>2019-12-08T12:47:05.000Z</time>
      </trkpt>
      <trkpt lat="45.24947" lon="5.8985">
        <ele>246</ele>
        <time>2019-12-08T12:47:10.000Z</time>
      </trkpt>
      <trkpt lat="45.24971" lon="5.89883">
        <ele>250.33</ele>
        <time>2019-12-08T12:47:15.000Z</time>
      </trkpt>
      <trkpt lat="45.24997" lon="5.89913">
        <ele>249.6</ele>
        <time>2019-12-08T12:47:20.000Z</time>
      </trkpt>
      <trkpt lat="45.25021" lon="5.89945">
        <ele>248.84</ele>
        <time>2019-12-08T12:47:25.000Z</time>
      </trkpt>
      <trkpt lat="45.25049" lon="5.89956">
        <ele>246.32</ele>
        <time>2019-12-08T12:47:30.000Z</time>
      </trkpt>
      <trkpt lat="45.2508" lon="5.89979">
        <ele>244.96</ele>
        <time>2019-12-08T12:47:35.000Z</time>
      </trkpt>
      <trkpt lat="45.25118" lon="5.90037">
        <ele>245.03</ele>
        <time>2019-12-08T12:47:40.000Z</time>
      </trkpt>
      <trkpt lat="45.25149" lon="5.90083">
        <ele>238.66</ele>
        <time>2019-12-08T12:47:45.000Z</time>
      </trkpt>
      <trkpt lat="45.25189" lon="5.90144">
        <ele>234.48</ele>
        <time>2019-12-08T12:47:50.000Z</time>
      </trkpt>
      <trkpt lat="45.25229" lon="5.90197">
        <ele>230.26</ele>
        <time>2019-12-08T12:47:55.000Z</time>
      </trkpt>
      <trkpt lat="45.2527" lon="5.90243">
        <ele>233.5</ele>
        <time>2019-12-08T12:48:00.000Z</time>
      </trkpt>
      <trkpt lat="45.25303" lon="5.90278">
        <ele>235.41</ele>
        <time>2019-12-08T12:48:05.000Z</time>
      </trkpt>
      <trkpt lat="45.25337" lon="5.90315">
        <ele>233.27</ele>
        <time>2019-12-08T12:48:10.000Z</time>
      </trkpt>
      <trkpt lat="45.25361" lon="5.90343">
        <ele>232.1</ele>
        <time>2019-12-08T12:48:15.000Z</time>
      </trkpt>
      <trkpt lat="45.25395" lon="5.90377">
        <ele>228.64</ele>
        <time>2019-12-08T12:48:20.000Z</time>
      </trkpt>
      <trkpt lat="45.25425" lon="5.90417">
        <ele>227.59</ele>
        <time>2019-12-08T12:48:25.000Z</time>
      </trkpt>
      <trkpt lat="45.25457" lon="5.90459">
        <ele>227.17</ele>
        <time>2019-12-08T12:48:30.000Z</time>
      </trkpt>
      <trkpt lat="45.25489" lon="5.90494">
        <ele>229.04</ele>
        <time>2019-12-08T12:48:35.000Z</time>
      </trkpt>
      <trkpt lat="45.25527" lon="5.90522">
        <ele>226.8</ele>
        <time>2019-12-08T12:48:40.000Z</time>
      </trkpt>
      <trkpt lat="45.2555" lon="5.9054">
        <ele>226.51</ele>
        <time>2019-12-08T12:48:45.000Z</time>
      </trkpt>
      <trkpt lat="45.25568" lon="5.90569">
        <ele>226.89</ele>
        <time>2019-12-08T12:48:50.000Z</time>
      </trkpt>
      <trkpt lat="45.25583" lon="5.90576">
        <ele>226.35</ele>
        <time>2019-12-08T12:48:55.000Z</time>
      </trkpt>
      <trkpt lat="45.25596" lon="5.90592">
        <ele>228.05</ele>
        <time>2019-12-08T12:49:00.000Z</time>
      </trkpt>
      <trkpt lat="45.25607" lon="5.90607">
        <ele>225.68</ele>
        <time>2019-12-08T12:49:05.000Z</time>
      </trkpt>
      <trkpt lat="45.25627" lon="5.90635">
        <ele>226.9</ele>
        <time>2019-12-08T12:49:10.000Z</time>
      </trkpt>
      <trkpt lat="45.25806" lon="5.90815">
        <ele>226.91</ele>
        <time>2019-12-08T12:49:59.000Z</time>
      </trkpt>
      <trkpt lat="45.25826" lon="5.90832">
        <ele>226.81</ele>
        <time>2019-12-08T12:50:04.000Z</time>
      </trkpt>
      <trkpt lat="45.25828" lon="5.9086">
        <ele>227.32</ele>
        <time>2019-12-08T12:50:09.000Z</time>
      </trkpt>
      <trkpt lat="45.25807" lon="5.90911">
        <ele>227.76</ele>
        <time>2019-12-08T12:50:16.000Z</time>
      </trkpt>
      <trkpt lat="45.25798" lon="5.90921">
        <ele>228.36</ele>
        <time>2019-12-08T12:50:21.000Z</time>
      </trkpt>
      <trkpt lat="45.25806" lon="5.90966">
        <ele>228.1</ele>
        <time>2019-12-08T12:50:26.000Z</time>
      </trkpt>
      <trkpt lat="45.25833" lon="5.91025">
        <ele>230.48</ele>
        <time>2019-12-08T12:50:31.000Z</time>
      </trkpt>
      <trkpt lat="45.25809" lon="5.90957">
        <ele>233.48</ele>
        <time>2019-12-08T12:50:47.000Z</time>
      </trkpt>
      <trkpt lat="45.25828" lon="5.91022">
        <ele>229.91</ele>
        <time>2019-12-08T12:50:52.000Z</time>
      </trkpt>
      <trkpt lat="45.25818" lon="5.91029">
        <ele>229.58</ele>
        <time>2019-12-08T12:51:02.000Z</time>
      </trkpt>
      <trkpt lat="45.2581" lon="5.91013">
        <ele>244.83</ele>
        <time>2019-12-08T12:51:07.000Z</time>
      </trkpt>
      <trkpt lat="45.25821" lon="5.91019">
        <ele>254.89</ele>
        <time>2019-12-08T12:53:05.000Z</time>
      </trkpt>
      <trkpt lat="45.25839" lon="5.91043">
        <ele>256.04</ele>
        <time>2019-12-08T12:53:10.000Z</time>
      </trkpt>
      <trkpt lat="45.25851" lon="5.9107">
        <ele>261.98</ele>
        <time>2019-12-08T12:53:15.000Z</time>
      </trkpt>
      <trkpt lat="45.25865" lon="5.91091">
        <ele>261.89</ele>
        <time>2019-12-08T12:53:20.000Z</time>
      </trkpt>
      <trkpt lat="45.25878" lon="5.91118">
        <ele>259.95</ele>
        <time>2019-12-08T12:53:25.000Z</time>
      </trkpt>
      <trkpt lat="45.2589" lon="5.91143">
        <ele>258.77</ele>
        <time>2019-12-08T12:53:30.000Z</time>
      </trkpt>
      <trkpt lat="45.25903" lon="5.91171">
        <ele>254.46</ele>
        <time>2019-12-08T12:53:35.000Z</time>
      </trkpt>
      <trkpt lat="45.25916" lon="5.91194">
        <ele>252.76</ele>
        <time>2019-12-08T12:53:40.000Z</time>
      </trkpt>
      <trkpt lat="45.25929" lon="5.9121">
        <ele>256.13</ele>
        <time>2019-12-08T12:53:45.000Z</time>
      </trkpt>
      <trkpt lat="45.25943" lon="5.91221">
        <ele>255.34</ele>
        <time>2019-12-08T12:53:50.000Z</time>
      </trkpt>
      <trkpt lat="45.25957" lon="5.91241">
        <ele>257.56</ele>
        <time>2019-12-08T12:53:55.000Z</time>
      </trkpt>
      <trkpt lat="45.25972" lon="5.91255">
        <ele>259.49</ele>
        <time>2019-12-08T12:54:00.000Z</time>
      </trkpt>
      <trkpt lat="45.25985" lon="5.91274">
        <ele>263.77</ele>
        <time>2019-12-08T12:54:05.000Z</time>
      </trkpt>
      <trkpt lat="45.25997" lon="5.91297">
        <ele>265.59</ele>
        <time>2019-12-08T12:54:10.000Z</time>
      </trkpt>
      <trkpt lat="45.26012" lon="5.91324">
        <ele>266.99</ele>
        <time>2019-12-08T12:54:15.000Z</time>
      </trkpt>
      <trkpt lat="45.26023" lon="5.91344">
        <ele>268.95</ele>
        <time>2019-12-08T12:54:20.000Z</time>
      </trkpt>
      <trkpt lat="45.26036" lon="5.91364">
        <ele>271.72</ele>
        <time>2019-12-08T12:54:25.000Z</time>
      </trkpt>
      <trkpt lat="45.26055" lon="5.91386">
        <ele>269.29</ele>
        <time>2019-12-08T12:54:30.000Z</time>
      </trkpt>
      <trkpt lat="45.26069" lon="5.91407">
        <ele>268.88</ele>
        <time>2019-12-08T12:54:35.000Z</time>
      </trkpt>
      <trkpt lat="45.26082" lon="5.91422">
        <ele>273.46</ele>
        <time>2019-12-08T12:54:40.000Z</time>
      </trkpt>
      <trkpt lat="45.26092" lon="5.91448">
        <ele>276.13</ele>
        <time>2019-12-08T12:54:45.000Z</time>
      </trkpt>
      <trkpt lat="45.26099" lon="5.91467">
        <ele>278.04</ele>
        <time>2019-12-08T12:54:50.000Z</time>
      </trkpt>
      <trkpt lat="45.26111" lon="5.91486">
        <ele>276.11</ele>
        <time>2019-12-08T12:54:55.000Z</time>
      </trkpt>
      <trkpt lat="45.26123" lon="5.91497">
        <ele>276.82</ele>
        <time>2019-12-08T12:55:00.000Z</time>
      </trkpt>
      <trkpt lat="45.26133" lon="5.91512">
        <ele>278.67</ele>
        <time>2019-12-08T12:55:05.000Z</time>
      </trkpt>
      <trkpt lat="45.26148" lon="5.91533">
        <ele>275.3</ele>
        <time>2019-12-08T12:55:10.000Z</time>
      </trkpt>
      <trkpt lat="45.26171" lon="5.91561">
        <ele>272.13</ele>
        <time>2019-12-08T12:55:15.000Z</time>
      </trkpt>
      <trkpt lat="45.26181" lon="5.91578">
        <ele>276.81</ele>
        <time>2019-12-08T12:55:20.000Z</time>
      </trkpt>
      <trkpt lat="45.26193" lon="5.91597">
        <ele>281.92</ele>
        <time>2019-12-08T12:55:25.000Z</time>
      </trkpt>
      <trkpt lat="45.26204" lon="5.91612">
        <ele>284.83</ele>
        <time>2019-12-08T12:55:30.000Z</time>
      </trkpt>
      <trkpt lat="45.26219" lon="5.91631">
        <ele>284.73</ele>
        <time>2019-12-08T12:55:35.000Z</time>
      </trkpt>
      <trkpt lat="45.26235" lon="5.91648">
        <ele>285.15</ele>
        <time>2019-12-08T12:55:40.000Z</time>
      </trkpt>
      <trkpt lat="45.26248" lon="5.91668">
        <ele>283.33</ele>
        <time>2019-12-08T12:55:45.000Z</time>
      </trkpt>
      <trkpt lat="45.26259" lon="5.91684">
        <ele>285.95</ele>
        <time>2019-12-08T12:55:50.000Z</time>
      </trkpt>
      <trkpt lat="45.26272" lon="5.91695">
        <ele>289.43</ele>
        <time>2019-12-08T12:55:55.000Z</time>
      </trkpt>
      <trkpt lat="45.26291" lon="5.9171">
        <ele>289.1</ele>
        <time>2019-12-08T12:56:00.000Z</time>
      </trkpt>
      <trkpt lat="45.26306" lon="5.91732">
        <ele>290.77</ele>
        <time>2019-12-08T12:56:05.000Z</time>
      </trkpt>
      <trkpt lat="45.26319" lon="5.91753">
        <ele>289.54</ele>
        <time>2019-12-08T12:56:10.000Z</time>
      </trkpt>
      <trkpt lat="45.2633" lon="5.91772">
        <ele>287.39</ele>
        <time>2019-12-08T12:56:15.000Z</time>
      </trkpt>
      <trkpt lat="45.26345" lon="5.91779">
        <ele>286.65</ele>
        <time>2019-12-08T12:56:20.000Z</time>
      </trkpt>
      <trkpt lat="45.26359" lon="5.91795">
        <ele>288.43</ele>
        <time>2019-12-08T12:56:25.000Z</time>
      </trkpt>
      <trkpt lat="45.26363" lon="5.91822">
        <ele>290.24</ele>
        <time>2019-12-08T12:56:30.000Z</time>
      </trkpt>
      <trkpt lat="45.26361" lon="5.9184">
        <ele>291.91</ele>
        <time>2019-12-08T12:56:35.000Z</time>
      </trkpt>
      <trkpt lat="45.26368" lon="5.91866">
        <ele>293.52</ele>
        <time>2019-12-08T12:56:40.000Z</time>
      </trkpt>
      <trkpt lat="45.2638" lon="5.91883">
        <ele>293.35</ele>
        <time>2019-12-08T12:56:45.000Z</time>
      </trkpt>
      <trkpt lat="45.26397" lon="5.91896">
        <ele>296.14</ele>
        <time>2019-12-08T12:56:50.000Z</time>
      </trkpt>
      <trkpt lat="45.2641" lon="5.9191">
        <ele>295.94</ele>
        <time>2019-12-08T12:56:55.000Z</time>
      </trkpt>
      <trkpt lat="45.26423" lon="5.91923">
        <ele>298.25</ele>
        <time>2019-12-08T12:57:00.000Z</time>
      </trkpt>
      <trkpt lat="45.26434" lon="5.91944">
        <ele>296.8</ele>
        <time>2019-12-08T12:57:05.000Z</time>
      </trkpt>
      <trkpt lat="45.26449" lon="5.91961">
        <ele>298.58</ele>
        <time>2019-12-08T12:57:10.000Z</time>
      </trkpt>
      <trkpt lat="45.26459" lon="5.91976">
        <ele>300.83</ele>
        <time>2019-12-08T12:57:15.000Z</time>
      </trkpt>
      <trkpt lat="45.26466" lon="5.91985">
        <ele>303.23</ele>
        <time>2019-12-08T12:57:20.000Z</time>
      </trkpt>
      <trkpt lat="45.26474" lon="5.91996">
        <ele>302.92</ele>
        <time>2019-12-08T12:57:25.000Z</time>
      </trkpt>
      <trkpt lat="45.26481" lon="5.92012">
        <ele>299.56</ele>
        <time>2019-12-08T12:57:30.000Z</time>
      </trkpt>
      <trkpt lat="45.26493" lon="5.92035">
        <ele>297.28</ele>
        <time>2019-12-08T12:57:35.000Z</time>
      </trkpt>
      <trkpt lat="45.2651" lon="5.9206">
        <ele>297.11</ele>
        <time>2019-12-08T12:57:40.000Z</time>
      </trkpt>
      <trkpt lat="45.26523" lon="5.9207">
        <ele>303.53</ele>
        <time>2019-12-08T12:57:45.000Z</time>
      </trkpt>
      <trkpt lat="45.26532" lon="5.92084">
        <ele>306.06</ele>
        <time>2019-12-08T12:57:50.000Z</time>
      </trkpt>
      <trkpt lat="45.26538" lon="5.92097">
        <ele>304.51</ele>
        <time>2019-12-08T12:57:55.000Z</time>
      </trkpt>
      <trkpt lat="45.26549" lon="5.92112">
        <ele>308.77</ele>
        <time>2019-12-08T12:58:00.000Z</time>
      </trkpt>
      <trkpt lat="45.26568" lon="5.9213">
        <ele>310.78</ele>
        <time>2019-12-08T12:58:05.000Z</time>
      </trkpt>
      <trkpt lat="45.26587" lon="5.9215">
        <ele>314.33</ele>
        <time>2019-12-08T12:58:10.000Z</time>
      </trkpt>
      <trkpt lat="45.26602" lon="5.92175">
        <ele>318.8</ele>
        <time>2019-12-08T12:58:15.000Z</time>
      </trkpt>
      <trkpt lat="45.26603" lon="5.922">
        <ele>321.93</ele>
        <time>2019-12-08T12:58:20.000Z</time>
      </trkpt>
      <trkpt lat="45.26606" lon="5.92225">
        <ele>322.36</ele>
        <time>2019-12-08T12:58:25.000Z</time>
      </trkpt>
      <trkpt lat="45.26616" lon="5.9225">
        <ele>321.73</ele>
        <time>2019-12-08T12:58:30.000Z</time>
      </trkpt>
      <trkpt lat="45.26627" lon="5.92262">
        <ele>327.89</ele>
        <time>2019-12-08T12:58:35.000Z</time>
      </trkpt>
      <trkpt lat="45.26639" lon="5.9227">
        <ele>334.18</ele>
        <time>2019-12-08T12:58:40.000Z</time>
      </trkpt>
      <trkpt lat="45.2665" lon="5.92278">
        <ele>332.34</ele>
        <time>2019-12-08T12:58:45.000Z</time>
      </trkpt>
      <trkpt lat="45.26664" lon="5.92292">
        <ele>333.94</ele>
        <time>2019-12-08T12:58:50.000Z</time>
      </trkpt>
      <trkpt lat="45.26677" lon="5.92311">
        <ele>336.41</ele>
        <time>2019-12-08T12:58:55.000Z</time>
      </trkpt>
      <trkpt lat="45.26681" lon="5.92324">
        <ele>335.99</ele>
        <time>2019-12-08T12:59:00.000Z</time>
      </trkpt>
      <trkpt lat="45.26691" lon="5.92331">
        <ele>348.99</ele>
        <time>2019-12-08T12:59:47.000Z</time>
      </trkpt>
      <trkpt lat="45.267" lon="5.92321">
        <ele>352.12</ele>
        <time>2019-12-08T12:59:52.000Z</time>
      </trkpt>
      <trkpt lat="45.26691" lon="5.92325">
        <ele>355.47</ele>
        <time>2019-12-08T13:00:27.000Z</time>
      </trkpt>
      <trkpt lat="45.26683" lon="5.92333">
        <ele>362.73</ele>
        <time>2019-12-08T13:00:42.000Z</time>
      </trkpt>
      <trkpt lat="45.26676" lon="5.92323">
        <ele>358.86</ele>
        <time>2019-12-08T13:02:16.000Z</time>
      </trkpt>
      <trkpt lat="45.26656" lon="5.92313">
        <ele>363.61</ele>
        <time>2019-12-08T13:02:21.000Z</time>
      </trkpt>
      <trkpt lat="45.26642" lon="5.923">
        <ele>366.42</ele>
        <time>2019-12-08T13:02:26.000Z</time>
      </trkpt>
      <trkpt lat="45.26628" lon="5.92283">
        <ele>370.52</ele>
        <time>2019-12-08T13:02:31.000Z</time>
      </trkpt>
      <trkpt lat="45.26614" lon="5.92269">
        <ele>371.09</ele>
        <time>2019-12-08T13:02:36.000Z</time>
      </trkpt>
      <trkpt lat="45.26598" lon="5.92258">
        <ele>372.23</ele>
        <time>2019-12-08T13:02:41.000Z</time>
      </trkpt>
      <trkpt lat="45.26585" lon="5.92247">
        <ele>374.28</ele>
        <time>2019-12-08T13:02:46.000Z</time>
      </trkpt>
      <trkpt lat="45.26571" lon="5.92236">
        <ele>376.99</ele>
        <time>2019-12-08T13:02:51.000Z</time>
      </trkpt>
      <trkpt lat="45.26557" lon="5.92222">
        <ele>377.84</ele>
        <time>2019-12-08T13:02:56.000Z</time>
      </trkpt>
      <trkpt lat="45.26539" lon="5.92207">
        <ele>373.31</ele>
        <time>2019-12-08T13:03:01.000Z</time>
      </trkpt>
      <trkpt lat="45.26523" lon="5.92194">
        <ele>374.16</ele>
        <time>2019-12-08T13:03:06.000Z</time>
      </trkpt>
      <trkpt lat="45.26507" lon="5.92186">
        <ele>377.07</ele>
        <time>2019-12-08T13:03:11.000Z</time>
      </trkpt>
      <trkpt lat="45.26494" lon="5.92176">
        <ele>376.04</ele>
        <time>2019-12-08T13:03:16.000Z</time>
      </trkpt>
      <trkpt lat="45.26482" lon="5.92168">
        <ele>380.91</ele>
        <time>2019-12-08T13:03:21.000Z</time>
      </trkpt>
      <trkpt lat="45.26465" lon="5.92159">
        <ele>381.14</ele>
        <time>2019-12-08T13:03:26.000Z</time>
      </trkpt>
      <trkpt lat="45.26449" lon="5.92148">
        <ele>383.25</ele>
        <time>2019-12-08T13:03:31.000Z</time>
      </trkpt>
      <trkpt lat="45.26432" lon="5.92136">
        <ele>385.26</ele>
        <time>2019-12-08T13:03:36.000Z</time>
      </trkpt>
      <trkpt lat="45.26416" lon="5.92123">
        <ele>388.64</ele>
        <time>2019-12-08T13:03:41.000Z</time>
      </trkpt>
      <trkpt lat="45.264" lon="5.92112">
        <ele>390.03</ele>
        <time>2019-12-08T13:03:46.000Z</time>
      </trkpt>
      <trkpt lat="45.26386" lon="5.92102">
        <ele>387.05</ele>
        <time>2019-12-08T13:03:51.000Z</time>
      </trkpt>
      <trkpt lat="45.26366" lon="5.92091">
        <ele>385.04</ele>
        <time>2019-12-08T13:03:56.000Z</time>
      </trkpt>
      <trkpt lat="45.26347" lon="5.92082">
        <ele>384.61</ele>
        <time>2019-12-08T13:04:01.000Z</time>
      </trkpt>
      <trkpt lat="45.26328" lon="5.92076">
        <ele>383.62</ele>
        <time>2019-12-08T13:04:06.000Z</time>
      </trkpt>
      <trkpt lat="45.2632" lon="5.92072">
        <ele>388.16</ele>
        <time>2019-12-08T13:04:12.000Z</time>
      </trkpt>
      <trkpt lat="45.26306" lon="5.92067">
        <ele>386.32</ele>
        <time>2019-12-08T13:04:17.000Z</time>
      </trkpt>
      <trkpt lat="45.26296" lon="5.92061">
        <ele>387.11</ele>
        <time>2019-12-08T13:04:22.000Z</time>
      </trkpt>
      <trkpt lat="45.26276" lon="5.92052">
        <ele>384.69</ele>
        <time>2019-12-08T13:04:27.000Z</time>
      </trkpt>
      <trkpt lat="45.2625" lon="5.92047">
        <ele>389.69</ele>
        <time>2019-12-08T13:04:32.000Z</time>
      </trkpt>
      <trkpt lat="45.26235" lon="5.92039">
        <ele>390.78</ele>
        <time>2019-12-08T13:04:37.000Z</time>
      </trkpt>
      <trkpt lat="45.26224" lon="5.92027">
        <ele>391.43</ele>
        <time>2019-12-08T13:04:42.000Z</time>
      </trkpt>
      <trkpt lat="45.26215" lon="5.92012">
        <ele>389.38</ele>
        <time>2019-12-08T13:04:47.000Z</time>
      </trkpt>
      <trkpt lat="45.26209" lon="5.91997">
        <ele>389.65</ele>
        <time>2019-12-08T13:04:52.000Z</time>
      </trkpt>
      <trkpt lat="45.26202" lon="5.91981">
        <ele>396.05</ele>
        <time>2019-12-08T13:04:57.000Z</time>
      </trkpt>
      <trkpt lat="45.26189" lon="5.91967">
        <ele>400.17</ele>
        <time>2019-12-08T13:05:02.000Z</time>
      </trkpt>
      <trkpt lat="45.26171" lon="5.91952">
        <ele>402.79</ele>
        <time>2019-12-08T13:05:07.000Z</time>
      </trkpt>
      <trkpt lat="45.2615" lon="5.91939">
        <ele>400.93</ele>
        <time>2019-12-08T13:05:12.000Z</time>
      </trkpt>
      <trkpt lat="45.26128" lon="5.91931">
        <ele>401.85</ele>
        <time>2019-12-08T13:05:17.000Z</time>
      </trkpt>
      <trkpt lat="45.26109" lon="5.91921">
        <ele>401.47</ele>
        <time>2019-12-08T13:05:22.000Z</time>
      </trkpt>
      <trkpt lat="45.26092" lon="5.91911">
        <ele>401.75</ele>
        <time>2019-12-08T13:05:27.000Z</time>
      </trkpt>
      <trkpt lat="45.26083" lon="5.91897">
        <ele>402.29</ele>
        <time>2019-12-08T13:05:32.000Z</time>
      </trkpt>
      <trkpt lat="45.26076" lon="5.91885">
        <ele>401.11</ele>
        <time>2019-12-08T13:05:37.000Z</time>
      </trkpt>
      <trkpt lat="45.26059" lon="5.91884">
        <ele>400.85</ele>
        <time>2019-12-08T13:05:42.000Z</time>
      </trkpt>
      <trkpt lat="45.26039" lon="5.9188">
        <ele>398.95</ele>
        <time>2019-12-08T13:05:47.000Z</time>
      </trkpt>
      <trkpt lat="45.26022" lon="5.9188">
        <ele>398.02</ele>
        <time>2019-12-08T13:05:52.000Z</time>
      </trkpt>
      <trkpt lat="45.26007" lon="5.91881">
        <ele>398.55</ele>
        <time>2019-12-08T13:05:57.000Z</time>
      </trkpt>
      <trkpt lat="45.25994" lon="5.91877">
        <ele>401.34</ele>
        <time>2019-12-08T13:06:02.000Z</time>
      </trkpt>
      <trkpt lat="45.25981" lon="5.91868">
        <ele>403.76</ele>
        <time>2019-12-08T13:06:07.000Z</time>
      </trkpt>
      <trkpt lat="45.25975" lon="5.91856">
        <ele>404.62</ele>
        <time>2019-12-08T13:06:12.000Z</time>
      </trkpt>
      <trkpt lat="45.25958" lon="5.91845">
        <ele>405.45</ele>
        <time>2019-12-08T13:06:17.000Z</time>
      </trkpt>
      <trkpt lat="45.25935" lon="5.91837">
        <ele>412.42</ele>
        <time>2019-12-08T13:06:22.000Z</time>
      </trkpt>
      <trkpt lat="45.25921" lon="5.91822">
        <ele>416.75</ele>
        <time>2019-12-08T13:06:27.000Z</time>
      </trkpt>
      <trkpt lat="45.25912" lon="5.918">
        <ele>416.56</ele>
        <time>2019-12-08T13:06:32.000Z</time>
      </trkpt>
      <trkpt lat="45.25899" lon="5.91786">
        <ele>420.44</ele>
        <time>2019-12-08T13:06:37.000Z</time>
      </trkpt>
      <trkpt lat="45.25885" lon="5.91777">
        <ele>420.77</ele>
        <time>2019-12-08T13:06:42.000Z</time>
      </trkpt>
      <trkpt lat="45.25864" lon="5.91763">
        <ele>424.23</ele>
        <time>2019-12-08T13:06:47.000Z</time>
      </trkpt>
      <trkpt lat="45.2585" lon="5.91749">
        <ele>430.06</ele>
        <time>2019-12-08T13:06:52.000Z</time>
      </trkpt>
      <trkpt lat="45.25837" lon="5.91733">
        <ele>431.98</ele>
        <time>2019-12-08T13:06:57.000Z</time>
      </trkpt>
      <trkpt lat="45.25825" lon="5.91719">
        <ele>436.74</ele>
        <time>2019-12-08T13:07:02.000Z</time>
      </trkpt>
      <trkpt lat="45.2581" lon="5.91706">
        <ele>434.02</ele>
        <time>2019-12-08T13:07:07.000Z</time>
      </trkpt>
      <trkpt lat="45.25794" lon="5.91691">
        <ele>437.04</ele>
        <time>2019-12-08T13:07:12.000Z</time>
      </trkpt>
      <trkpt lat="45.25784" lon="5.91676">
        <ele>440.25</ele>
        <time>2019-12-08T13:07:17.000Z</time>
      </trkpt>
      <trkpt lat="45.25771" lon="5.9166">
        <ele>440.64</ele>
        <time>2019-12-08T13:07:22.000Z</time>
      </trkpt>
      <trkpt lat="45.25753" lon="5.91643">
        <ele>441.37</ele>
        <time>2019-12-08T13:07:27.000Z</time>
      </trkpt>
      <trkpt lat="45.25734" lon="5.91632">
        <ele>443.06</ele>
        <time>2019-12-08T13:07:32.000Z</time>
      </trkpt>
      <trkpt lat="45.25717" lon="5.91619">
        <ele>446.9</ele>
        <time>2019-12-08T13:07:37.000Z</time>
      </trkpt>
      <trkpt lat="45.25701" lon="5.91605">
        <ele>446.01</ele>
        <time>2019-12-08T13:07:42.000Z</time>
      </trkpt>
      <trkpt lat="45.2568" lon="5.9159">
        <ele>445.44</ele>
        <time>2019-12-08T13:07:47.000Z</time>
      </trkpt>
      <trkpt lat="45.25661" lon="5.91577">
        <ele>443.91</ele>
        <time>2019-12-08T13:07:52.000Z</time>
      </trkpt>
      <trkpt lat="45.25643" lon="5.91564">
        <ele>439.18</ele>
        <time>2019-12-08T13:07:57.000Z</time>
      </trkpt>
      <trkpt lat="45.25626" lon="5.91556">
        <ele>436.15</ele>
        <time>2019-12-08T13:08:02.000Z</time>
      </trkpt>
      <trkpt lat="45.25612" lon="5.9155">
        <ele>437.59</ele>
        <time>2019-12-08T13:08:07.000Z</time>
      </trkpt>
      <trkpt lat="45.25593" lon="5.91546">
        <ele>438.29</ele>
        <time>2019-12-08T13:08:12.000Z</time>
      </trkpt>
      <trkpt lat="45.25576" lon="5.91542">
        <ele>439.71</ele>
        <time>2019-12-08T13:08:17.000Z</time>
      </trkpt>
      <trkpt lat="45.25566" lon="5.91536">
        <ele>442.91</ele>
        <time>2019-12-08T13:08:22.000Z</time>
      </trkpt>
      <trkpt lat="45.25545" lon="5.91531">
        <ele>446.14</ele>
        <time>2019-12-08T13:08:27.000Z</time>
      </trkpt>
      <trkpt lat="45.25507" lon="5.91532">
        <ele>448.09</ele>
        <time>2019-12-08T13:08:32.000Z</time>
      </trkpt>
      <trkpt lat="45.25491" lon="5.91523">
        <ele>448.67</ele>
        <time>2019-12-08T13:08:37.000Z</time>
      </trkpt>
      <trkpt lat="45.25477" lon="5.91525">
        <ele>446.42</ele>
        <time>2019-12-08T13:08:42.000Z</time>
      </trkpt>
      <trkpt lat="45.25465" lon="5.91534">
        <ele>447.66</ele>
        <time>2019-12-08T13:08:47.000Z</time>
      </trkpt>
      <trkpt lat="45.25458" lon="5.91542">
        <ele>448.9</ele>
        <time>2019-12-08T13:08:52.000Z</time>
      </trkpt>
      <trkpt lat="45.25447" lon="5.91559">
        <ele>448.71</ele>
        <time>2019-12-08T13:08:57.000Z</time>
      </trkpt>
      <trkpt lat="45.25438" lon="5.9158">
        <ele>453.13</ele>
        <time>2019-12-08T13:09:02.000Z</time>
      </trkpt>
      <trkpt lat="45.25428" lon="5.91599">
        <ele>456.62</ele>
        <time>2019-12-08T13:09:07.000Z</time>
      </trkpt>
      <trkpt lat="45.25418" lon="5.91618">
        <ele>458.71</ele>
        <time>2019-12-08T13:09:12.000Z</time>
      </trkpt>
      <trkpt lat="45.25407" lon="5.91634">
        <ele>460.6</ele>
        <time>2019-12-08T13:09:17.000Z</time>
      </trkpt>
      <trkpt lat="45.25394" lon="5.91658">
        <ele>461.06</ele>
        <time>2019-12-08T13:09:22.000Z</time>
      </trkpt>
      <trkpt lat="45.25384" lon="5.91682">
        <ele>457.37</ele>
        <time>2019-12-08T13:09:27.000Z</time>
      </trkpt>
      <trkpt lat="45.25377" lon="5.91701">
        <ele>456.76</ele>
        <time>2019-12-08T13:09:32.000Z</time>
      </trkpt>
      <trkpt lat="45.25369" lon="5.91717">
        <ele>460.83</ele>
        <time>2019-12-08T13:09:37.000Z</time>
      </trkpt>
      <trkpt lat="45.2536" lon="5.9174">
        <ele>461.39</ele>
        <time>2019-12-08T13:09:42.000Z</time>
      </trkpt>
      <trkpt lat="45.25352" lon="5.91764">
        <ele>463.64</ele>
        <time>2019-12-08T13:09:47.000Z</time>
      </trkpt>
      <trkpt lat="45.25344" lon="5.91795">
        <ele>466.04</ele>
        <time>2019-12-08T13:09:52.000Z</time>
      </trkpt>
      <trkpt lat="45.25339" lon="5.91824">
        <ele>468.18</ele>
        <time>2019-12-08T13:09:57.000Z</time>
      </trkpt>
      <trkpt lat="45.25331" lon="5.91839">
        <ele>467.51</ele>
        <time>2019-12-08T13:10:02.000Z</time>
      </trkpt>
      <trkpt lat="45.25321" lon="5.91857">
        <ele>469.12</ele>
        <time>2019-12-08T13:10:07.000Z</time>
      </trkpt>
      <trkpt lat="45.25313" lon="5.91879">
        <ele>467.66</ele>
        <time>2019-12-08T13:10:12.000Z</time>
      </trkpt>
      <trkpt lat="45.2531" lon="5.919">
        <ele>464.99</ele>
        <time>2019-12-08T13:10:17.000Z</time>
      </trkpt>
      <trkpt lat="45.25306" lon="5.91928">
        <ele>466.2</ele>
        <time>2019-12-08T13:10:22.000Z</time>
      </trkpt>
      <trkpt lat="45.25296" lon="5.91953">
        <ele>472.47</ele>
        <time>2019-12-08T13:10:27.000Z</time>
      </trkpt>
      <trkpt lat="45.2528" lon="5.91974">
        <ele>476.5</ele>
        <time>2019-12-08T13:10:32.000Z</time>
      </trkpt>
      <trkpt lat="45.25273" lon="5.91989">
        <ele>475.27</ele>
        <time>2019-12-08T13:10:37.000Z</time>
      </trkpt>
      <trkpt lat="45.25267" lon="5.92007">
        <ele>476.1</ele>
        <time>2019-12-08T13:10:42.000Z</time>
      </trkpt>
      <trkpt lat="45.2526" lon="5.92032">
        <ele>476.75</ele>
        <time>2019-12-08T13:10:47.000Z</time>
      </trkpt>
      <trkpt lat="45.25255" lon="5.92061">
        <ele>480.32</ele>
        <time>2019-12-08T13:10:52.000Z</time>
      </trkpt>
      <trkpt lat="45.25248" lon="5.92085">
        <ele>482.38</ele>
        <time>2019-12-08T13:10:57.000Z</time>
      </trkpt>
      <trkpt lat="45.2524" lon="5.92108">
        <ele>484.3</ele>
        <time>2019-12-08T13:11:02.000Z</time>
      </trkpt>
      <trkpt lat="45.25235" lon="5.92127">
        <ele>488.23</ele>
        <time>2019-12-08T13:11:07.000Z</time>
      </trkpt>
      <trkpt lat="45.25226" lon="5.9214">
        <ele>498.31</ele>
        <time>2019-12-08T13:11:12.000Z</time>
      </trkpt>
      <trkpt lat="45.25222" lon="5.92163">
        <ele>505.2</ele>
        <time>2019-12-08T13:11:17.000Z</time>
      </trkpt>
      <trkpt lat="45.25223" lon="5.92186">
        <ele>511.45</ele>
        <time>2019-12-08T13:11:22.000Z</time>
      </trkpt>
      <trkpt lat="45.25223" lon="5.92208">
        <ele>520.72</ele>
        <time>2019-12-08T13:11:27.000Z</time>
      </trkpt>
      <trkpt lat="45.25224" lon="5.92228">
        <ele>530.44</ele>
        <time>2019-12-08T13:11:32.000Z</time>
      </trkpt>
      <trkpt lat="45.25227" lon="5.92246">
        <ele>534.13</ele>
        <time>2019-12-08T13:11:37.000Z</time>
      </trkpt>
      <trkpt lat="45.25227" lon="5.92264">
        <ele>532.16</ele>
        <time>2019-12-08T13:11:42.000Z</time>
      </trkpt>
      <trkpt lat="45.25231" lon="5.9229">
        <ele>534.76</ele>
        <time>2019-12-08T13:11:47.000Z</time>
      </trkpt>
      <trkpt lat="45.25237" lon="5.92315">
        <ele>536.28</ele>
        <time>2019-12-08T13:11:52.000Z</time>
      </trkpt>
      <trkpt lat="45.25242" lon="5.92335">
        <ele>540.05</ele>
        <time>2019-12-08T13:11:57.000Z</time>
      </trkpt>
      <trkpt lat="45.25241" lon="5.92356">
        <ele>542.71</ele>
        <time>2019-12-08T13:12:02.000Z</time>
      </trkpt>
      <trkpt lat="45.25242" lon="5.9238">
        <ele>544.33</ele>
        <time>2019-12-08T13:12:07.000Z</time>
      </trkpt>
      <trkpt lat="45.25246" lon="5.92401">
        <ele>545</ele>
        <time>2019-12-08T13:12:12.000Z</time>
      </trkpt>
      <trkpt lat="45.25254" lon="5.92425">
        <ele>546.61</ele>
        <time>2019-12-08T13:12:17.000Z</time>
      </trkpt>
      <trkpt lat="45.25255" lon="5.92447">
        <ele>550.01</ele>
        <time>2019-12-08T13:12:22.000Z</time>
      </trkpt>
      <trkpt lat="45.25248" lon="5.92472">
        <ele>551.81</ele>
        <time>2019-12-08T13:12:27.000Z</time>
      </trkpt>
      <trkpt lat="45.25248" lon="5.92488">
        <ele>552.52</ele>
        <time>2019-12-08T13:12:33.000Z</time>
      </trkpt>
      <trkpt lat="45.25241" lon="5.92509">
        <ele>554.77</ele>
        <time>2019-12-08T13:12:38.000Z</time>
      </trkpt>
      <trkpt lat="45.25231" lon="5.92533">
        <ele>556.4</ele>
        <time>2019-12-08T13:12:43.000Z</time>
      </trkpt>
      <trkpt lat="45.25226" lon="5.92555">
        <ele>553.89</ele>
        <time>2019-12-08T13:12:48.000Z</time>
      </trkpt>
      <trkpt lat="45.25229" lon="5.92576">
        <ele>554.77</ele>
        <time>2019-12-08T13:12:53.000Z</time>
      </trkpt>
      <trkpt lat="45.25222" lon="5.92591">
        <ele>551.59</ele>
        <time>2019-12-08T13:14:49.000Z</time>
      </trkpt>
      <trkpt lat="45.25208" lon="5.92612">
        <ele>551.52</ele>
        <time>2019-12-08T13:14:54.000Z</time>
      </trkpt>
      <trkpt lat="45.25195" lon="5.92635">
        <ele>549.69</ele>
        <time>2019-12-08T13:14:59.000Z</time>
      </trkpt>
      <trkpt lat="45.25183" lon="5.92644">
        <ele>550.82</ele>
        <time>2019-12-08T13:15:04.000Z</time>
      </trkpt>
      <trkpt lat="45.25173" lon="5.92654">
        <ele>549.62</ele>
        <time>2019-12-08T13:15:09.000Z</time>
      </trkpt>
      <trkpt lat="45.25156" lon="5.92668">
        <ele>549.56</ele>
        <time>2019-12-08T13:15:14.000Z</time>
      </trkpt>
      <trkpt lat="45.25137" lon="5.92685">
        <ele>550.33</ele>
        <time>2019-12-08T13:15:19.000Z</time>
      </trkpt>
      <trkpt lat="45.25123" lon="5.92707">
        <ele>547.35</ele>
        <time>2019-12-08T13:15:24.000Z</time>
      </trkpt>
      <trkpt lat="45.25112" lon="5.92732">
        <ele>548.47</ele>
        <time>2019-12-08T13:15:29.000Z</time>
      </trkpt>
      <trkpt lat="45.25106" lon="5.92759">
        <ele>550.2</ele>
        <time>2019-12-08T13:15:34.000Z</time>
      </trkpt>
      <trkpt lat="45.25104" lon="5.92783">
        <ele>554.95</ele>
        <time>2019-12-08T13:15:39.000Z</time>
      </trkpt>
      <trkpt lat="45.25105" lon="5.92802">
        <ele>559.76</ele>
        <time>2019-12-08T13:15:44.000Z</time>
      </trkpt>
      <trkpt lat="45.25107" lon="5.92827">
        <ele>561.15</ele>
        <time>2019-12-08T13:15:49.000Z</time>
      </trkpt>
      <trkpt lat="45.2511" lon="5.92848">
        <ele>566.25</ele>
        <time>2019-12-08T13:15:54.000Z</time>
      </trkpt>
      <trkpt lat="45.25114" lon="5.92871">
        <ele>566.54</ele>
        <time>2019-12-08T13:15:59.000Z</time>
      </trkpt>
      <trkpt lat="45.25123" lon="5.92898">
        <ele>568.81</ele>
        <time>2019-12-08T13:16:04.000Z</time>
      </trkpt>
      <trkpt lat="45.25133" lon="5.92916">
        <ele>570.29</ele>
        <time>2019-12-08T13:16:09.000Z</time>
      </trkpt>
      <trkpt lat="45.25148" lon="5.92937">
        <ele>568.15</ele>
        <time>2019-12-08T13:16:14.000Z</time>
      </trkpt>
      <trkpt lat="45.2516" lon="5.92951">
        <ele>572.06</ele>
        <time>2019-12-08T13:16:19.000Z</time>
      </trkpt>
      <trkpt lat="45.25173" lon="5.92964">
        <ele>576.77</ele>
        <time>2019-12-08T13:16:24.000Z</time>
      </trkpt>
      <trkpt lat="45.25186" lon="5.9298">
        <ele>576.72</ele>
        <time>2019-12-08T13:16:29.000Z</time>
      </trkpt>
      <trkpt lat="45.25197" lon="5.93002">
        <ele>577.36</ele>
        <time>2019-12-08T13:16:34.000Z</time>
      </trkpt>
      <trkpt lat="45.25211" lon="5.9302">
        <ele>576.89</ele>
        <time>2019-12-08T13:16:39.000Z</time>
      </trkpt>
      <trkpt lat="45.25223" lon="5.93037">
        <ele>579.7</ele>
        <time>2019-12-08T13:16:44.000Z</time>
      </trkpt>
      <trkpt lat="45.25232" lon="5.93059">
        <ele>583.7</ele>
        <time>2019-12-08T13:16:49.000Z</time>
      </trkpt>
      <trkpt lat="45.25241" lon="5.93086">
        <ele>582.2</ele>
        <time>2019-12-08T13:16:54.000Z</time>
      </trkpt>
      <trkpt lat="45.25243" lon="5.93107">
        <ele>586.89</ele>
        <time>2019-12-08T13:16:59.000Z</time>
      </trkpt>
      <trkpt lat="45.2524" lon="5.93123">
        <ele>590.5</ele>
        <time>2019-12-08T13:17:04.000Z</time>
      </trkpt>
      <trkpt lat="45.25236" lon="5.93139">
        <ele>597.62</ele>
        <time>2019-12-08T13:17:09.000Z</time>
      </trkpt>
      <trkpt lat="45.25236" lon="5.93166">
        <ele>599.05</ele>
        <time>2019-12-08T13:17:14.000Z</time>
      </trkpt>
      <trkpt lat="45.25241" lon="5.93196">
        <ele>598.25</ele>
        <time>2019-12-08T13:17:19.000Z</time>
      </trkpt>
      <trkpt lat="45.25244" lon="5.93223">
        <ele>596.46</ele>
        <time>2019-12-08T13:17:24.000Z</time>
      </trkpt>
      <trkpt lat="45.25248" lon="5.93246">
        <ele>591.04</ele>
        <time>2019-12-08T13:17:29.000Z</time>
      </trkpt>
      <trkpt lat="45.25251" lon="5.93271">
        <ele>594.49</ele>
        <time>2019-12-08T13:17:34.000Z</time>
      </trkpt>
      <trkpt lat="45.25253" lon="5.93299">
        <ele>594.3</ele>
        <time>2019-12-08T13:17:39.000Z</time>
      </trkpt>
      <trkpt lat="45.25252" lon="5.93332">
        <ele>596.66</ele>
        <time>2019-12-08T13:17:44.000Z</time>
      </trkpt>
      <trkpt lat="45.25254" lon="5.93365">
        <ele>595.16</ele>
        <time>2019-12-08T13:17:49.000Z</time>
      </trkpt>
      <trkpt lat="45.25253" lon="5.93402">
        <ele>592.6</ele>
        <time>2019-12-08T13:17:54.000Z</time>
      </trkpt>
      <trkpt lat="45.25255" lon="5.93431">
        <ele>594.71</ele>
        <time>2019-12-08T13:17:59.000Z</time>
      </trkpt>
      <trkpt lat="45.25263" lon="5.93458">
        <ele>593</ele>
        <time>2019-12-08T13:18:04.000Z</time>
      </trkpt>
      <trkpt lat="45.25271" lon="5.93476">
        <ele>594.69</ele>
        <time>2019-12-08T13:18:09.000Z</time>
      </trkpt>
      <trkpt lat="45.25267" lon="5.93488">
        <ele>600.27</ele>
        <time>2019-12-08T13:19:46.000Z</time>
      </trkpt>
      <trkpt lat="45.2525" lon="5.93547">
        <ele>607.95</ele>
        <time>2019-12-08T13:19:51.000Z</time>
      </trkpt>
      <trkpt lat="45.25234" lon="5.93591">
        <ele>608.01</ele>
        <time>2019-12-08T13:19:56.000Z</time>
      </trkpt>
      <trkpt lat="45.2522" lon="5.9364">
        <ele>609.38</ele>
        <time>2019-12-08T13:20:01.000Z</time>
      </trkpt>
      <trkpt lat="45.25203" lon="5.93664">
        <ele>607.68</ele>
        <time>2019-12-08T13:20:06.000Z</time>
      </trkpt>
      <trkpt lat="45.25179" lon="5.93679">
        <ele>603.65</ele>
        <time>2019-12-08T13:20:11.000Z</time>
      </trkpt>
      <trkpt lat="45.25165" lon="5.93688">
        <ele>593.44</ele>
        <time>2019-12-08T13:20:16.000Z</time>
      </trkpt>
      <trkpt lat="45.25145" lon="5.93691">
        <ele>591.31</ele>
        <time>2019-12-08T13:20:21.000Z</time>
      </trkpt>
      <trkpt lat="45.25126" lon="5.93686">
        <ele>596.27</ele>
        <time>2019-12-08T13:20:26.000Z</time>
      </trkpt>
      <trkpt lat="45.25108" lon="5.93677">
        <ele>597.53</ele>
        <time>2019-12-08T13:20:31.000Z</time>
      </trkpt>
      <trkpt lat="45.25096" lon="5.93657">
        <ele>598.62</ele>
        <time>2019-12-08T13:20:36.000Z</time>
      </trkpt>
      <trkpt lat="45.25087" lon="5.93633">
        <ele>597.63</ele>
        <time>2019-12-08T13:20:41.000Z</time>
      </trkpt>
      <trkpt lat="45.25076" lon="5.93612">
        <ele>597.97</ele>
        <time>2019-12-08T13:20:46.000Z</time>
      </trkpt>
      <trkpt lat="45.2506" lon="5.93598">
        <ele>596.82</ele>
        <time>2019-12-08T13:20:51.000Z</time>
      </trkpt>
      <trkpt lat="45.25045" lon="5.93571">
        <ele>597.41</ele>
        <time>2019-12-08T13:20:56.000Z</time>
      </trkpt>
      <trkpt lat="45.25033" lon="5.93548">
        <ele>592.28</ele>
        <time>2019-12-08T13:21:01.000Z</time>
      </trkpt>
      <trkpt lat="45.25017" lon="5.93537">
        <ele>595.29</ele>
        <time>2019-12-08T13:21:06.000Z</time>
      </trkpt>
      <trkpt lat="45.25008" lon="5.93523">
        <ele>600.66</ele>
        <time>2019-12-08T13:21:11.000Z</time>
      </trkpt>
      <trkpt lat="45.24998" lon="5.93506">
        <ele>601.28</ele>
        <time>2019-12-08T13:21:16.000Z</time>
      </trkpt>
      <trkpt lat="45.24993" lon="5.93488">
        <ele>605.41</ele>
        <time>2019-12-08T13:21:21.000Z</time>
      </trkpt>
      <trkpt lat="45.24986" lon="5.9347">
        <ele>607.86</ele>
        <time>2019-12-08T13:21:26.000Z</time>
      </trkpt>
      <trkpt lat="45.24982" lon="5.93453">
        <ele>612.4</ele>
        <time>2019-12-08T13:21:31.000Z</time>
      </trkpt>
      <trkpt lat="45.24974" lon="5.93429">
        <ele>614.65</ele>
        <time>2019-12-08T13:21:36.000Z</time>
      </trkpt>
      <trkpt lat="45.24968" lon="5.93402">
        <ele>613.13</ele>
        <time>2019-12-08T13:21:41.000Z</time>
      </trkpt>
      <trkpt lat="45.24964" lon="5.93377">
        <ele>614.63</ele>
        <time>2019-12-08T13:21:46.000Z</time>
      </trkpt>
      <trkpt lat="45.24955" lon="5.93369">
        <ele>618.68</ele>
        <time>2019-12-08T13:21:51.000Z</time>
      </trkpt>
      <trkpt lat="45.2494" lon="5.93376">
        <ele>615.33</ele>
        <time>2019-12-08T13:21:56.000Z</time>
      </trkpt>
      <trkpt lat="45.24915" lon="5.9339">
        <ele>618.28</ele>
        <time>2019-12-08T13:22:01.000Z</time>
      </trkpt>
      <trkpt lat="45.24899" lon="5.93395">
        <ele>619.19</ele>
        <time>2019-12-08T13:22:06.000Z</time>
      </trkpt>
      <trkpt lat="45.24886" lon="5.93393">
        <ele>621.11</ele>
        <time>2019-12-08T13:22:11.000Z</time>
      </trkpt>
      <trkpt lat="45.24872" lon="5.93393">
        <ele>625.22</ele>
        <time>2019-12-08T13:22:16.000Z</time>
      </trkpt>
      <trkpt lat="45.24847" lon="5.93384">
        <ele>623.14</ele>
        <time>2019-12-08T13:22:21.000Z</time>
      </trkpt>
      <trkpt lat="45.24847" lon="5.93369">
        <ele>624.14</ele>
        <time>2019-12-08T13:22:27.000Z</time>
      </trkpt>
      <trkpt lat="45.24854" lon="5.93358">
        <ele>628.73</ele>
        <time>2019-12-08T13:22:32.000Z</time>
      </trkpt>
      <trkpt lat="45.24855" lon="5.93341">
        <ele>631.48</ele>
        <time>2019-12-08T13:22:37.000Z</time>
      </trkpt>
      <trkpt lat="45.24857" lon="5.93312">
        <ele>641.97</ele>
        <time>2019-12-08T13:22:42.000Z</time>
      </trkpt>
      <trkpt lat="45.24855" lon="5.93285">
        <ele>646.02</ele>
        <time>2019-12-08T13:22:47.000Z</time>
      </trkpt>
      <trkpt lat="45.2485" lon="5.93262">
        <ele>649.35</ele>
        <time>2019-12-08T13:22:52.000Z</time>
      </trkpt>
      <trkpt lat="45.24849" lon="5.93241">
        <ele>648.95</ele>
        <time>2019-12-08T13:22:57.000Z</time>
      </trkpt>
      <trkpt lat="45.24844" lon="5.93219">
        <ele>654.57</ele>
        <time>2019-12-08T13:23:02.000Z</time>
      </trkpt>
      <trkpt lat="45.24836" lon="5.93201">
        <ele>656.31</ele>
        <time>2019-12-08T13:23:07.000Z</time>
      </trkpt>
      <trkpt lat="45.24826" lon="5.93179">
        <ele>659.03</ele>
        <time>2019-12-08T13:23:12.000Z</time>
      </trkpt>
      <trkpt lat="45.24818" lon="5.93149">
        <ele>660.82</ele>
        <time>2019-12-08T13:23:17.000Z</time>
      </trkpt>
      <trkpt lat="45.24811" lon="5.93125">
        <ele>664.48</ele>
        <time>2019-12-08T13:23:22.000Z</time>
      </trkpt>
      <trkpt lat="45.24801" lon="5.93099">
        <ele>662.8</ele>
        <time>2019-12-08T13:23:27.000Z</time>
      </trkpt>
      <trkpt lat="45.24784" lon="5.93095">
        <ele>659.9</ele>
        <time>2019-12-08T13:23:32.000Z</time>
      </trkpt>
      <trkpt lat="45.24783" lon="5.93116">
        <ele>661.45</ele>
        <time>2019-12-08T13:23:37.000Z</time>
      </trkpt>
      <trkpt lat="45.24784" lon="5.93138">
        <ele>661.18</ele>
        <time>2019-12-08T13:23:42.000Z</time>
      </trkpt>
      <trkpt lat="45.24781" lon="5.93164">
        <ele>655.47</ele>
        <time>2019-12-08T13:23:47.000Z</time>
      </trkpt>
      <trkpt lat="45.24778" lon="5.93186">
        <ele>653.54</ele>
        <time>2019-12-08T13:23:52.000Z</time>
      </trkpt>
      <trkpt lat="45.24778" lon="5.93207">
        <ele>654.83</ele>
        <time>2019-12-08T13:23:57.000Z</time>
      </trkpt>
      <trkpt lat="45.24782" lon="5.93227">
        <ele>655.68</ele>
        <time>2019-12-08T13:24:02.000Z</time>
      </trkpt>
      <trkpt lat="45.24784" lon="5.9324">
        <ele>660.15</ele>
        <time>2019-12-08T13:24:07.000Z</time>
      </trkpt>
      <trkpt lat="45.2478" lon="5.93256">
        <ele>661.31</ele>
        <time>2019-12-08T13:24:12.000Z</time>
      </trkpt>
      <trkpt lat="45.24777" lon="5.9328">
        <ele>666.27</ele>
        <time>2019-12-08T13:24:17.000Z</time>
      </trkpt>
      <trkpt lat="45.24779" lon="5.93314">
        <ele>663.55</ele>
        <time>2019-12-08T13:24:22.000Z</time>
      </trkpt>
      <trkpt lat="45.24774" lon="5.93341">
        <ele>665</ele>
        <time>2019-12-08T13:24:27.000Z</time>
      </trkpt>
      <trkpt lat="45.24761" lon="5.93369">
        <ele>666.53</ele>
        <time>2019-12-08T13:24:32.000Z</time>
      </trkpt>
      <trkpt lat="45.2475" lon="5.93388">
        <ele>667.05</ele>
        <time>2019-12-08T13:24:37.000Z</time>
      </trkpt>
      <trkpt lat="45.2474" lon="5.93408">
        <ele>662.27</ele>
        <time>2019-12-08T13:24:42.000Z</time>
      </trkpt>
      <trkpt lat="45.24731" lon="5.93424">
        <ele>659.91</ele>
        <time>2019-12-08T13:24:47.000Z</time>
      </trkpt>
      <trkpt lat="45.24726" lon="5.93442">
        <ele>660.39</ele>
        <time>2019-12-08T13:24:52.000Z</time>
      </trkpt>
      <trkpt lat="45.24719" lon="5.93455">
        <ele>662.85</ele>
        <time>2019-12-08T13:24:57.000Z</time>
      </trkpt>
      <trkpt lat="45.24729" lon="5.93459">
        <ele>667.67</ele>
        <time>2019-12-08T13:25:03.000Z</time>
      </trkpt>
      <trkpt lat="45.24751" lon="5.93464">
        <ele>675.03</ele>
        <time>2019-12-08T13:25:08.000Z</time>
      </trkpt>
      <trkpt lat="45.24769" lon="5.93475">
        <ele>677.41</ele>
        <time>2019-12-08T13:25:13.000Z</time>
      </trkpt>
      <trkpt lat="45.24769" lon="5.93503">
        <ele>676.87</ele>
        <time>2019-12-08T13:25:18.000Z</time>
      </trkpt>
      <trkpt lat="45.24764" lon="5.93521">
        <ele>677.55</ele>
        <time>2019-12-08T13:25:23.000Z</time>
      </trkpt>
      <trkpt lat="45.24756" lon="5.93539">
        <ele>678.44</ele>
        <time>2019-12-08T13:25:28.000Z</time>
      </trkpt>
      <trkpt lat="45.24743" lon="5.93556">
        <ele>676.94</ele>
        <time>2019-12-08T13:25:33.000Z</time>
      </trkpt>
      <trkpt lat="45.24739" lon="5.93577">
        <ele>673.38</ele>
        <time>2019-12-08T13:25:38.000Z</time>
      </trkpt>
      <trkpt lat="45.24741" lon="5.93602">
        <ele>672.19</ele>
        <time>2019-12-08T13:25:43.000Z</time>
      </trkpt>
      <trkpt lat="45.24746" lon="5.93636">
        <ele>670.47</ele>
        <time>2019-12-08T13:25:48.000Z</time>
      </trkpt>
      <trkpt lat="45.24754" lon="5.93659">
        <ele>671.48</ele>
        <time>2019-12-08T13:25:53.000Z</time>
      </trkpt>
      <trkpt lat="45.24768" lon="5.93687">
        <ele>669.12</ele>
        <time>2019-12-08T13:25:58.000Z</time>
      </trkpt>
      <trkpt lat="45.24772" lon="5.93704">
        <ele>672.53</ele>
        <time>2019-12-08T13:26:03.000Z</time>
      </trkpt>
      <trkpt lat="45.2479" lon="5.93738">
        <ele>678.1</ele>
        <time>2019-12-08T13:26:08.000Z</time>
      </trkpt>
      <trkpt lat="45.24787" lon="5.93754">
        <ele>676.14</ele>
        <time>2019-12-08T13:26:13.000Z</time>
      </trkpt>
      <trkpt lat="45.24777" lon="5.93752">
        <ele>674.52</ele>
        <time>2019-12-08T13:26:18.000Z</time>
      </trkpt>
      <trkpt lat="45.24772" lon="5.9374">
        <ele>677.4</ele>
        <time>2019-12-08T13:26:27.000Z</time>
      </trkpt>
      <trkpt lat="45.24766" lon="5.93725">
        <ele>679.16</ele>
        <time>2019-12-08T13:26:32.000Z</time>
      </trkpt>
      <trkpt lat="45.2476" lon="5.93711">
        <ele>679.67</ele>
        <time>2019-12-08T13:26:37.000Z</time>
      </trkpt>
      <trkpt lat="45.24756" lon="5.93693">
        <ele>686.35</ele>
        <time>2019-12-08T13:26:42.000Z</time>
      </trkpt>
      <trkpt lat="45.24746" lon="5.93674">
        <ele>687.7</ele>
        <time>2019-12-08T13:26:47.000Z</time>
      </trkpt>
      <trkpt lat="45.24737" lon="5.93655">
        <ele>687.47</ele>
        <time>2019-12-08T13:26:52.000Z</time>
      </trkpt>
      <trkpt lat="45.24725" lon="5.93637">
        <ele>689.58</ele>
        <time>2019-12-08T13:26:57.000Z</time>
      </trkpt>
      <trkpt lat="45.24715" lon="5.93609">
        <ele>688.45</ele>
        <time>2019-12-08T13:27:02.000Z</time>
      </trkpt>
      <trkpt lat="45.24702" lon="5.9359">
        <ele>689.76</ele>
        <time>2019-12-08T13:27:07.000Z</time>
      </trkpt>
      <trkpt lat="45.24681" lon="5.93597">
        <ele>692.28</ele>
        <time>2019-12-08T13:27:12.000Z</time>
      </trkpt>
      <trkpt lat="45.24672" lon="5.93605">
        <ele>696.06</ele>
        <time>2019-12-08T13:27:17.000Z</time>
      </trkpt>
      <trkpt lat="45.24669" lon="5.93619">
        <ele>696.36</ele>
        <time>2019-12-08T13:27:23.000Z</time>
      </trkpt>
      <trkpt lat="45.24661" lon="5.93636">
        <ele>696.37</ele>
        <time>2019-12-08T13:27:28.000Z</time>
      </trkpt>
      <trkpt lat="45.24654" lon="5.93656">
        <ele>695.5</ele>
        <time>2019-12-08T13:27:33.000Z</time>
      </trkpt>
      <trkpt lat="45.24676" lon="5.93691">
        <ele>691.69</ele>
        <time>2019-12-08T13:27:38.000Z</time>
      </trkpt>
      <trkpt lat="45.24689" lon="5.93722">
        <ele>691.06</ele>
        <time>2019-12-08T13:27:43.000Z</time>
      </trkpt>
      <trkpt lat="45.24698" lon="5.93748">
        <ele>693.39</ele>
        <time>2019-12-08T13:27:48.000Z</time>
      </trkpt>
      <trkpt lat="45.24702" lon="5.93778">
        <ele>695.47</ele>
        <time>2019-12-08T13:27:53.000Z</time>
      </trkpt>
      <trkpt lat="45.24706" lon="5.93801">
        <ele>697.03</ele>
        <time>2019-12-08T13:27:58.000Z</time>
      </trkpt>
      <trkpt lat="45.24714" lon="5.93822">
        <ele>701.67</ele>
        <time>2019-12-08T13:28:03.000Z</time>
      </trkpt>
      <trkpt lat="45.24718" lon="5.93845">
        <ele>703.87</ele>
        <time>2019-12-08T13:28:08.000Z</time>
      </trkpt>
      <trkpt lat="45.2472" lon="5.93873">
        <ele>708.31</ele>
        <time>2019-12-08T13:28:13.000Z</time>
      </trkpt>
      <trkpt lat="45.24723" lon="5.93892">
        <ele>708.42</ele>
        <time>2019-12-08T13:28:18.000Z</time>
      </trkpt>
      <trkpt lat="45.24726" lon="5.93913">
        <ele>710.31</ele>
        <time>2019-12-08T13:28:23.000Z</time>
      </trkpt>
      <trkpt lat="45.24728" lon="5.93932">
        <ele>709.28</ele>
        <time>2019-12-08T13:28:28.000Z</time>
      </trkpt>
      <trkpt lat="45.24729" lon="5.9395">
        <ele>710.68</ele>
        <time>2019-12-08T13:28:33.000Z</time>
      </trkpt>
      <trkpt lat="45.24733" lon="5.93979">
        <ele>712.33</ele>
        <time>2019-12-08T13:28:38.000Z</time>
      </trkpt>
      <trkpt lat="45.24737" lon="5.94">
        <ele>714.45</ele>
        <time>2019-12-08T13:28:43.000Z</time>
      </trkpt>
      <trkpt lat="45.24739" lon="5.94019">
        <ele>714.22</ele>
        <time>2019-12-08T13:28:48.000Z</time>
      </trkpt>
      <trkpt lat="45.24738" lon="5.94042">
        <ele>714.84</ele>
        <time>2019-12-08T13:28:53.000Z</time>
      </trkpt>
      <trkpt lat="45.24741" lon="5.94064">
        <ele>716.74</ele>
        <time>2019-12-08T13:28:58.000Z</time>
      </trkpt>
      <trkpt lat="45.24748" lon="5.94085">
        <ele>717.29</ele>
        <time>2019-12-08T13:29:03.000Z</time>
      </trkpt>
      <trkpt lat="45.24754" lon="5.94106">
        <ele>720.46</ele>
        <time>2019-12-08T13:29:08.000Z</time>
      </trkpt>
      <trkpt lat="45.24764" lon="5.94134">
        <ele>717.8</ele>
        <time>2019-12-08T13:29:13.000Z</time>
      </trkpt>
      <trkpt lat="45.24775" lon="5.94158">
        <ele>715.81</ele>
        <time>2019-12-08T13:29:18.000Z</time>
      </trkpt>
      <trkpt lat="45.24784" lon="5.94182">
        <ele>717.6</ele>
        <time>2019-12-08T13:29:23.000Z</time>
      </trkpt>
      <trkpt lat="45.2479" lon="5.9421">
        <ele>719.97</ele>
        <time>2019-12-08T13:29:28.000Z</time>
      </trkpt>
      <trkpt lat="45.24797" lon="5.94238">
        <ele>726.99</ele>
        <time>2019-12-08T13:29:33.000Z</time>
      </trkpt>
      <trkpt lat="45.24802" lon="5.94266">
        <ele>730.18</ele>
        <time>2019-12-08T13:29:38.000Z</time>
      </trkpt>
      <trkpt lat="45.24806" lon="5.94293">
        <ele>732.9</ele>
        <time>2019-12-08T13:29:43.000Z</time>
      </trkpt>
      <trkpt lat="45.24812" lon="5.94319">
        <ele>732.88</ele>
        <time>2019-12-08T13:29:48.000Z</time>
      </trkpt>
      <trkpt lat="45.24812" lon="5.94343">
        <ele>734.54</ele>
        <time>2019-12-08T13:29:53.000Z</time>
      </trkpt>
      <trkpt lat="45.24808" lon="5.94365">
        <ele>737.49</ele>
        <time>2019-12-08T13:29:58.000Z</time>
      </trkpt>
      <trkpt lat="45.24808" lon="5.94383">
        <ele>742.84</ele>
        <time>2019-12-08T13:30:03.000Z</time>
      </trkpt>
      <trkpt lat="45.24809" lon="5.94405">
        <ele>744.48</ele>
        <time>2019-12-08T13:30:08.000Z</time>
      </trkpt>
      <trkpt lat="45.24812" lon="5.94426">
        <ele>747.33</ele>
        <time>2019-12-08T13:30:13.000Z</time>
      </trkpt>
      <trkpt lat="45.24814" lon="5.94444">
        <ele>751.56</ele>
        <time>2019-12-08T13:30:18.000Z</time>
      </trkpt>
      <trkpt lat="45.24816" lon="5.94466">
        <ele>752.81</ele>
        <time>2019-12-08T13:30:23.000Z</time>
      </trkpt>
      <trkpt lat="45.2482" lon="5.94484">
        <ele>757.08</ele>
        <time>2019-12-08T13:30:28.000Z</time>
      </trkpt>
      <trkpt lat="45.24827" lon="5.94503">
        <ele>757.41</ele>
        <time>2019-12-08T13:30:33.000Z</time>
      </trkpt>
      <trkpt lat="45.24834" lon="5.94525">
        <ele>756.78</ele>
        <time>2019-12-08T13:30:38.000Z</time>
      </trkpt>
      <trkpt lat="45.24835" lon="5.94542">
        <ele>759.94</ele>
        <time>2019-12-08T13:30:43.000Z</time>
      </trkpt>
      <trkpt lat="45.24835" lon="5.94572">
        <ele>760.51</ele>
        <time>2019-12-08T13:30:48.000Z</time>
      </trkpt>
      <trkpt lat="45.24826" lon="5.94605">
        <ele>758.92</ele>
        <time>2019-12-08T13:30:53.000Z</time>
      </trkpt>
      <trkpt lat="45.24821" lon="5.94631">
        <ele>757.66</ele>
        <time>2019-12-08T13:30:58.000Z</time>
      </trkpt>
      <trkpt lat="45.24828" lon="5.94665">
        <ele>768.27</ele>
        <time>2019-12-08T13:31:03.000Z</time>
      </trkpt>
      <trkpt lat="45.24833" lon="5.94691">
        <ele>778.57</ele>
        <time>2019-12-08T13:31:08.000Z</time>
      </trkpt>
      <trkpt lat="45.24837" lon="5.94721">
        <ele>781.97</ele>
        <time>2019-12-08T13:31:13.000Z</time>
      </trkpt>
      <trkpt lat="45.24842" lon="5.9475">
        <ele>782.97</ele>
        <time>2019-12-08T13:31:18.000Z</time>
      </trkpt>
      <trkpt lat="45.24849" lon="5.94777">
        <ele>786.78</ele>
        <time>2019-12-08T13:31:23.000Z</time>
      </trkpt>
      <trkpt lat="45.24852" lon="5.94798">
        <ele>789.58</ele>
        <time>2019-12-08T13:31:28.000Z</time>
      </trkpt>
      <trkpt lat="45.24847" lon="5.9482">
        <ele>791.72</ele>
        <time>2019-12-08T13:31:33.000Z</time>
      </trkpt>
      <trkpt lat="45.24845" lon="5.94841">
        <ele>792.87</ele>
        <time>2019-12-08T13:31:38.000Z</time>
      </trkpt>
      <trkpt lat="45.24843" lon="5.9486">
        <ele>792.97</ele>
        <time>2019-12-08T13:31:43.000Z</time>
      </trkpt>
      <trkpt lat="45.24843" lon="5.94885">
        <ele>795.7</ele>
        <time>2019-12-08T13:31:48.000Z</time>
      </trkpt>
      <trkpt lat="45.24839" lon="5.9491">
        <ele>796.24</ele>
        <time>2019-12-08T13:31:53.000Z</time>
      </trkpt>
      <trkpt lat="45.24832" lon="5.94935">
        <ele>799.98</ele>
        <time>2019-12-08T13:31:58.000Z</time>
      </trkpt>
      <trkpt lat="45.24826" lon="5.94968">
        <ele>803.63</ele>
        <time>2019-12-08T13:32:03.000Z</time>
      </trkpt>
      <trkpt lat="45.24827" lon="5.94998">
        <ele>806.2</ele>
        <time>2019-12-08T13:32:08.000Z</time>
      </trkpt>
      <trkpt lat="45.24827" lon="5.95024">
        <ele>805.84</ele>
        <time>2019-12-08T13:32:13.000Z</time>
      </trkpt>
      <trkpt lat="45.24837" lon="5.95057">
        <ele>804.96</ele>
        <time>2019-12-08T13:32:18.000Z</time>
      </trkpt>
      <trkpt lat="45.24837" lon="5.95077">
        <ele>804.8</ele>
        <time>2019-12-08T13:32:23.000Z</time>
      </trkpt>
      <trkpt lat="45.24836" lon="5.95093">
        <ele>803.73</ele>
        <time>2019-12-08T13:32:28.000Z</time>
      </trkpt>
      <trkpt lat="45.24835" lon="5.95112">
        <ele>800.62</ele>
        <time>2019-12-08T13:32:33.000Z</time>
      </trkpt>
      <trkpt lat="45.24841" lon="5.95126">
        <ele>798.54</ele>
        <time>2019-12-08T13:32:38.000Z</time>
      </trkpt>
      <trkpt lat="45.2485" lon="5.95144">
        <ele>794.53</ele>
        <time>2019-12-08T13:32:43.000Z</time>
      </trkpt>
      <trkpt lat="45.24858" lon="5.95167">
        <ele>795.93</ele>
        <time>2019-12-08T13:32:48.000Z</time>
      </trkpt>
      <trkpt lat="45.24858" lon="5.95196">
        <ele>799.14</ele>
        <time>2019-12-08T13:32:53.000Z</time>
      </trkpt>
      <trkpt lat="45.24848" lon="5.95229">
        <ele>799.21</ele>
        <time>2019-12-08T13:32:58.000Z</time>
      </trkpt>
      <trkpt lat="45.24838" lon="5.95254">
        <ele>800.42</ele>
        <time>2019-12-08T13:33:03.000Z</time>
      </trkpt>
      <trkpt lat="45.24836" lon="5.95278">
        <ele>803.02</ele>
        <time>2019-12-08T13:33:08.000Z</time>
      </trkpt>
      <trkpt lat="45.24825" lon="5.95307">
        <ele>803.48</ele>
        <time>2019-12-08T13:33:13.000Z</time>
      </trkpt>
      <trkpt lat="45.2482" lon="5.95332">
        <ele>806.71</ele>
        <time>2019-12-08T13:33:18.000Z</time>
      </trkpt>
      <trkpt lat="45.24809" lon="5.9536">
        <ele>807.36</ele>
        <time>2019-12-08T13:33:23.000Z</time>
      </trkpt>
      <trkpt lat="45.24802" lon="5.95393">
        <ele>809.18</ele>
        <time>2019-12-08T13:33:28.000Z</time>
      </trkpt>
      <trkpt lat="45.24801" lon="5.95427">
        <ele>810.11</ele>
        <time>2019-12-08T13:33:33.000Z</time>
      </trkpt>
      <trkpt lat="45.24794" lon="5.95457">
        <ele>811.33</ele>
        <time>2019-12-08T13:33:38.000Z</time>
      </trkpt>
      <trkpt lat="45.24787" lon="5.95481">
        <ele>812.83</ele>
        <time>2019-12-08T13:33:43.000Z</time>
      </trkpt>
      <trkpt lat="45.24782" lon="5.95502">
        <ele>817.59</ele>
        <time>2019-12-08T13:33:48.000Z</time>
      </trkpt>
      <trkpt lat="45.24774" lon="5.95531">
        <ele>815.47</ele>
        <time>2019-12-08T13:33:53.000Z</time>
      </trkpt>
      <trkpt lat="45.24768" lon="5.95553">
        <ele>817.16</ele>
        <time>2019-12-08T13:33:58.000Z</time>
      </trkpt>
      <trkpt lat="45.24764" lon="5.95577">
        <ele>816.5</ele>
        <time>2019-12-08T13:34:03.000Z</time>
      </trkpt>
      <trkpt lat="45.24756" lon="5.95602">
        <ele>815.38</ele>
        <time>2019-12-08T13:34:08.000Z</time>
      </trkpt>
      <trkpt lat="45.24751" lon="5.95624">
        <ele>814.64</ele>
        <time>2019-12-08T13:34:13.000Z</time>
      </trkpt>
      <trkpt lat="45.24747" lon="5.95649">
        <ele>811.56</ele>
        <time>2019-12-08T13:34:18.000Z</time>
      </trkpt>
      <trkpt lat="45.24736" lon="5.95677">
        <ele>813.19</ele>
        <time>2019-12-08T13:34:23.000Z</time>
      </trkpt>
      <trkpt lat="45.24724" lon="5.95705">
        <ele>812.38</ele>
        <time>2019-12-08T13:34:28.000Z</time>
      </trkpt>
      <trkpt lat="45.24709" lon="5.95734">
        <ele>812.56</ele>
        <time>2019-12-08T13:34:33.000Z</time>
      </trkpt>
      <trkpt lat="45.24704" lon="5.95759">
        <ele>814.58</ele>
        <time>2019-12-08T13:34:38.000Z</time>
      </trkpt>
      <trkpt lat="45.24695" lon="5.95789">
        <ele>813.03</ele>
        <time>2019-12-08T13:34:43.000Z</time>
      </trkpt>
      <trkpt lat="45.24686" lon="5.95817">
        <ele>812.85</ele>
        <time>2019-12-08T13:34:48.000Z</time>
      </trkpt>
      <trkpt lat="45.24668" lon="5.95845">
        <ele>810.13</ele>
        <time>2019-12-08T13:34:53.000Z</time>
      </trkpt>
      <trkpt lat="45.24659" lon="5.95885">
        <ele>808.39</ele>
        <time>2019-12-08T13:34:58.000Z</time>
      </trkpt>
      <trkpt lat="45.2465" lon="5.95917">
        <ele>814.33</ele>
        <time>2019-12-08T13:35:03.000Z</time>
      </trkpt>
      <trkpt lat="45.24637" lon="5.95947">
        <ele>817.04</ele>
        <time>2019-12-08T13:35:08.000Z</time>
      </trkpt>
      <trkpt lat="45.24628" lon="5.95981">
        <ele>817.56</ele>
        <time>2019-12-08T13:35:13.000Z</time>
      </trkpt>
      <trkpt lat="45.24626" lon="5.96002">
        <ele>820.39</ele>
        <time>2019-12-08T13:35:18.000Z</time>
      </trkpt>
      <trkpt lat="45.24612" lon="5.9603">
        <ele>819.03</ele>
        <time>2019-12-08T13:35:23.000Z</time>
      </trkpt>
      <trkpt lat="45.24607" lon="5.96056">
        <ele>820.69</ele>
        <time>2019-12-08T13:35:28.000Z</time>
      </trkpt>
      <trkpt lat="45.24604" lon="5.96087">
        <ele>818.51</ele>
        <time>2019-12-08T13:35:33.000Z</time>
      </trkpt>
      <trkpt lat="45.24603" lon="5.96114">
        <ele>821.29</ele>
        <time>2019-12-08T13:35:38.000Z</time>
      </trkpt>
      <trkpt lat="45.24596" lon="5.96137">
        <ele>824.57</ele>
        <time>2019-12-08T13:35:43.000Z</time>
      </trkpt>
      <trkpt lat="45.24589" lon="5.96162">
        <ele>822.28</ele>
        <time>2019-12-08T13:35:48.000Z</time>
      </trkpt>
      <trkpt lat="45.24573" lon="5.96196">
        <ele>825.78</ele>
        <time>2019-12-08T13:35:53.000Z</time>
      </trkpt>
      <trkpt lat="45.24586" lon="5.96224">
        <ele>827.36</ele>
        <time>2019-12-08T13:35:58.000Z</time>
      </trkpt>
      <trkpt lat="45.24587" lon="5.96249">
        <ele>828.89</ele>
        <time>2019-12-08T13:36:03.000Z</time>
      </trkpt>
      <trkpt lat="45.24574" lon="5.96269">
        <ele>836.47</ele>
        <time>2019-12-08T13:36:08.000Z</time>
      </trkpt>
      <trkpt lat="45.24562" lon="5.96287">
        <ele>837.61</ele>
        <time>2019-12-08T13:36:13.000Z</time>
      </trkpt>
      <trkpt lat="45.24548" lon="5.96294">
        <ele>837.54</ele>
        <time>2019-12-08T13:36:18.000Z</time>
      </trkpt>
      <trkpt lat="45.24538" lon="5.96299">
        <ele>836.67</ele>
        <time>2019-12-08T13:36:23.000Z</time>
      </trkpt>
      <trkpt lat="45.24513" lon="5.96312">
        <ele>841.35</ele>
        <time>2019-12-08T13:36:28.000Z</time>
      </trkpt>
      <trkpt lat="45.24494" lon="5.96319">
        <ele>842.66</ele>
        <time>2019-12-08T13:36:33.000Z</time>
      </trkpt>
      <trkpt lat="45.24475" lon="5.96319">
        <ele>847.38</ele>
        <time>2019-12-08T13:36:38.000Z</time>
      </trkpt>
      <trkpt lat="45.24463" lon="5.96315">
        <ele>854.82</ele>
        <time>2019-12-08T13:36:43.000Z</time>
      </trkpt>
      <trkpt lat="45.24442" lon="5.96322">
        <ele>857.25</ele>
        <time>2019-12-08T13:36:48.000Z</time>
      </trkpt>
      <trkpt lat="45.24428" lon="5.96338">
        <ele>857.79</ele>
        <time>2019-12-08T13:36:53.000Z</time>
      </trkpt>
      <trkpt lat="45.24422" lon="5.96351">
        <ele>854.96</ele>
        <time>2019-12-08T13:36:58.000Z</time>
      </trkpt>
      <trkpt lat="45.24423" lon="5.96338">
        <ele>867.42</ele>
        <time>2019-12-08T13:39:16.000Z</time>
      </trkpt>
      <trkpt lat="45.24426" lon="5.96326">
        <ele>867.62</ele>
        <time>2019-12-08T13:39:28.000Z</time>
      </trkpt>
      <trkpt lat="45.24422" lon="5.96339">
        <ele>868.66</ele>
        <time>2019-12-08T13:39:40.000Z</time>
      </trkpt>
      <trkpt lat="45.24417" lon="5.9635">
        <ele>864.63</ele>
        <time>2019-12-08T13:40:13.000Z</time>
      </trkpt>
      <trkpt lat="45.24408" lon="5.96354">
        <ele>867.3</ele>
        <time>2019-12-08T13:40:46.000Z</time>
      </trkpt>
      <trkpt lat="45.24397" lon="5.96368">
        <ele>867.24</ele>
        <time>2019-12-08T13:40:51.000Z</time>
      </trkpt>
      <trkpt lat="45.24385" lon="5.96383">
        <ele>867.85</ele>
        <time>2019-12-08T13:40:56.000Z</time>
      </trkpt>
      <trkpt lat="45.24371" lon="5.96396">
        <ele>868.6</ele>
        <time>2019-12-08T13:41:01.000Z</time>
      </trkpt>
      <trkpt lat="45.24356" lon="5.96407">
        <ele>869.85</ele>
        <time>2019-12-08T13:41:06.000Z</time>
      </trkpt>
      <trkpt lat="45.24342" lon="5.96418">
        <ele>873.43</ele>
        <time>2019-12-08T13:41:11.000Z</time>
      </trkpt>
      <trkpt lat="45.24329" lon="5.96428">
        <ele>871.04</ele>
        <time>2019-12-08T13:41:16.000Z</time>
      </trkpt>
      <trkpt lat="45.24314" lon="5.9644">
        <ele>871.2</ele>
        <time>2019-12-08T13:41:21.000Z</time>
      </trkpt>
      <trkpt lat="45.243" lon="5.96454">
        <ele>871.8</ele>
        <time>2019-12-08T13:41:26.000Z</time>
      </trkpt>
      <trkpt lat="45.24285" lon="5.9647">
        <ele>873.28</ele>
        <time>2019-12-08T13:41:31.000Z</time>
      </trkpt>
      <trkpt lat="45.24274" lon="5.96486">
        <ele>874.9</ele>
        <time>2019-12-08T13:41:36.000Z</time>
      </trkpt>
      <trkpt lat="45.24264" lon="5.96501">
        <ele>879.65</ele>
        <time>2019-12-08T13:41:41.000Z</time>
      </trkpt>
      <trkpt lat="45.24254" lon="5.96516">
        <ele>880.76</ele>
        <time>2019-12-08T13:41:46.000Z</time>
      </trkpt>
      <trkpt lat="45.24242" lon="5.96534">
        <ele>880.68</ele>
        <time>2019-12-08T13:41:51.000Z</time>
      </trkpt>
      <trkpt lat="45.24229" lon="5.96551">
        <ele>879.65</ele>
        <time>2019-12-08T13:41:56.000Z</time>
      </trkpt>
      <trkpt lat="45.24216" lon="5.96567">
        <ele>880.79</ele>
        <time>2019-12-08T13:42:01.000Z</time>
      </trkpt>
      <trkpt lat="45.24205" lon="5.96584">
        <ele>884.47</ele>
        <time>2019-12-08T13:42:06.000Z</time>
      </trkpt>
      <trkpt lat="45.24194" lon="5.96602">
        <ele>886.04</ele>
        <time>2019-12-08T13:42:11.000Z</time>
      </trkpt>
      <trkpt lat="45.24177" lon="5.96621">
        <ele>888.02</ele>
        <time>2019-12-08T13:42:16.000Z</time>
      </trkpt>
      <trkpt lat="45.24162" lon="5.96641">
        <ele>889.92</ele>
        <time>2019-12-08T13:42:21.000Z</time>
      </trkpt>
      <trkpt lat="45.24144" lon="5.96661">
        <ele>891.3</ele>
        <time>2019-12-08T13:42:26.000Z</time>
      </trkpt>
      <trkpt lat="45.24127" lon="5.96682">
        <ele>892.04</ele>
        <time>2019-12-08T13:42:31.000Z</time>
      </trkpt>
      <trkpt lat="45.2411" lon="5.96702">
        <ele>893.11</ele>
        <time>2019-12-08T13:42:36.000Z</time>
      </trkpt>
      <trkpt lat="45.24089" lon="5.96724">
        <ele>890.67</ele>
        <time>2019-12-08T13:42:41.000Z</time>
      </trkpt>
      <trkpt lat="45.24076" lon="5.96743">
        <ele>891.02</ele>
        <time>2019-12-08T13:42:46.000Z</time>
      </trkpt>
      <trkpt lat="45.24057" lon="5.96763">
        <ele>891.5</ele>
        <time>2019-12-08T13:42:51.000Z</time>
      </trkpt>
      <trkpt lat="45.24034" lon="5.96783">
        <ele>890.2</ele>
        <time>2019-12-08T13:42:56.000Z</time>
      </trkpt>
      <trkpt lat="45.24015" lon="5.96806">
        <ele>889.92</ele>
        <time>2019-12-08T13:43:01.000Z</time>
      </trkpt>
      <trkpt lat="45.23992" lon="5.9684">
        <ele>889.37</ele>
        <time>2019-12-08T13:43:06.000Z</time>
      </trkpt>
      <trkpt lat="45.23987" lon="5.96865">
        <ele>892.54</ele>
        <time>2019-12-08T13:43:11.000Z</time>
      </trkpt>
      <trkpt lat="45.23966" lon="5.96898">
        <ele>892.13</ele>
        <time>2019-12-08T13:43:16.000Z</time>
      </trkpt>
      <trkpt lat="45.23957" lon="5.96928">
        <ele>896.13</ele>
        <time>2019-12-08T13:43:21.000Z</time>
      </trkpt>
      <trkpt lat="45.23941" lon="5.96951">
        <ele>899.78</ele>
        <time>2019-12-08T13:43:26.000Z</time>
      </trkpt>
      <trkpt lat="45.23929" lon="5.96981">
        <ele>899.97</ele>
        <time>2019-12-08T13:43:31.000Z</time>
      </trkpt>
      <trkpt lat="45.2392" lon="5.97018">
        <ele>894.92</ele>
        <time>2019-12-08T13:43:36.000Z</time>
      </trkpt>
      <trkpt lat="45.23922" lon="5.9705">
        <ele>898.64</ele>
        <time>2019-12-08T13:43:41.000Z</time>
      </trkpt>
      <trkpt lat="45.2392" lon="5.97083">
        <ele>898.44</ele>
        <time>2019-12-08T13:43:46.000Z</time>
      </trkpt>
      <trkpt lat="45.2391" lon="5.97113">
        <ele>899.19</ele>
        <time>2019-12-08T13:43:51.000Z</time>
      </trkpt>
      <trkpt lat="45.23895" lon="5.9714">
        <ele>900.19</ele>
        <time>2019-12-08T13:43:56.000Z</time>
      </trkpt>
      <trkpt lat="45.23882" lon="5.97163">
        <ele>901.55</ele>
        <time>2019-12-08T13:44:01.000Z</time>
      </trkpt>
      <trkpt lat="45.2387" lon="5.97192">
        <ele>902.48</ele>
        <time>2019-12-08T13:44:06.000Z</time>
      </trkpt>
      <trkpt lat="45.23865" lon="5.97229">
        <ele>900.51</ele>
        <time>2019-12-08T13:44:11.000Z</time>
      </trkpt>
      <trkpt lat="45.23866" lon="5.97262">
        <ele>902.28</ele>
        <time>2019-12-08T13:44:16.000Z</time>
      </trkpt>
      <trkpt lat="45.23857" lon="5.97296">
        <ele>900.6</ele>
        <time>2019-12-08T13:44:21.000Z</time>
      </trkpt>
      <trkpt lat="45.23855" lon="5.97325">
        <ele>905.9</ele>
        <time>2019-12-08T13:44:26.000Z</time>
      </trkpt>
      <trkpt lat="45.23849" lon="5.97348">
        <ele>905.75</ele>
        <time>2019-12-08T13:44:31.000Z</time>
      </trkpt>
      <trkpt lat="45.23838" lon="5.9737">
        <ele>908.19</ele>
        <time>2019-12-08T13:44:36.000Z</time>
      </trkpt>
      <trkpt lat="45.23822" lon="5.97376">
        <ele>909.06</ele>
        <time>2019-12-08T13:44:41.000Z</time>
      </trkpt>
      <trkpt lat="45.23805" lon="5.97363">
        <ele>910.77</ele>
        <time>2019-12-08T13:44:46.000Z</time>
      </trkpt>
      <trkpt lat="45.23789" lon="5.97351">
        <ele>915.51</ele>
        <time>2019-12-08T13:44:51.000Z</time>
      </trkpt>
      <trkpt lat="45.23773" lon="5.97339">
        <ele>919.59</ele>
        <time>2019-12-08T13:44:56.000Z</time>
      </trkpt>
      <trkpt lat="45.23757" lon="5.97327">
        <ele>924.22</ele>
        <time>2019-12-08T13:45:01.000Z</time>
      </trkpt>
      <trkpt lat="45.23742" lon="5.97315">
        <ele>924.05</ele>
        <time>2019-12-08T13:45:06.000Z</time>
      </trkpt>
      <trkpt lat="45.23725" lon="5.973">
        <ele>922.8</ele>
        <time>2019-12-08T13:45:11.000Z</time>
      </trkpt>
      <trkpt lat="45.23715" lon="5.97279">
        <ele>925.26</ele>
        <time>2019-12-08T13:45:16.000Z</time>
      </trkpt>
      <trkpt lat="45.2371" lon="5.97254">
        <ele>927.36</ele>
        <time>2019-12-08T13:45:21.000Z</time>
      </trkpt>
      <trkpt lat="45.2371" lon="5.97223">
        <ele>928.47</ele>
        <time>2019-12-08T13:45:26.000Z</time>
      </trkpt>
      <trkpt lat="45.23716" lon="5.97192">
        <ele>929.16</ele>
        <time>2019-12-08T13:45:31.000Z</time>
      </trkpt>
      <trkpt lat="45.23731" lon="5.97159">
        <ele>931.01</ele>
        <time>2019-12-08T13:45:36.000Z</time>
      </trkpt>
      <trkpt lat="45.23741" lon="5.97129">
        <ele>931.75</ele>
        <time>2019-12-08T13:45:41.000Z</time>
      </trkpt>
      <trkpt lat="45.2375" lon="5.971">
        <ele>933.21</ele>
        <time>2019-12-08T13:45:46.000Z</time>
      </trkpt>
      <trkpt lat="45.23762" lon="5.97069">
        <ele>936.32</ele>
        <time>2019-12-08T13:45:51.000Z</time>
      </trkpt>
      <trkpt lat="45.23773" lon="5.97039">
        <ele>938.79</ele>
        <time>2019-12-08T13:45:56.000Z</time>
      </trkpt>
      <trkpt lat="45.23789" lon="5.97005">
        <ele>939.26</ele>
        <time>2019-12-08T13:46:01.000Z</time>
      </trkpt>
      <trkpt lat="45.23812" lon="5.96975">
        <ele>939.79</ele>
        <time>2019-12-08T13:46:06.000Z</time>
      </trkpt>
      <trkpt lat="45.2381" lon="5.96951">
        <ele>932.26</ele>
        <time>2019-12-08T13:46:11.000Z</time>
      </trkpt>
      <trkpt lat="45.23819" lon="5.96924">
        <ele>936.77</ele>
        <time>2019-12-08T13:46:16.000Z</time>
      </trkpt>
      <trkpt lat="45.23837" lon="5.96888">
        <ele>942.31</ele>
        <time>2019-12-08T13:46:21.000Z</time>
      </trkpt>
      <trkpt lat="45.23841" lon="5.96856">
        <ele>944.82</ele>
        <time>2019-12-08T13:46:26.000Z</time>
      </trkpt>
      <trkpt lat="45.23842" lon="5.96823">
        <ele>943.61</ele>
        <time>2019-12-08T13:46:31.000Z</time>
      </trkpt>
      <trkpt lat="45.23843" lon="5.96795">
        <ele>942.9</ele>
        <time>2019-12-08T13:46:36.000Z</time>
      </trkpt>
      <trkpt lat="45.23855" lon="5.96765">
        <ele>945.18</ele>
        <time>2019-12-08T13:46:41.000Z</time>
      </trkpt>
      <trkpt lat="45.23867" lon="5.96743">
        <ele>950.07</ele>
        <time>2019-12-08T13:46:46.000Z</time>
      </trkpt>
      <trkpt lat="45.23884" lon="5.96729">
        <ele>959.72</ele>
        <time>2019-12-08T13:46:51.000Z</time>
      </trkpt>
      <trkpt lat="45.23895" lon="5.96717">
        <ele>959.5</ele>
        <time>2019-12-08T13:46:56.000Z</time>
      </trkpt>
      <trkpt lat="45.23904" lon="5.96705">
        <ele>954.98</ele>
        <time>2019-12-08T13:47:01.000Z</time>
      </trkpt>
      <trkpt lat="45.23912" lon="5.96689">
        <ele>950.34</ele>
        <time>2019-12-08T13:47:06.000Z</time>
      </trkpt>
      <trkpt lat="45.2392" lon="5.96669">
        <ele>948.31</ele>
        <time>2019-12-08T13:47:11.000Z</time>
      </trkpt>
      <trkpt lat="45.23929" lon="5.96646">
        <ele>948.71</ele>
        <time>2019-12-08T13:47:16.000Z</time>
      </trkpt>
      <trkpt lat="45.23936" lon="5.96622">
        <ele>950.68</ele>
        <time>2019-12-08T13:47:21.000Z</time>
      </trkpt>
      <trkpt lat="45.23942" lon="5.96593">
        <ele>954.7</ele>
        <time>2019-12-08T13:47:26.000Z</time>
      </trkpt>
      <trkpt lat="45.2394" lon="5.9657">
        <ele>955.77</ele>
        <time>2019-12-08T13:47:31.000Z</time>
      </trkpt>
      <trkpt lat="45.23942" lon="5.96546">
        <ele>961.87</ele>
        <time>2019-12-08T13:47:36.000Z</time>
      </trkpt>
      <trkpt lat="45.2395" lon="5.96522">
        <ele>962.89</ele>
        <time>2019-12-08T13:47:41.000Z</time>
      </trkpt>
      <trkpt lat="45.23953" lon="5.96503">
        <ele>963.38</ele>
        <time>2019-12-08T13:47:46.000Z</time>
      </trkpt>
      <trkpt lat="45.2396" lon="5.96482">
        <ele>965.27</ele>
        <time>2019-12-08T13:47:51.000Z</time>
      </trkpt>
      <trkpt lat="45.23963" lon="5.96465">
        <ele>965.36</ele>
        <time>2019-12-08T13:47:56.000Z</time>
      </trkpt>
      <trkpt lat="45.23964" lon="5.96446">
        <ele>966.33</ele>
        <time>2019-12-08T13:48:01.000Z</time>
      </trkpt>
      <trkpt lat="45.23977" lon="5.96411">
        <ele>964.5</ele>
        <time>2019-12-08T13:48:06.000Z</time>
      </trkpt>
      <trkpt lat="45.23974" lon="5.96388">
        <ele>961.28</ele>
        <time>2019-12-08T13:48:11.000Z</time>
      </trkpt>
      <trkpt lat="45.23975" lon="5.96361">
        <ele>964.41</ele>
        <time>2019-12-08T13:48:16.000Z</time>
      </trkpt>
      <trkpt lat="45.23976" lon="5.96334">
        <ele>969.62</ele>
        <time>2019-12-08T13:48:21.000Z</time>
      </trkpt>
      <trkpt lat="45.23972" lon="5.96316">
        <ele>974.91</ele>
        <time>2019-12-08T13:48:26.000Z</time>
      </trkpt>
      <trkpt lat="45.23976" lon="5.96292">
        <ele>977.02</ele>
        <time>2019-12-08T13:48:31.000Z</time>
      </trkpt>
      <trkpt lat="45.23982" lon="5.96268">
        <ele>974.5</ele>
        <time>2019-12-08T13:48:36.000Z</time>
      </trkpt>
      <trkpt lat="45.23988" lon="5.96243">
        <ele>978.97</ele>
        <time>2019-12-08T13:48:41.000Z</time>
      </trkpt>
      <trkpt lat="45.23996" lon="5.9622">
        <ele>981.55</ele>
        <time>2019-12-08T13:48:46.000Z</time>
      </trkpt>
      <trkpt lat="45.24008" lon="5.96195">
        <ele>980.9</ele>
        <time>2019-12-08T13:48:51.000Z</time>
      </trkpt>
      <trkpt lat="45.24019" lon="5.96172">
        <ele>984.4</ele>
        <time>2019-12-08T13:48:56.000Z</time>
      </trkpt>
      <trkpt lat="45.24031" lon="5.9615">
        <ele>990.02</ele>
        <time>2019-12-08T13:49:01.000Z</time>
      </trkpt>
      <trkpt lat="45.24044" lon="5.9613">
        <ele>990.75</ele>
        <time>2019-12-08T13:49:06.000Z</time>
      </trkpt>
      <trkpt lat="45.24053" lon="5.9611">
        <ele>997.86</ele>
        <time>2019-12-08T13:49:11.000Z</time>
      </trkpt>
      <trkpt lat="45.24058" lon="5.96087">
        <ele>999.86</ele>
        <time>2019-12-08T13:49:16.000Z</time>
      </trkpt>
      <trkpt lat="45.24061" lon="5.96064">
        <ele>1002.33</ele>
        <time>2019-12-08T13:49:21.000Z</time>
      </trkpt>
      <trkpt lat="45.24066" lon="5.9604">
        <ele>1004.31</ele>
        <time>2019-12-08T13:49:26.000Z</time>
      </trkpt>
      <trkpt lat="45.24076" lon="5.96019">
        <ele>1004.11</ele>
        <time>2019-12-08T13:49:31.000Z</time>
      </trkpt>
      <trkpt lat="45.24083" lon="5.95999">
        <ele>1006.11</ele>
        <time>2019-12-08T13:49:36.000Z</time>
      </trkpt>
      <trkpt lat="45.24092" lon="5.95979">
        <ele>1006.51</ele>
        <time>2019-12-08T13:49:41.000Z</time>
      </trkpt>
      <trkpt lat="45.24103" lon="5.95957">
        <ele>1005.98</ele>
        <time>2019-12-08T13:49:46.000Z</time>
      </trkpt>
      <trkpt lat="45.24107" lon="5.95932">
        <ele>1009.8</ele>
        <time>2019-12-08T13:49:51.000Z</time>
      </trkpt>
      <trkpt lat="45.24106" lon="5.95909">
        <ele>1012.23</ele>
        <time>2019-12-08T13:49:56.000Z</time>
      </trkpt>
      <trkpt lat="45.24107" lon="5.95889">
        <ele>1014.86</ele>
        <time>2019-12-08T13:50:01.000Z</time>
      </trkpt>
      <trkpt lat="45.24119" lon="5.95859">
        <ele>1016.59</ele>
        <time>2019-12-08T13:50:06.000Z</time>
      </trkpt>
      <trkpt lat="45.2413" lon="5.95824">
        <ele>1016.03</ele>
        <time>2019-12-08T13:50:11.000Z</time>
      </trkpt>
      <trkpt lat="45.2413" lon="5.95787">
        <ele>1016.23</ele>
        <time>2019-12-08T13:50:16.000Z</time>
      </trkpt>
      <trkpt lat="45.24134" lon="5.95753">
        <ele>1017.57</ele>
        <time>2019-12-08T13:50:21.000Z</time>
      </trkpt>
      <trkpt lat="45.24142" lon="5.95712">
        <ele>1015.44</ele>
        <time>2019-12-08T13:50:26.000Z</time>
      </trkpt>
      <trkpt lat="45.2415" lon="5.95671">
        <ele>1010.52</ele>
        <time>2019-12-08T13:50:31.000Z</time>
      </trkpt>
      <trkpt lat="45.24154" lon="5.95628">
        <ele>1004.43</ele>
        <time>2019-12-08T13:50:36.000Z</time>
      </trkpt>
      <trkpt lat="45.24149" lon="5.95582">
        <ele>1006.26</ele>
        <time>2019-12-08T13:50:41.000Z</time>
      </trkpt>
      <trkpt lat="45.24126" lon="5.95552">
        <ele>1010.56</ele>
        <time>2019-12-08T13:50:46.000Z</time>
      </trkpt>
      <trkpt lat="45.24108" lon="5.95532">
        <ele>1017.1</ele>
        <time>2019-12-08T13:50:51.000Z</time>
      </trkpt>
      <trkpt lat="45.24092" lon="5.9551">
        <ele>1016.03</ele>
        <time>2019-12-08T13:50:56.000Z</time>
      </trkpt>
      <trkpt lat="45.24079" lon="5.95483">
        <ele>1016.3</ele>
        <time>2019-12-08T13:51:01.000Z</time>
      </trkpt>
      <trkpt lat="45.24062" lon="5.95454">
        <ele>1012.25</ele>
        <time>2019-12-08T13:51:06.000Z</time>
      </trkpt>
      <trkpt lat="45.24057" lon="5.95429">
        <ele>1013.48</ele>
        <time>2019-12-08T13:51:11.000Z</time>
      </trkpt>
      <trkpt lat="45.24051" lon="5.95401">
        <ele>1015.75</ele>
        <time>2019-12-08T13:51:16.000Z</time>
      </trkpt>
      <trkpt lat="45.24042" lon="5.9537">
        <ele>1018.81</ele>
        <time>2019-12-08T13:51:21.000Z</time>
      </trkpt>
      <trkpt lat="45.24039" lon="5.95338">
        <ele>1020.47</ele>
        <time>2019-12-08T13:51:26.000Z</time>
      </trkpt>
      <trkpt lat="45.24035" lon="5.95308">
        <ele>1023.21</ele>
        <time>2019-12-08T13:51:31.000Z</time>
      </trkpt>
      <trkpt lat="45.24031" lon="5.95281">
        <ele>1029.83</ele>
        <time>2019-12-08T13:51:36.000Z</time>
      </trkpt>
      <trkpt lat="45.24018" lon="5.95253">
        <ele>1030.19</ele>
        <time>2019-12-08T13:51:41.000Z</time>
      </trkpt>
      <trkpt lat="45.24004" lon="5.95232">
        <ele>1033.27</ele>
        <time>2019-12-08T13:51:46.000Z</time>
      </trkpt>
      <trkpt lat="45.23989" lon="5.95206">
        <ele>1029.19</ele>
        <time>2019-12-08T13:51:51.000Z</time>
      </trkpt>
      <trkpt lat="45.23969" lon="5.95186">
        <ele>1029.16</ele>
        <time>2019-12-08T13:51:56.000Z</time>
      </trkpt>
      <trkpt lat="45.23958" lon="5.95161">
        <ele>1026.17</ele>
        <time>2019-12-08T13:52:01.000Z</time>
      </trkpt>
      <trkpt lat="45.2395" lon="5.95155">
        <ele>1020.29</ele>
        <time>2019-12-08T13:55:31.000Z</time>
      </trkpt>
      <trkpt lat="45.2394" lon="5.95158">
        <ele>1015.11</ele>
        <time>2019-12-08T13:55:53.000Z</time>
      </trkpt>
      <trkpt lat="45.2393" lon="5.95162">
        <ele>1011.31</ele>
        <time>2019-12-08T13:56:00.000Z</time>
      </trkpt>
      <trkpt lat="45.23939" lon="5.95162">
        <ele>1016.26</ele>
        <time>2019-12-08T13:56:43.000Z</time>
      </trkpt>
      <trkpt lat="45.23949" lon="5.95161">
        <ele>1020.82</ele>
        <time>2019-12-08T13:56:50.000Z</time>
      </trkpt>
      <trkpt lat="45.23947" lon="5.95147">
        <ele>1020.67</ele>
        <time>2019-12-08T13:57:18.000Z</time>
      </trkpt>
      <trkpt lat="45.23944" lon="5.95133">
        <ele>1021.82</ele>
        <time>2019-12-08T13:57:23.000Z</time>
      </trkpt>
      <trkpt lat="45.23934" lon="5.95118">
        <ele>1025.92</ele>
        <time>2019-12-08T13:57:28.000Z</time>
      </trkpt>
      <trkpt lat="45.2392" lon="5.9509">
        <ele>1024.98</ele>
        <time>2019-12-08T13:57:33.000Z</time>
      </trkpt>
      <trkpt lat="45.23905" lon="5.95059">
        <ele>1022.92</ele>
        <time>2019-12-08T13:57:38.000Z</time>
      </trkpt>
      <trkpt lat="45.23889" lon="5.95038">
        <ele>1023.58</ele>
        <time>2019-12-08T13:57:43.000Z</time>
      </trkpt>
      <trkpt lat="45.2388" lon="5.95017">
        <ele>1025.14</ele>
        <time>2019-12-08T13:57:48.000Z</time>
      </trkpt>
      <trkpt lat="45.23872" lon="5.94994">
        <ele>1023.9</ele>
        <time>2019-12-08T13:57:53.000Z</time>
      </trkpt>
      <trkpt lat="45.23866" lon="5.94977">
        <ele>1023.38</ele>
        <time>2019-12-08T13:57:58.000Z</time>
      </trkpt>
      <trkpt lat="45.2386" lon="5.94946">
        <ele>1020.47</ele>
        <time>2019-12-08T13:58:03.000Z</time>
      </trkpt>
      <trkpt lat="45.23851" lon="5.94904">
        <ele>1020.82</ele>
        <time>2019-12-08T13:58:08.000Z</time>
      </trkpt>
      <trkpt lat="45.23847" lon="5.94856">
        <ele>1019.28</ele>
        <time>2019-12-08T13:58:13.000Z</time>
      </trkpt>
      <trkpt lat="45.23838" lon="5.948">
        <ele>1017.18</ele>
        <time>2019-12-08T13:58:18.000Z</time>
      </trkpt>
      <trkpt lat="45.2383" lon="5.94744">
        <ele>1010.5</ele>
        <time>2019-12-08T13:58:23.000Z</time>
      </trkpt>
      <trkpt lat="45.23812" lon="5.94685">
        <ele>1006.73</ele>
        <time>2019-12-08T13:58:28.000Z</time>
      </trkpt>
      <trkpt lat="45.23787" lon="5.94619">
        <ele>1005.94</ele>
        <time>2019-12-08T13:58:33.000Z</time>
      </trkpt>
      <trkpt lat="45.23759" lon="5.94546">
        <ele>999.54</ele>
        <time>2019-12-08T13:58:38.000Z</time>
      </trkpt>
      <trkpt lat="45.23737" lon="5.94466">
        <ele>992.89</ele>
        <time>2019-12-08T13:58:43.000Z</time>
      </trkpt>
      <trkpt lat="45.23731" lon="5.9438">
        <ele>989.41</ele>
        <time>2019-12-08T13:58:48.000Z</time>
      </trkpt>
      <trkpt lat="45.23713" lon="5.943">
        <ele>993.13</ele>
        <time>2019-12-08T13:58:53.000Z</time>
      </trkpt>
      <trkpt lat="45.23697" lon="5.94246">
        <ele>987.06</ele>
        <time>2019-12-08T13:58:58.000Z</time>
      </trkpt>
      <trkpt lat="45.23685" lon="5.9428">
        <ele>969.56</ele>
        <time>2019-12-08T13:59:02.438Z</time>
      </trkpt>
      <trkpt lat="45.2369" lon="5.94325">
        <ele>967.34</ele>
        <time>2019-12-08T13:59:07.000Z</time>
      </trkpt>
      <trkpt lat="45.23679" lon="5.94389">
        <ele>969.66</ele>
        <time>2019-12-08T13:59:12.000Z</time>
      </trkpt>
      <trkpt lat="45.23654" lon="5.94457">
        <ele>967.34</ele>
        <time>2019-12-08T13:59:17.000Z</time>
      </trkpt>
      <trkpt lat="45.23623" lon="5.94504">
        <ele>961.87</ele>
        <time>2019-12-08T13:59:22.000Z</time>
      </trkpt>
      <trkpt lat="45.23571" lon="5.94513">
        <ele>956.27</ele>
        <time>2019-12-08T13:59:27.000Z</time>
      </trkpt>
      <trkpt lat="45.23542" lon="5.94489">
        <ele>955.16</ele>
        <time>2019-12-08T13:59:32.000Z</time>
      </trkpt>
      <trkpt lat="45.23546" lon="5.94443">
        <ele>953.7</ele>
        <time>2019-12-08T13:59:37.000Z</time>
      </trkpt>
      <trkpt lat="45.23586" lon="5.94425">
        <ele>950.46</ele>
        <time>2019-12-08T13:59:42.000Z</time>
      </trkpt>
      <trkpt lat="45.23599" lon="5.94367">
        <ele>945.24</ele>
        <time>2019-12-08T13:59:47.000Z</time>
      </trkpt>
      <trkpt lat="45.23591" lon="5.94293">
        <ele>939.59</ele>
        <time>2019-12-08T13:59:52.000Z</time>
      </trkpt>
      <trkpt lat="45.23572" lon="5.94233">
        <ele>944.25</ele>
        <time>2019-12-08T13:59:57.000Z</time>
      </trkpt>
      <trkpt lat="45.23574" lon="5.94159">
        <ele>939.06</ele>
        <time>2019-12-08T14:00:02.000Z</time>
      </trkpt>
      <trkpt lat="45.23598" lon="5.94092">
        <ele>937.36</ele>
        <time>2019-12-08T14:00:07.000Z</time>
      </trkpt>
      <trkpt lat="45.23607" lon="5.9401">
        <ele>936.32</ele>
        <time>2019-12-08T14:00:12.000Z</time>
      </trkpt>
      <trkpt lat="45.23621" lon="5.93937">
        <ele>934.59</ele>
        <time>2019-12-08T14:00:17.000Z</time>
      </trkpt>
      <trkpt lat="45.23611" lon="5.93908">
        <ele>929.24</ele>
        <time>2019-12-08T14:00:22.000Z</time>
      </trkpt>
      <trkpt lat="45.23592" lon="5.93948">
        <ele>922.85</ele>
        <time>2019-12-08T14:00:27.000Z</time>
      </trkpt>
      <trkpt lat="45.23582" lon="5.94">
        <ele>916.7</ele>
        <time>2019-12-08T14:00:32.000Z</time>
      </trkpt>
      <trkpt lat="45.23559" lon="5.94056">
        <ele>912.15</ele>
        <time>2019-12-08T14:00:37.000Z</time>
      </trkpt>
      <trkpt lat="45.23528" lon="5.94094">
        <ele>907.09</ele>
        <time>2019-12-08T14:00:42.000Z</time>
      </trkpt>
      <trkpt lat="45.23498" lon="5.94125">
        <ele>908.57</ele>
        <time>2019-12-08T14:00:47.000Z</time>
      </trkpt>
      <trkpt lat="45.23493" lon="5.9409">
        <ele>908.88</ele>
        <time>2019-12-08T14:00:52.000Z</time>
      </trkpt>
      <trkpt lat="45.23518" lon="5.94037">
        <ele>907.25</ele>
        <time>2019-12-08T14:00:57.000Z</time>
      </trkpt>
      <trkpt lat="45.23527" lon="5.93964">
        <ele>899.69</ele>
        <time>2019-12-08T14:01:02.000Z</time>
      </trkpt>
      <trkpt lat="45.23517" lon="5.93889">
        <ele>899.79</ele>
        <time>2019-12-08T14:01:07.000Z</time>
      </trkpt>
      <trkpt lat="45.23504" lon="5.93822">
        <ele>894.85</ele>
        <time>2019-12-08T14:01:12.000Z</time>
      </trkpt>
      <trkpt lat="45.23509" lon="5.93749">
        <ele>895.16</ele>
        <time>2019-12-08T14:01:17.000Z</time>
      </trkpt>
      <trkpt lat="45.23507" lon="5.93669">
        <ele>893.46</ele>
        <time>2019-12-08T14:01:22.000Z</time>
      </trkpt>
      <trkpt lat="45.23502" lon="5.93598">
        <ele>888.08</ele>
        <time>2019-12-08T14:01:27.000Z</time>
      </trkpt>
      <trkpt lat="45.23515" lon="5.93521">
        <ele>880.74</ele>
        <time>2019-12-08T14:01:32.000Z</time>
      </trkpt>
      <trkpt lat="45.23538" lon="5.93454">
        <ele>877.29</ele>
        <time>2019-12-08T14:01:37.000Z</time>
      </trkpt>
      <trkpt lat="45.23558" lon="5.93389">
        <ele>869.6</ele>
        <time>2019-12-08T14:01:42.000Z</time>
      </trkpt>
      <trkpt lat="45.23572" lon="5.93304">
        <ele>860.27</ele>
        <time>2019-12-08T14:01:47.000Z</time>
      </trkpt>
      <trkpt lat="45.23603" lon="5.93245">
        <ele>858.3</ele>
        <time>2019-12-08T14:01:52.000Z</time>
      </trkpt>
      <trkpt lat="45.23641" lon="5.93188">
        <ele>853.86</ele>
        <time>2019-12-08T14:01:57.000Z</time>
      </trkpt>
      <trkpt lat="45.23685" lon="5.93129">
        <ele>852.11</ele>
        <time>2019-12-08T14:02:02.000Z</time>
      </trkpt>
      <trkpt lat="45.23731" lon="5.93065">
        <ele>845.13</ele>
        <time>2019-12-08T14:02:07.000Z</time>
      </trkpt>
      <trkpt lat="45.23756" lon="5.93003">
        <ele>840.04</ele>
        <time>2019-12-08T14:02:12.000Z</time>
      </trkpt>
      <trkpt lat="45.23782" lon="5.92932">
        <ele>837.95</ele>
        <time>2019-12-08T14:02:17.000Z</time>
      </trkpt>
      <trkpt lat="45.23805" lon="5.92885">
        <ele>828.67</ele>
        <time>2019-12-08T14:02:22.000Z</time>
      </trkpt>
      <trkpt lat="45.23783" lon="5.92891">
        <ele>823.43</ele>
        <time>2019-12-08T14:02:27.000Z</time>
      </trkpt>
      <trkpt lat="45.23755" lon="5.92932">
        <ele>815.04</ele>
        <time>2019-12-08T14:02:32.000Z</time>
      </trkpt>
      <trkpt lat="45.23722" lon="5.92978">
        <ele>812.92</ele>
        <time>2019-12-08T14:02:37.000Z</time>
      </trkpt>
      <trkpt lat="45.23679" lon="5.93016">
        <ele>806.38</ele>
        <time>2019-12-08T14:02:42.000Z</time>
      </trkpt>
      <trkpt lat="45.23627" lon="5.93045">
        <ele>803.92</ele>
        <time>2019-12-08T14:02:47.000Z</time>
      </trkpt>
      <trkpt lat="45.23579" lon="5.93061">
        <ele>799.1</ele>
        <time>2019-12-08T14:02:52.000Z</time>
      </trkpt>
      <trkpt lat="45.23541" lon="5.9306">
        <ele>796.85</ele>
        <time>2019-12-08T14:02:57.000Z</time>
      </trkpt>
      <trkpt lat="45.23497" lon="5.93085">
        <ele>795.07</ele>
        <time>2019-12-08T14:03:02.000Z</time>
      </trkpt>
      <trkpt lat="45.23459" lon="5.9313">
        <ele>791.8</ele>
        <time>2019-12-08T14:03:07.000Z</time>
      </trkpt>
      <trkpt lat="45.23415" lon="5.93184">
        <ele>784.14</ele>
        <time>2019-12-08T14:03:12.000Z</time>
      </trkpt>
      <trkpt lat="45.2337" lon="5.93236">
        <ele>779.93</ele>
        <time>2019-12-08T14:03:17.000Z</time>
      </trkpt>
      <trkpt lat="45.23315" lon="5.93284">
        <ele>774.78</ele>
        <time>2019-12-08T14:03:22.000Z</time>
      </trkpt>
      <trkpt lat="45.23256" lon="5.93336">
        <ele>767.4</ele>
        <time>2019-12-08T14:03:27.000Z</time>
      </trkpt>
      <trkpt lat="45.2321" lon="5.93399">
        <ele>758.09</ele>
        <time>2019-12-08T14:03:32.000Z</time>
      </trkpt>
      <trkpt lat="45.23171" lon="5.93443">
        <ele>755.89</ele>
        <time>2019-12-08T14:03:37.000Z</time>
      </trkpt>
      <trkpt lat="45.23124" lon="5.93424">
        <ele>754.1</ele>
        <time>2019-12-08T14:03:42.000Z</time>
      </trkpt>
      <trkpt lat="45.23077" lon="5.934">
        <ele>749.78</ele>
        <time>2019-12-08T14:03:47.000Z</time>
      </trkpt>
      <trkpt lat="45.23038" lon="5.93379">
        <ele>748.13</ele>
        <time>2019-12-08T14:03:52.000Z</time>
      </trkpt>
      <trkpt lat="45.23017" lon="5.93352">
        <ele>747.89</ele>
        <time>2019-12-08T14:03:57.000Z</time>
      </trkpt>
      <trkpt lat="45.22992" lon="5.9335">
        <ele>751.91</ele>
        <time>2019-12-08T14:04:02.000Z</time>
      </trkpt>
      <trkpt lat="45.22971" lon="5.93347">
        <ele>751.44</ele>
        <time>2019-12-08T14:04:07.000Z</time>
      </trkpt>
      <trkpt lat="45.22953" lon="5.93345">
        <ele>752.35</ele>
        <time>2019-12-08T14:04:12.000Z</time>
      </trkpt>
      <trkpt lat="45.22934" lon="5.93349">
        <ele>754.11</ele>
        <time>2019-12-08T14:04:17.000Z</time>
      </trkpt>
      <trkpt lat="45.22916" lon="5.93355">
        <ele>752.69</ele>
        <time>2019-12-08T14:04:22.000Z</time>
      </trkpt>
      <trkpt lat="45.22895" lon="5.93352">
        <ele>755.5</ele>
        <time>2019-12-08T14:04:27.000Z</time>
      </trkpt>
      <trkpt lat="45.22871" lon="5.93334">
        <ele>758.43</ele>
        <time>2019-12-08T14:04:32.000Z</time>
      </trkpt>
      <trkpt lat="45.22853" lon="5.93328">
        <ele>762.4</ele>
        <time>2019-12-08T14:04:37.000Z</time>
      </trkpt>
      <trkpt lat="45.22833" lon="5.93324">
        <ele>764.4</ele>
        <time>2019-12-08T14:04:42.000Z</time>
      </trkpt>
      <trkpt lat="45.2281" lon="5.9333">
        <ele>765.56</ele>
        <time>2019-12-08T14:04:47.000Z</time>
      </trkpt>
      <trkpt lat="45.22792" lon="5.93335">
        <ele>766.26</ele>
        <time>2019-12-08T14:04:52.000Z</time>
      </trkpt>
      <trkpt lat="45.22774" lon="5.9334">
        <ele>766.13</ele>
        <time>2019-12-08T14:04:57.000Z</time>
      </trkpt>
      <trkpt lat="45.22755" lon="5.93358">
        <ele>768.61</ele>
        <time>2019-12-08T14:05:02.000Z</time>
      </trkpt>
      <trkpt lat="45.22737" lon="5.93378">
        <ele>767.59</ele>
        <time>2019-12-08T14:05:07.000Z</time>
      </trkpt>
      <trkpt lat="45.22726" lon="5.93399">
        <ele>766.01</ele>
        <time>2019-12-08T14:05:12.000Z</time>
      </trkpt>
      <trkpt lat="45.22709" lon="5.93419">
        <ele>769.07</ele>
        <time>2019-12-08T14:05:17.000Z</time>
      </trkpt>
      <trkpt lat="45.2269" lon="5.93434">
        <ele>770.71</ele>
        <time>2019-12-08T14:05:22.000Z</time>
      </trkpt>
      <trkpt lat="45.22674" lon="5.93446">
        <ele>772.74</ele>
        <time>2019-12-08T14:05:27.000Z</time>
      </trkpt>
      <trkpt lat="45.22655" lon="5.93456">
        <ele>771.81</ele>
        <time>2019-12-08T14:05:32.000Z</time>
      </trkpt>
      <trkpt lat="45.2264" lon="5.93461">
        <ele>774.49</ele>
        <time>2019-12-08T14:05:37.000Z</time>
      </trkpt>
      <trkpt lat="45.22631" lon="5.93463">
        <ele>775.98</ele>
        <time>2019-12-08T14:05:44.000Z</time>
      </trkpt>
      <trkpt lat="45.22621" lon="5.93465">
        <ele>776.75</ele>
        <time>2019-12-08T14:05:49.000Z</time>
      </trkpt>
      <trkpt lat="45.22611" lon="5.93465">
        <ele>777.6</ele>
        <time>2019-12-08T14:05:54.000Z</time>
      </trkpt>
      <trkpt lat="45.22598" lon="5.93464">
        <ele>781</ele>
        <time>2019-12-08T14:05:59.000Z</time>
      </trkpt>
      <trkpt lat="45.22578" lon="5.9346">
        <ele>782.21</ele>
        <time>2019-12-08T14:06:04.000Z</time>
      </trkpt>
      <trkpt lat="45.22546" lon="5.93461">
        <ele>778.72</ele>
        <time>2019-12-08T14:06:09.000Z</time>
      </trkpt>
      <trkpt lat="45.22507" lon="5.93456">
        <ele>774.53</ele>
        <time>2019-12-08T14:06:14.000Z</time>
      </trkpt>
      <trkpt lat="45.22469" lon="5.9343">
        <ele>769.59</ele>
        <time>2019-12-08T14:06:19.000Z</time>
      </trkpt>
      <trkpt lat="45.22434" lon="5.93385">
        <ele>769.4</ele>
        <time>2019-12-08T14:06:24.000Z</time>
      </trkpt>
      <trkpt lat="45.22379" lon="5.93346">
        <ele>765.88</ele>
        <time>2019-12-08T14:06:29.000Z</time>
      </trkpt>
      <trkpt lat="45.22327" lon="5.93318">
        <ele>763.32</ele>
        <time>2019-12-08T14:06:34.000Z</time>
      </trkpt>
      <trkpt lat="45.22272" lon="5.93295">
        <ele>761.19</ele>
        <time>2019-12-08T14:06:39.000Z</time>
      </trkpt>
      <trkpt lat="45.22219" lon="5.93311">
        <ele>760.52</ele>
        <time>2019-12-08T14:06:44.000Z</time>
      </trkpt>
      <trkpt lat="45.22187" lon="5.93346">
        <ele>760.57</ele>
        <time>2019-12-08T14:06:49.000Z</time>
      </trkpt>
      <trkpt lat="45.2214" lon="5.93337">
        <ele>759.39</ele>
        <time>2019-12-08T14:06:54.000Z</time>
      </trkpt>
      <trkpt lat="45.22109" lon="5.93318">
        <ele>760.94</ele>
        <time>2019-12-08T14:06:59.000Z</time>
      </trkpt>
      <trkpt lat="45.22084" lon="5.93296">
        <ele>759.46</ele>
        <time>2019-12-08T14:07:04.000Z</time>
      </trkpt>
      <trkpt lat="45.2206" lon="5.93276">
        <ele>761.76</ele>
        <time>2019-12-08T14:07:09.000Z</time>
      </trkpt>
      <trkpt lat="45.2204" lon="5.93257">
        <ele>763</ele>
        <time>2019-12-08T14:07:14.000Z</time>
      </trkpt>
      <trkpt lat="45.22024" lon="5.93238">
        <ele>766.5</ele>
        <time>2019-12-08T14:07:19.000Z</time>
      </trkpt>
      <trkpt lat="45.22003" lon="5.93226">
        <ele>764.94</ele>
        <time>2019-12-08T14:07:24.000Z</time>
      </trkpt>
      <trkpt lat="45.21983" lon="5.93219">
        <ele>762.89</ele>
        <time>2019-12-08T14:07:29.000Z</time>
      </trkpt>
      <trkpt lat="45.2196" lon="5.93222">
        <ele>760.75</ele>
        <time>2019-12-08T14:07:34.000Z</time>
      </trkpt>
      <trkpt lat="45.21937" lon="5.9324">
        <ele>757.85</ele>
        <time>2019-12-08T14:07:39.000Z</time>
      </trkpt>
      <trkpt lat="45.21917" lon="5.93269">
        <ele>755.4</ele>
        <time>2019-12-08T14:07:44.000Z</time>
      </trkpt>
      <trkpt lat="45.21892" lon="5.93294">
        <ele>752.46</ele>
        <time>2019-12-08T14:07:49.000Z</time>
      </trkpt>
      <trkpt lat="45.21864" lon="5.93313">
        <ele>751.75</ele>
        <time>2019-12-08T14:07:54.000Z</time>
      </trkpt>
      <trkpt lat="45.21835" lon="5.93337">
        <ele>752.03</ele>
        <time>2019-12-08T14:07:59.000Z</time>
      </trkpt>
      <trkpt lat="45.21807" lon="5.93356">
        <ele>752.93</ele>
        <time>2019-12-08T14:08:04.000Z</time>
      </trkpt>
      <trkpt lat="45.21781" lon="5.93375">
        <ele>751.86</ele>
        <time>2019-12-08T14:08:09.000Z</time>
      </trkpt>
      <trkpt lat="45.21766" lon="5.93387">
        <ele>754.28</ele>
        <time>2019-12-08T14:08:14.000Z</time>
      </trkpt>
      <trkpt lat="45.21748" lon="5.9339">
        <ele>755.99</ele>
        <time>2019-12-08T14:08:19.000Z</time>
      </trkpt>
      <trkpt lat="45.21728" lon="5.93386">
        <ele>757.26</ele>
        <time>2019-12-08T14:08:24.000Z</time>
      </trkpt>
      <trkpt lat="45.2171" lon="5.93375">
        <ele>760.22</ele>
        <time>2019-12-08T14:08:29.000Z</time>
      </trkpt>
      <trkpt lat="45.2169" lon="5.93366">
        <ele>761.67</ele>
        <time>2019-12-08T14:08:34.000Z</time>
      </trkpt>
      <trkpt lat="45.21671" lon="5.93361">
        <ele>763.68</ele>
        <time>2019-12-08T14:08:39.000Z</time>
      </trkpt>
      <trkpt lat="45.2165" lon="5.93366">
        <ele>760.45</ele>
        <time>2019-12-08T14:08:44.000Z</time>
      </trkpt>
      <trkpt lat="45.21632" lon="5.93389">
        <ele>759.87</ele>
        <time>2019-12-08T14:08:49.000Z</time>
      </trkpt>
      <trkpt lat="45.21611" lon="5.93416">
        <ele>757.52</ele>
        <time>2019-12-08T14:08:54.000Z</time>
      </trkpt>
      <trkpt lat="45.21583" lon="5.93447">
        <ele>755.48</ele>
        <time>2019-12-08T14:08:59.000Z</time>
      </trkpt>
      <trkpt lat="45.21555" lon="5.93475">
        <ele>756.41</ele>
        <time>2019-12-08T14:09:04.000Z</time>
      </trkpt>
      <trkpt lat="45.21524" lon="5.93502">
        <ele>755.73</ele>
        <time>2019-12-08T14:09:09.000Z</time>
      </trkpt>
      <trkpt lat="45.21492" lon="5.93514">
        <ele>756.64</ele>
        <time>2019-12-08T14:09:14.000Z</time>
      </trkpt>
      <trkpt lat="45.2146" lon="5.93521">
        <ele>757.31</ele>
        <time>2019-12-08T14:09:19.000Z</time>
      </trkpt>
      <trkpt lat="45.2143" lon="5.93511">
        <ele>758.62</ele>
        <time>2019-12-08T14:09:24.000Z</time>
      </trkpt>
      <trkpt lat="45.2141" lon="5.93486">
        <ele>761.33</ele>
        <time>2019-12-08T14:09:29.000Z</time>
      </trkpt>
      <trkpt lat="45.21394" lon="5.93457">
        <ele>762.26</ele>
        <time>2019-12-08T14:09:34.000Z</time>
      </trkpt>
      <trkpt lat="45.21381" lon="5.93423">
        <ele>764.12</ele>
        <time>2019-12-08T14:09:39.000Z</time>
      </trkpt>
      <trkpt lat="45.21374" lon="5.93386">
        <ele>763.87</ele>
        <time>2019-12-08T14:09:44.000Z</time>
      </trkpt>
      <trkpt lat="45.21368" lon="5.93344">
        <ele>764.67</ele>
        <time>2019-12-08T14:09:49.000Z</time>
      </trkpt>
      <trkpt lat="45.21372" lon="5.9331">
        <ele>764.39</ele>
        <time>2019-12-08T14:09:54.000Z</time>
      </trkpt>
      <trkpt lat="45.21395" lon="5.93282">
        <ele>760.95</ele>
        <time>2019-12-08T14:09:59.000Z</time>
      </trkpt>
      <trkpt lat="45.21424" lon="5.93267">
        <ele>761.23</ele>
        <time>2019-12-08T14:10:04.000Z</time>
      </trkpt>
      <trkpt lat="45.21453" lon="5.93262">
        <ele>761.25</ele>
        <time>2019-12-08T14:10:09.000Z</time>
      </trkpt>
      <trkpt lat="45.21486" lon="5.93251">
        <ele>761.76</ele>
        <time>2019-12-08T14:10:14.000Z</time>
      </trkpt>
      <trkpt lat="45.21519" lon="5.93238">
        <ele>765.51</ele>
        <time>2019-12-08T14:10:19.000Z</time>
      </trkpt>
      <trkpt lat="45.21551" lon="5.93217">
        <ele>763.65</ele>
        <time>2019-12-08T14:10:24.000Z</time>
      </trkpt>
      <trkpt lat="45.2158" lon="5.93198">
        <ele>761.41</ele>
        <time>2019-12-08T14:10:29.000Z</time>
      </trkpt>
      <trkpt lat="45.21609" lon="5.93171">
        <ele>758.58</ele>
        <time>2019-12-08T14:10:34.000Z</time>
      </trkpt>
      <trkpt lat="45.21641" lon="5.93137">
        <ele>758.55</ele>
        <time>2019-12-08T14:10:39.000Z</time>
      </trkpt>
      <trkpt lat="45.2167" lon="5.93098">
        <ele>758.1</ele>
        <time>2019-12-08T14:10:44.000Z</time>
      </trkpt>
      <trkpt lat="45.21705" lon="5.93073">
        <ele>758.67</ele>
        <time>2019-12-08T14:10:49.000Z</time>
      </trkpt>
      <trkpt lat="45.21748" lon="5.93048">
        <ele>753.51</ele>
        <time>2019-12-08T14:10:54.000Z</time>
      </trkpt>
      <trkpt lat="45.21794" lon="5.93017">
        <ele>751.71</ele>
        <time>2019-12-08T14:10:59.000Z</time>
      </trkpt>
      <trkpt lat="45.21836" lon="5.9298">
        <ele>751.35</ele>
        <time>2019-12-08T14:11:04.000Z</time>
      </trkpt>
      <trkpt lat="45.21871" lon="5.92942">
        <ele>751.97</ele>
        <time>2019-12-08T14:11:09.000Z</time>
      </trkpt>
      <trkpt lat="45.21905" lon="5.92905">
        <ele>753.91</ele>
        <time>2019-12-08T14:11:14.000Z</time>
      </trkpt>
      <trkpt lat="45.2194" lon="5.92878">
        <ele>752.81</ele>
        <time>2019-12-08T14:11:19.000Z</time>
      </trkpt>
      <trkpt lat="45.21974" lon="5.92857">
        <ele>752.07</ele>
        <time>2019-12-08T14:11:24.000Z</time>
      </trkpt>
      <trkpt lat="45.22006" lon="5.92835">
        <ele>748.54</ele>
        <time>2019-12-08T14:11:29.000Z</time>
      </trkpt>
      <trkpt lat="45.22038" lon="5.92815">
        <ele>748.64</ele>
        <time>2019-12-08T14:11:34.000Z</time>
      </trkpt>
      <trkpt lat="45.22069" lon="5.92804">
        <ele>749.91</ele>
        <time>2019-12-08T14:11:39.000Z</time>
      </trkpt>
      <trkpt lat="45.22103" lon="5.92799">
        <ele>752.62</ele>
        <time>2019-12-08T14:11:44.000Z</time>
      </trkpt>
      <trkpt lat="45.22134" lon="5.92797">
        <ele>752.07</ele>
        <time>2019-12-08T14:11:49.000Z</time>
      </trkpt>
      <trkpt lat="45.22162" lon="5.92795">
        <ele>748.95</ele>
        <time>2019-12-08T14:11:54.000Z</time>
      </trkpt>
      <trkpt lat="45.22196" lon="5.92786">
        <ele>747.69</ele>
        <time>2019-12-08T14:11:59.000Z</time>
      </trkpt>
      <trkpt lat="45.22233" lon="5.92774">
        <ele>749.16</ele>
        <time>2019-12-08T14:12:04.000Z</time>
      </trkpt>
      <trkpt lat="45.22269" lon="5.92765">
        <ele>748.81</ele>
        <time>2019-12-08T14:12:09.000Z</time>
      </trkpt>
      <trkpt lat="45.22302" lon="5.92761">
        <ele>746.12</ele>
        <time>2019-12-08T14:12:14.000Z</time>
      </trkpt>
      <trkpt lat="45.22342" lon="5.92772">
        <ele>740.83</ele>
        <time>2019-12-08T14:12:19.000Z</time>
      </trkpt>
      <trkpt lat="45.22387" lon="5.92786">
        <ele>743.26</ele>
        <time>2019-12-08T14:12:24.000Z</time>
      </trkpt>
      <trkpt lat="45.22433" lon="5.92786">
        <ele>745.47</ele>
        <time>2019-12-08T14:12:29.000Z</time>
      </trkpt>
      <trkpt lat="45.22478" lon="5.92776">
        <ele>742.56</ele>
        <time>2019-12-08T14:12:34.000Z</time>
      </trkpt>
      <trkpt lat="45.2252" lon="5.92764">
        <ele>739.49</ele>
        <time>2019-12-08T14:12:39.000Z</time>
      </trkpt>
      <trkpt lat="45.22553" lon="5.92724">
        <ele>742.1</ele>
        <time>2019-12-08T14:12:44.000Z</time>
      </trkpt>
      <trkpt lat="45.22579" lon="5.92689">
        <ele>740.72</ele>
        <time>2019-12-08T14:12:49.000Z</time>
      </trkpt>
      <trkpt lat="45.22594" lon="5.92657">
        <ele>740.65</ele>
        <time>2019-12-08T14:12:54.000Z</time>
      </trkpt>
      <trkpt lat="45.22597" lon="5.92615">
        <ele>740.87</ele>
        <time>2019-12-08T14:12:59.000Z</time>
      </trkpt>
      <trkpt lat="45.22591" lon="5.92574">
        <ele>746.65</ele>
        <time>2019-12-08T14:13:04.000Z</time>
      </trkpt>
      <trkpt lat="45.2259" lon="5.92538">
        <ele>748.79</ele>
        <time>2019-12-08T14:13:09.000Z</time>
      </trkpt>
      <trkpt lat="45.22594" lon="5.92506">
        <ele>746.81</ele>
        <time>2019-12-08T14:13:14.000Z</time>
      </trkpt>
      <trkpt lat="45.22601" lon="5.92476">
        <ele>747.31</ele>
        <time>2019-12-08T14:13:19.000Z</time>
      </trkpt>
      <trkpt lat="45.22607" lon="5.92447">
        <ele>745</ele>
        <time>2019-12-08T14:13:24.000Z</time>
      </trkpt>
      <trkpt lat="45.22611" lon="5.9242">
        <ele>748.09</ele>
        <time>2019-12-08T14:13:29.000Z</time>
      </trkpt>
      <trkpt lat="45.22617" lon="5.92396">
        <ele>748.65</ele>
        <time>2019-12-08T14:13:34.000Z</time>
      </trkpt>
      <trkpt lat="45.22619" lon="5.92372">
        <ele>749.95</ele>
        <time>2019-12-08T14:13:39.000Z</time>
      </trkpt>
      <trkpt lat="45.22622" lon="5.92358">
        <ele>748.54</ele>
        <time>2019-12-08T14:14:01.000Z</time>
      </trkpt>
      <trkpt lat="45.22626" lon="5.92345">
        <ele>747.84</ele>
        <time>2019-12-08T14:14:06.000Z</time>
      </trkpt>
      <trkpt lat="45.2263" lon="5.92333">
        <ele>746.5</ele>
        <time>2019-12-08T14:14:14.000Z</time>
      </trkpt>
      <trkpt lat="45.22631" lon="5.9232">
        <ele>748.91</ele>
        <time>2019-12-08T14:14:51.000Z</time>
      </trkpt>
      <trkpt lat="45.22639" lon="5.92302">
        <ele>749.18</ele>
        <time>2019-12-08T14:14:56.000Z</time>
      </trkpt>
      <trkpt lat="45.22654" lon="5.92275">
        <ele>747.68</ele>
        <time>2019-12-08T14:15:01.000Z</time>
      </trkpt>
      <trkpt lat="45.22671" lon="5.92247">
        <ele>747.37</ele>
        <time>2019-12-08T14:15:06.000Z</time>
      </trkpt>
      <trkpt lat="45.22691" lon="5.92212">
        <ele>746.31</ele>
        <time>2019-12-08T14:15:11.000Z</time>
      </trkpt>
      <trkpt lat="45.22715" lon="5.9217">
        <ele>746.47</ele>
        <time>2019-12-08T14:15:16.000Z</time>
      </trkpt>
      <trkpt lat="45.2274" lon="5.92121">
        <ele>743.96</ele>
        <time>2019-12-08T14:15:21.000Z</time>
      </trkpt>
      <trkpt lat="45.22762" lon="5.92069">
        <ele>747.55</ele>
        <time>2019-12-08T14:15:26.000Z</time>
      </trkpt>
      <trkpt lat="45.22769" lon="5.92013">
        <ele>743.82</ele>
        <time>2019-12-08T14:15:31.000Z</time>
      </trkpt>
      <trkpt lat="45.22773" lon="5.91968">
        <ele>740.72</ele>
        <time>2019-12-08T14:15:36.000Z</time>
      </trkpt>
      <trkpt lat="45.22803" lon="5.91944">
        <ele>737.57</ele>
        <time>2019-12-08T14:15:41.000Z</time>
      </trkpt>
      <trkpt lat="45.22835" lon="5.91933">
        <ele>737.71</ele>
        <time>2019-12-08T14:15:46.000Z</time>
      </trkpt>
      <trkpt lat="45.22861" lon="5.9191">
        <ele>738.08</ele>
        <time>2019-12-08T14:15:51.000Z</time>
      </trkpt>
      <trkpt lat="45.22879" lon="5.91887">
        <ele>738.12</ele>
        <time>2019-12-08T14:15:56.000Z</time>
      </trkpt>
      <trkpt lat="45.229" lon="5.9186">
        <ele>739.17</ele>
        <time>2019-12-08T14:16:01.000Z</time>
      </trkpt>
      <trkpt lat="45.22919" lon="5.9183">
        <ele>741.53</ele>
        <time>2019-12-08T14:16:06.000Z</time>
      </trkpt>
      <trkpt lat="45.22937" lon="5.91804">
        <ele>742.43</ele>
        <time>2019-12-08T14:16:11.000Z</time>
      </trkpt>
      <trkpt lat="45.22951" lon="5.91778">
        <ele>741.51</ele>
        <time>2019-12-08T14:16:16.000Z</time>
      </trkpt>
      <trkpt lat="45.22963" lon="5.91755">
        <ele>740.16</ele>
        <time>2019-12-08T14:16:21.000Z</time>
      </trkpt>
      <trkpt lat="45.22973" lon="5.91728">
        <ele>742.7</ele>
        <time>2019-12-08T14:16:26.000Z</time>
      </trkpt>
      <trkpt lat="45.22977" lon="5.91702">
        <ele>745.42</ele>
        <time>2019-12-08T14:16:31.000Z</time>
      </trkpt>
      <trkpt lat="45.22981" lon="5.91683">
        <ele>748.98</ele>
        <time>2019-12-08T14:16:36.000Z</time>
      </trkpt>
      <trkpt lat="45.22982" lon="5.9166">
        <ele>750.13</ele>
        <time>2019-12-08T14:16:41.000Z</time>
      </trkpt>
      <trkpt lat="45.22982" lon="5.91642">
        <ele>750.98</ele>
        <time>2019-12-08T14:16:46.000Z</time>
      </trkpt>
      <trkpt lat="45.22985" lon="5.91616">
        <ele>750.36</ele>
        <time>2019-12-08T14:16:51.000Z</time>
      </trkpt>
      <trkpt lat="45.22986" lon="5.91586">
        <ele>746.36</ele>
        <time>2019-12-08T14:16:56.000Z</time>
      </trkpt>
      <trkpt lat="45.22966" lon="5.91554">
        <ele>744.67</ele>
        <time>2019-12-08T14:17:01.000Z</time>
      </trkpt>
      <trkpt lat="45.22959" lon="5.91524">
        <ele>744.52</ele>
        <time>2019-12-08T14:17:06.000Z</time>
      </trkpt>
      <trkpt lat="45.22953" lon="5.91492">
        <ele>751.19</ele>
        <time>2019-12-08T14:17:11.000Z</time>
      </trkpt>
      <trkpt lat="45.22956" lon="5.91464">
        <ele>754.59</ele>
        <time>2019-12-08T14:17:16.000Z</time>
      </trkpt>
      <trkpt lat="45.22963" lon="5.91435">
        <ele>755.2</ele>
        <time>2019-12-08T14:17:21.000Z</time>
      </trkpt>
      <trkpt lat="45.22974" lon="5.91413">
        <ele>755.57</ele>
        <time>2019-12-08T14:17:26.000Z</time>
      </trkpt>
      <trkpt lat="45.22984" lon="5.91388">
        <ele>756.57</ele>
        <time>2019-12-08T14:17:31.000Z</time>
      </trkpt>
      <trkpt lat="45.22997" lon="5.91357">
        <ele>756.9</ele>
        <time>2019-12-08T14:17:36.000Z</time>
      </trkpt>
      <trkpt lat="45.23021" lon="5.91325">
        <ele>757.15</ele>
        <time>2019-12-08T14:17:41.000Z</time>
      </trkpt>
      <trkpt lat="45.23046" lon="5.91297">
        <ele>755.85</ele>
        <time>2019-12-08T14:17:46.000Z</time>
      </trkpt>
      <trkpt lat="45.2308" lon="5.9127">
        <ele>755.11</ele>
        <time>2019-12-08T14:17:51.000Z</time>
      </trkpt>
      <trkpt lat="45.23125" lon="5.91228">
        <ele>751.49</ele>
        <time>2019-12-08T14:17:56.000Z</time>
      </trkpt>
      <trkpt lat="45.23174" lon="5.91202">
        <ele>750.27</ele>
        <time>2019-12-08T14:18:01.000Z</time>
      </trkpt>
      <trkpt lat="45.23209" lon="5.91144">
        <ele>745.55</ele>
        <time>2019-12-08T14:18:06.000Z</time>
      </trkpt>
      <trkpt lat="45.23231" lon="5.91084">
        <ele>740.04</ele>
        <time>2019-12-08T14:18:11.000Z</time>
      </trkpt>
      <trkpt lat="45.23271" lon="5.91037">
        <ele>735.5</ele>
        <time>2019-12-08T14:18:16.000Z</time>
      </trkpt>
      <trkpt lat="45.23312" lon="5.90981">
        <ele>733.37</ele>
        <time>2019-12-08T14:18:21.000Z</time>
      </trkpt>
      <trkpt lat="45.23339" lon="5.90911">
        <ele>727.63</ele>
        <time>2019-12-08T14:18:26.000Z</time>
      </trkpt>
      <trkpt lat="45.23375" lon="5.90818">
        <ele>718.42</ele>
        <time>2019-12-08T14:18:31.000Z</time>
      </trkpt>
      <trkpt lat="45.23409" lon="5.90743">
        <ele>716.68</ele>
        <time>2019-12-08T14:18:36.000Z</time>
      </trkpt>
      <trkpt lat="45.23443" lon="5.90665">
        <ele>713.73</ele>
        <time>2019-12-08T14:18:41.000Z</time>
      </trkpt>
      <trkpt lat="45.23463" lon="5.90587">
        <ele>705.67</ele>
        <time>2019-12-08T14:18:46.000Z</time>
      </trkpt>
      <trkpt lat="45.23477" lon="5.90521">
        <ele>702.12</ele>
        <time>2019-12-08T14:18:51.000Z</time>
      </trkpt>
      <trkpt lat="45.23486" lon="5.90471">
        <ele>703.2</ele>
        <time>2019-12-08T14:18:56.000Z</time>
      </trkpt>
      <trkpt lat="45.23492" lon="5.90423">
        <ele>704.38</ele>
        <time>2019-12-08T14:19:01.000Z</time>
      </trkpt>
      <trkpt lat="45.23499" lon="5.90378">
        <ele>704.91</ele>
        <time>2019-12-08T14:19:06.000Z</time>
      </trkpt>
      <trkpt lat="45.23501" lon="5.90338">
        <ele>702.53</ele>
        <time>2019-12-08T14:19:11.000Z</time>
      </trkpt>
      <trkpt lat="45.23492" lon="5.90303">
        <ele>702.02</ele>
        <time>2019-12-08T14:19:16.000Z</time>
      </trkpt>
      <trkpt lat="45.23476" lon="5.90274">
        <ele>699.52</ele>
        <time>2019-12-08T14:19:21.000Z</time>
      </trkpt>
      <trkpt lat="45.23458" lon="5.90255">
        <ele>699.34</ele>
        <time>2019-12-08T14:19:26.000Z</time>
      </trkpt>
      <trkpt lat="45.23456" lon="5.90243">
        <ele>703.41</ele>
        <time>2019-12-08T14:19:52.000Z</time>
      </trkpt>
      <trkpt lat="45.23449" lon="5.9025">
        <ele>702.71</ele>
        <time>2019-12-08T14:24:52.000Z</time>
      </trkpt>
      <trkpt lat="45.23437" lon="5.90253">
        <ele>701.06</ele>
        <time>2019-12-08T14:24:57.000Z</time>
      </trkpt>
      <trkpt lat="45.23415" lon="5.90263">
        <ele>700.32</ele>
        <time>2019-12-08T14:25:02.000Z</time>
      </trkpt>
      <trkpt lat="45.23386" lon="5.90273">
        <ele>697.85</ele>
        <time>2019-12-08T14:25:07.000Z</time>
      </trkpt>
      <trkpt lat="45.23347" lon="5.90291">
        <ele>695.36</ele>
        <time>2019-12-08T14:25:12.000Z</time>
      </trkpt>
      <trkpt lat="45.23308" lon="5.90312">
        <ele>691.69</ele>
        <time>2019-12-08T14:25:17.000Z</time>
      </trkpt>
      <trkpt lat="45.2326" lon="5.90331">
        <ele>690.9</ele>
        <time>2019-12-08T14:25:22.000Z</time>
      </trkpt>
      <trkpt lat="45.23219" lon="5.90327">
        <ele>691.75</ele>
        <time>2019-12-08T14:25:27.000Z</time>
      </trkpt>
      <trkpt lat="45.23177" lon="5.90328">
        <ele>691.98</ele>
        <time>2019-12-08T14:25:32.000Z</time>
      </trkpt>
      <trkpt lat="45.23136" lon="5.90322">
        <ele>691.59</ele>
        <time>2019-12-08T14:25:37.000Z</time>
      </trkpt>
      <trkpt lat="45.23096" lon="5.9032">
        <ele>692.29</ele>
        <time>2019-12-08T14:25:42.000Z</time>
      </trkpt>
      <trkpt lat="45.23058" lon="5.90328">
        <ele>691.29</ele>
        <time>2019-12-08T14:25:47.000Z</time>
      </trkpt>
      <trkpt lat="45.23018" lon="5.90339">
        <ele>688.19</ele>
        <time>2019-12-08T14:25:52.000Z</time>
      </trkpt>
      <trkpt lat="45.2298" lon="5.90359">
        <ele>689.1</ele>
        <time>2019-12-08T14:25:57.000Z</time>
      </trkpt>
      <trkpt lat="45.22939" lon="5.90354">
        <ele>688.64</ele>
        <time>2019-12-08T14:26:02.000Z</time>
      </trkpt>
      <trkpt lat="45.22928" lon="5.90328">
        <ele>690.26</ele>
        <time>2019-12-08T14:26:07.000Z</time>
      </trkpt>
      <trkpt lat="45.2292" lon="5.9031">
        <ele>690.96</ele>
        <time>2019-12-08T14:26:12.000Z</time>
      </trkpt>
      <trkpt lat="45.22905" lon="5.90292">
        <ele>692.33</ele>
        <time>2019-12-08T14:26:17.000Z</time>
      </trkpt>
      <trkpt lat="45.22892" lon="5.90281">
        <ele>690.99</ele>
        <time>2019-12-08T14:26:22.000Z</time>
      </trkpt>
      <trkpt lat="45.22876" lon="5.90266">
        <ele>691.64</ele>
        <time>2019-12-08T14:26:27.000Z</time>
      </trkpt>
      <trkpt lat="45.2286" lon="5.90251">
        <ele>694.73</ele>
        <time>2019-12-08T14:26:32.000Z</time>
      </trkpt>
      <trkpt lat="45.22842" lon="5.9024">
        <ele>695.23</ele>
        <time>2019-12-08T14:26:37.000Z</time>
      </trkpt>
      <trkpt lat="45.22823" lon="5.90234">
        <ele>698.04</ele>
        <time>2019-12-08T14:26:42.000Z</time>
      </trkpt>
      <trkpt lat="45.22803" lon="5.90235">
        <ele>698.6</ele>
        <time>2019-12-08T14:26:47.000Z</time>
      </trkpt>
      <trkpt lat="45.22784" lon="5.90238">
        <ele>700.09</ele>
        <time>2019-12-08T14:26:52.000Z</time>
      </trkpt>
      <trkpt lat="45.22762" lon="5.90239">
        <ele>698.95</ele>
        <time>2019-12-08T14:26:57.000Z</time>
      </trkpt>
      <trkpt lat="45.2274" lon="5.90239">
        <ele>697.75</ele>
        <time>2019-12-08T14:27:02.000Z</time>
      </trkpt>
      <trkpt lat="45.22716" lon="5.90241">
        <ele>697.06</ele>
        <time>2019-12-08T14:27:07.000Z</time>
      </trkpt>
      <trkpt lat="45.22688" lon="5.90249">
        <ele>695.06</ele>
        <time>2019-12-08T14:27:12.000Z</time>
      </trkpt>
      <trkpt lat="45.22657" lon="5.90263">
        <ele>693.83</ele>
        <time>2019-12-08T14:27:17.000Z</time>
      </trkpt>
      <trkpt lat="45.22629" lon="5.90285">
        <ele>694.56</ele>
        <time>2019-12-08T14:27:22.000Z</time>
      </trkpt>
      <trkpt lat="45.22618" lon="5.90316">
        <ele>694.7</ele>
        <time>2019-12-08T14:27:27.000Z</time>
      </trkpt>
      <trkpt lat="45.22608" lon="5.90344">
        <ele>698.53</ele>
        <time>2019-12-08T14:27:32.000Z</time>
      </trkpt>
      <trkpt lat="45.226" lon="5.90371">
        <ele>699.78</ele>
        <time>2019-12-08T14:27:37.000Z</time>
      </trkpt>
      <trkpt lat="45.22595" lon="5.90399">
        <ele>700.01</ele>
        <time>2019-12-08T14:27:42.000Z</time>
      </trkpt>
      <trkpt lat="45.22589" lon="5.90429">
        <ele>696.65</ele>
        <time>2019-12-08T14:27:47.000Z</time>
      </trkpt>
      <trkpt lat="45.22585" lon="5.90463">
        <ele>696.71</ele>
        <time>2019-12-08T14:27:52.000Z</time>
      </trkpt>
      <trkpt lat="45.22582" lon="5.90495">
        <ele>696.48</ele>
        <time>2019-12-08T14:27:57.000Z</time>
      </trkpt>
      <trkpt lat="45.22576" lon="5.90522">
        <ele>698.05</ele>
        <time>2019-12-08T14:28:02.000Z</time>
      </trkpt>
      <trkpt lat="45.22559" lon="5.90519">
        <ele>695.22</ele>
        <time>2019-12-08T14:28:07.000Z</time>
      </trkpt>
      <trkpt lat="45.2255" lon="5.90505">
        <ele>699.19</ele>
        <time>2019-12-08T14:28:12.000Z</time>
      </trkpt>
      <trkpt lat="45.22539" lon="5.90483">
        <ele>703.53</ele>
        <time>2019-12-08T14:28:17.000Z</time>
      </trkpt>
      <trkpt lat="45.22527" lon="5.90458">
        <ele>705.91</ele>
        <time>2019-12-08T14:28:22.000Z</time>
      </trkpt>
      <trkpt lat="45.22516" lon="5.90433">
        <ele>708.51</ele>
        <time>2019-12-08T14:28:27.000Z</time>
      </trkpt>
      <trkpt lat="45.22502" lon="5.9041">
        <ele>708.45</ele>
        <time>2019-12-08T14:28:32.000Z</time>
      </trkpt>
      <trkpt lat="45.22478" lon="5.90397">
        <ele>708.2</ele>
        <time>2019-12-08T14:28:37.000Z</time>
      </trkpt>
      <trkpt lat="45.22456" lon="5.90376">
        <ele>710.4</ele>
        <time>2019-12-08T14:28:42.000Z</time>
      </trkpt>
      <trkpt lat="45.22439" lon="5.90352">
        <ele>710.23</ele>
        <time>2019-12-08T14:28:47.000Z</time>
      </trkpt>
      <trkpt lat="45.22419" lon="5.90328">
        <ele>708.14</ele>
        <time>2019-12-08T14:28:52.000Z</time>
      </trkpt>
      <trkpt lat="45.22406" lon="5.90296">
        <ele>711.18</ele>
        <time>2019-12-08T14:28:57.000Z</time>
      </trkpt>
      <trkpt lat="45.22394" lon="5.90271">
        <ele>711.88</ele>
        <time>2019-12-08T14:29:02.000Z</time>
      </trkpt>
      <trkpt lat="45.22384" lon="5.9024">
        <ele>713.88</ele>
        <time>2019-12-08T14:29:07.000Z</time>
      </trkpt>
      <trkpt lat="45.22368" lon="5.90211">
        <ele>713.04</ele>
        <time>2019-12-08T14:29:12.000Z</time>
      </trkpt>
      <trkpt lat="45.22351" lon="5.90187">
        <ele>710.56</ele>
        <time>2019-12-08T14:29:17.000Z</time>
      </trkpt>
      <trkpt lat="45.22333" lon="5.90165">
        <ele>709.76</ele>
        <time>2019-12-08T14:29:22.000Z</time>
      </trkpt>
      <trkpt lat="45.2231" lon="5.90149">
        <ele>713.23</ele>
        <time>2019-12-08T14:29:27.000Z</time>
      </trkpt>
      <trkpt lat="45.22288" lon="5.90135">
        <ele>716.25</ele>
        <time>2019-12-08T14:29:32.000Z</time>
      </trkpt>
      <trkpt lat="45.22267" lon="5.90123">
        <ele>717.27</ele>
        <time>2019-12-08T14:29:37.000Z</time>
      </trkpt>
      <trkpt lat="45.22242" lon="5.90113">
        <ele>719.12</ele>
        <time>2019-12-08T14:29:42.000Z</time>
      </trkpt>
      <trkpt lat="45.22224" lon="5.90121">
        <ele>719.26</ele>
        <time>2019-12-08T14:29:47.000Z</time>
      </trkpt>
      <trkpt lat="45.22203" lon="5.90142">
        <ele>717.95</ele>
        <time>2019-12-08T14:29:52.000Z</time>
      </trkpt>
      <trkpt lat="45.22183" lon="5.90168">
        <ele>715.15</ele>
        <time>2019-12-08T14:29:57.000Z</time>
      </trkpt>
      <trkpt lat="45.22161" lon="5.90194">
        <ele>713.57</ele>
        <time>2019-12-08T14:30:02.000Z</time>
      </trkpt>
      <trkpt lat="45.22135" lon="5.90215">
        <ele>714.5</ele>
        <time>2019-12-08T14:30:07.000Z</time>
      </trkpt>
      <trkpt lat="45.22108" lon="5.90235">
        <ele>717.05</ele>
        <time>2019-12-08T14:30:12.000Z</time>
      </trkpt>
      <trkpt lat="45.22078" lon="5.90248">
        <ele>719.31</ele>
        <time>2019-12-08T14:30:17.000Z</time>
      </trkpt>
      <trkpt lat="45.22046" lon="5.90249">
        <ele>720</ele>
        <time>2019-12-08T14:30:22.000Z</time>
      </trkpt>
      <trkpt lat="45.22017" lon="5.9024">
        <ele>718.23</ele>
        <time>2019-12-08T14:30:27.000Z</time>
      </trkpt>
      <trkpt lat="45.21993" lon="5.90222">
        <ele>721.11</ele>
        <time>2019-12-08T14:30:32.000Z</time>
      </trkpt>
      <trkpt lat="45.21977" lon="5.90209">
        <ele>720.2</ele>
        <time>2019-12-08T14:30:37.000Z</time>
      </trkpt>
      <trkpt lat="45.2196" lon="5.90196">
        <ele>718.07</ele>
        <time>2019-12-08T14:30:42.000Z</time>
      </trkpt>
      <trkpt lat="45.21944" lon="5.90176">
        <ele>718.31</ele>
        <time>2019-12-08T14:30:47.000Z</time>
      </trkpt>
      <trkpt lat="45.2193" lon="5.90152">
        <ele>718.38</ele>
        <time>2019-12-08T14:30:52.000Z</time>
      </trkpt>
      <trkpt lat="45.21926" lon="5.90123">
        <ele>720.55</ele>
        <time>2019-12-08T14:30:57.000Z</time>
      </trkpt>
      <trkpt lat="45.21935" lon="5.90093">
        <ele>721.1</ele>
        <time>2019-12-08T14:31:02.000Z</time>
      </trkpt>
      <trkpt lat="45.21938" lon="5.90065">
        <ele>722.87</ele>
        <time>2019-12-08T14:31:07.000Z</time>
      </trkpt>
      <trkpt lat="45.21928" lon="5.90043">
        <ele>727.83</ele>
        <time>2019-12-08T14:31:12.000Z</time>
      </trkpt>
      <trkpt lat="45.21905" lon="5.90023">
        <ele>725.93</ele>
        <time>2019-12-08T14:31:17.000Z</time>
      </trkpt>
      <trkpt lat="45.21885" lon="5.90006">
        <ele>724.32</ele>
        <time>2019-12-08T14:31:22.000Z</time>
      </trkpt>
      <trkpt lat="45.21861" lon="5.89993">
        <ele>723.76</ele>
        <time>2019-12-08T14:31:27.000Z</time>
      </trkpt>
      <trkpt lat="45.21836" lon="5.89979">
        <ele>727.28</ele>
        <time>2019-12-08T14:31:32.000Z</time>
      </trkpt>
      <trkpt lat="45.21814" lon="5.89967">
        <ele>731.92</ele>
        <time>2019-12-08T14:31:37.000Z</time>
      </trkpt>
      <trkpt lat="45.21785" lon="5.89954">
        <ele>730.49</ele>
        <time>2019-12-08T14:31:42.000Z</time>
      </trkpt>
      <trkpt lat="45.21762" lon="5.8994">
        <ele>732.01</ele>
        <time>2019-12-08T14:31:47.000Z</time>
      </trkpt>
      <trkpt lat="45.21739" lon="5.89927">
        <ele>729.41</ele>
        <time>2019-12-08T14:31:52.000Z</time>
      </trkpt>
      <trkpt lat="45.21716" lon="5.89913">
        <ele>731.18</ele>
        <time>2019-12-08T14:31:57.000Z</time>
      </trkpt>
      <trkpt lat="45.21705" lon="5.89899">
        <ele>729.47</ele>
        <time>2019-12-08T14:32:02.000Z</time>
      </trkpt>
      <trkpt lat="45.21689" lon="5.89884">
        <ele>729.12</ele>
        <time>2019-12-08T14:32:07.000Z</time>
      </trkpt>
      <trkpt lat="45.21666" lon="5.89865">
        <ele>730.06</ele>
        <time>2019-12-08T14:32:12.000Z</time>
      </trkpt>
      <trkpt lat="45.21639" lon="5.89842">
        <ele>732.6</ele>
        <time>2019-12-08T14:32:17.000Z</time>
      </trkpt>
      <trkpt lat="45.21618" lon="5.89823">
        <ele>736.47</ele>
        <time>2019-12-08T14:32:22.000Z</time>
      </trkpt>
      <trkpt lat="45.21593" lon="5.89806">
        <ele>737.56</ele>
        <time>2019-12-08T14:32:27.000Z</time>
      </trkpt>
      <trkpt lat="45.21565" lon="5.8979">
        <ele>737.78</ele>
        <time>2019-12-08T14:32:32.000Z</time>
      </trkpt>
      <trkpt lat="45.21542" lon="5.89774">
        <ele>740.38</ele>
        <time>2019-12-08T14:32:37.000Z</time>
      </trkpt>
      <trkpt lat="45.21516" lon="5.89757">
        <ele>740.59</ele>
        <time>2019-12-08T14:32:42.000Z</time>
      </trkpt>
      <trkpt lat="45.21492" lon="5.89742">
        <ele>743.24</ele>
        <time>2019-12-08T14:32:47.000Z</time>
      </trkpt>
      <trkpt lat="45.2147" lon="5.89731">
        <ele>745.68</ele>
        <time>2019-12-08T14:32:52.000Z</time>
      </trkpt>
      <trkpt lat="45.21446" lon="5.89725">
        <ele>747.05</ele>
        <time>2019-12-08T14:32:57.000Z</time>
      </trkpt>
      <trkpt lat="45.21421" lon="5.89727">
        <ele>746.72</ele>
        <time>2019-12-08T14:33:02.000Z</time>
      </trkpt>
      <trkpt lat="45.21394" lon="5.89733">
        <ele>747.06</ele>
        <time>2019-12-08T14:33:07.000Z</time>
      </trkpt>
      <trkpt lat="45.21369" lon="5.89747">
        <ele>744.8</ele>
        <time>2019-12-08T14:33:12.000Z</time>
      </trkpt>
      <trkpt lat="45.21343" lon="5.89762">
        <ele>741.87</ele>
        <time>2019-12-08T14:33:17.000Z</time>
      </trkpt>
      <trkpt lat="45.21316" lon="5.89778">
        <ele>742.66</ele>
        <time>2019-12-08T14:33:22.000Z</time>
      </trkpt>
      <trkpt lat="45.21292" lon="5.89787">
        <ele>744.52</ele>
        <time>2019-12-08T14:33:27.000Z</time>
      </trkpt>
      <trkpt lat="45.21271" lon="5.89789">
        <ele>747.2</ele>
        <time>2019-12-08T14:33:32.000Z</time>
      </trkpt>
      <trkpt lat="45.21251" lon="5.89791">
        <ele>749.34</ele>
        <time>2019-12-08T14:33:37.000Z</time>
      </trkpt>
      <trkpt lat="45.21227" lon="5.8979">
        <ele>751.85</ele>
        <time>2019-12-08T14:33:42.000Z</time>
      </trkpt>
      <trkpt lat="45.21205" lon="5.89778">
        <ele>753.55</ele>
        <time>2019-12-08T14:33:47.000Z</time>
      </trkpt>
      <trkpt lat="45.21177" lon="5.89763">
        <ele>755.98</ele>
        <time>2019-12-08T14:33:52.000Z</time>
      </trkpt>
      <trkpt lat="45.21152" lon="5.89756">
        <ele>758.26</ele>
        <time>2019-12-08T14:33:57.000Z</time>
      </trkpt>
      <trkpt lat="45.21132" lon="5.89769">
        <ele>758.43</ele>
        <time>2019-12-08T14:34:02.000Z</time>
      </trkpt>
      <trkpt lat="45.21112" lon="5.89781">
        <ele>758.46</ele>
        <time>2019-12-08T14:34:07.000Z</time>
      </trkpt>
      <trkpt lat="45.21089" lon="5.89785">
        <ele>755.87</ele>
        <time>2019-12-08T14:34:12.000Z</time>
      </trkpt>
      <trkpt lat="45.21065" lon="5.89766">
        <ele>752.81</ele>
        <time>2019-12-08T14:34:17.000Z</time>
      </trkpt>
      <trkpt lat="45.21029" lon="5.89773">
        <ele>752.67</ele>
        <time>2019-12-08T14:34:22.000Z</time>
      </trkpt>
      <trkpt lat="45.20992" lon="5.89779">
        <ele>754.13</ele>
        <time>2019-12-08T14:34:27.000Z</time>
      </trkpt>
      <trkpt lat="45.20965" lon="5.8976">
        <ele>754.08</ele>
        <time>2019-12-08T14:34:32.000Z</time>
      </trkpt>
      <trkpt lat="45.20966" lon="5.8973">
        <ele>752.25</ele>
        <time>2019-12-08T14:34:37.000Z</time>
      </trkpt>
      <trkpt lat="45.20976" lon="5.89712">
        <ele>749.97</ele>
        <time>2019-12-08T14:34:42.000Z</time>
      </trkpt>
      <trkpt lat="45.20994" lon="5.89685">
        <ele>749.99</ele>
        <time>2019-12-08T14:34:47.000Z</time>
      </trkpt>
      <trkpt lat="45.21013" lon="5.89656">
        <ele>751.83</ele>
        <time>2019-12-08T14:34:52.000Z</time>
      </trkpt>
      <trkpt lat="45.21021" lon="5.89618">
        <ele>751.33</ele>
        <time>2019-12-08T14:34:57.000Z</time>
      </trkpt>
      <trkpt lat="45.21023" lon="5.89571">
        <ele>749.28</ele>
        <time>2019-12-08T14:35:02.000Z</time>
      </trkpt>
      <trkpt lat="45.21022" lon="5.89529">
        <ele>748</ele>
        <time>2019-12-08T14:35:07.000Z</time>
      </trkpt>
      <trkpt lat="45.21023" lon="5.89493">
        <ele>746.55</ele>
        <time>2019-12-08T14:35:12.000Z</time>
      </trkpt>
      <trkpt lat="45.21034" lon="5.89461">
        <ele>746.8</ele>
        <time>2019-12-08T14:35:17.000Z</time>
      </trkpt>
      <trkpt lat="45.21052" lon="5.8943">
        <ele>748.51</ele>
        <time>2019-12-08T14:35:22.000Z</time>
      </trkpt>
      <trkpt lat="45.21069" lon="5.894">
        <ele>749.71</ele>
        <time>2019-12-08T14:35:27.000Z</time>
      </trkpt>
      <trkpt lat="45.21086" lon="5.89372">
        <ele>750.04</ele>
        <time>2019-12-08T14:35:32.000Z</time>
      </trkpt>
      <trkpt lat="45.21104" lon="5.89344">
        <ele>749.83</ele>
        <time>2019-12-08T14:35:37.000Z</time>
      </trkpt>
      <trkpt lat="45.21124" lon="5.89318">
        <ele>751.7</ele>
        <time>2019-12-08T14:35:42.000Z</time>
      </trkpt>
      <trkpt lat="45.21147" lon="5.89307">
        <ele>751.32</ele>
        <time>2019-12-08T14:35:47.000Z</time>
      </trkpt>
      <trkpt lat="45.21167" lon="5.89299">
        <ele>755.53</ele>
        <time>2019-12-08T14:35:52.000Z</time>
      </trkpt>
      <trkpt lat="45.21185" lon="5.89274">
        <ele>756.27</ele>
        <time>2019-12-08T14:35:57.000Z</time>
      </trkpt>
      <trkpt lat="45.21195" lon="5.89244">
        <ele>755.84</ele>
        <time>2019-12-08T14:36:02.000Z</time>
      </trkpt>
      <trkpt lat="45.21208" lon="5.89214">
        <ele>755.75</ele>
        <time>2019-12-08T14:36:07.000Z</time>
      </trkpt>
      <trkpt lat="45.21226" lon="5.892">
        <ele>756.45</ele>
        <time>2019-12-08T14:36:12.000Z</time>
      </trkpt>
      <trkpt lat="45.21244" lon="5.89189">
        <ele>759.19</ele>
        <time>2019-12-08T14:36:17.000Z</time>
      </trkpt>
      <trkpt lat="45.21264" lon="5.89179">
        <ele>764.13</ele>
        <time>2019-12-08T14:36:22.000Z</time>
      </trkpt>
      <trkpt lat="45.21291" lon="5.8916">
        <ele>771.54</ele>
        <time>2019-12-08T14:36:27.000Z</time>
      </trkpt>
      <trkpt lat="45.21307" lon="5.89155">
        <ele>778.26</ele>
        <time>2019-12-08T14:36:32.000Z</time>
      </trkpt>
      <trkpt lat="45.21325" lon="5.89143">
        <ele>778.96</ele>
        <time>2019-12-08T14:36:37.000Z</time>
      </trkpt>
      <trkpt lat="45.21347" lon="5.89134">
        <ele>778.21</ele>
        <time>2019-12-08T14:36:42.000Z</time>
      </trkpt>
      <trkpt lat="45.21363" lon="5.89133">
        <ele>778.49</ele>
        <time>2019-12-08T14:36:47.000Z</time>
      </trkpt>
      <trkpt lat="45.21382" lon="5.8912">
        <ele>777.6</ele>
        <time>2019-12-08T14:36:52.000Z</time>
      </trkpt>
      <trkpt lat="45.21402" lon="5.89105">
        <ele>780.07</ele>
        <time>2019-12-08T14:36:57.000Z</time>
      </trkpt>
      <trkpt lat="45.21425" lon="5.89089">
        <ele>788.43</ele>
        <time>2019-12-08T14:37:02.000Z</time>
      </trkpt>
      <trkpt lat="45.21452" lon="5.89073">
        <ele>789.39</ele>
        <time>2019-12-08T14:37:07.000Z</time>
      </trkpt>
      <trkpt lat="45.21478" lon="5.8906">
        <ele>791.14</ele>
        <time>2019-12-08T14:37:12.000Z</time>
      </trkpt>
      <trkpt lat="45.21504" lon="5.89053">
        <ele>790.77</ele>
        <time>2019-12-08T14:37:17.000Z</time>
      </trkpt>
      <trkpt lat="45.21525" lon="5.8904">
        <ele>789.52</ele>
        <time>2019-12-08T14:37:22.000Z</time>
      </trkpt>
      <trkpt lat="45.21548" lon="5.8903">
        <ele>792.44</ele>
        <time>2019-12-08T14:37:27.000Z</time>
      </trkpt>
      <trkpt lat="45.21569" lon="5.8902">
        <ele>797.8</ele>
        <time>2019-12-08T14:37:32.000Z</time>
      </trkpt>
      <trkpt lat="45.21591" lon="5.89004">
        <ele>801.57</ele>
        <time>2019-12-08T14:37:37.000Z</time>
      </trkpt>
      <trkpt lat="45.21607" lon="5.88991">
        <ele>798.66</ele>
        <time>2019-12-08T14:37:42.000Z</time>
      </trkpt>
      <trkpt lat="45.21627" lon="5.88974">
        <ele>798.84</ele>
        <time>2019-12-08T14:37:47.000Z</time>
      </trkpt>
      <trkpt lat="45.21648" lon="5.88956">
        <ele>795.75</ele>
        <time>2019-12-08T14:37:52.000Z</time>
      </trkpt>
      <trkpt lat="45.21665" lon="5.88943">
        <ele>795.82</ele>
        <time>2019-12-08T14:37:57.000Z</time>
      </trkpt>
      <trkpt lat="45.21687" lon="5.88926">
        <ele>796.6</ele>
        <time>2019-12-08T14:38:02.000Z</time>
      </trkpt>
      <trkpt lat="45.217" lon="5.88902">
        <ele>796.64</ele>
        <time>2019-12-08T14:38:07.000Z</time>
      </trkpt>
      <trkpt lat="45.21698" lon="5.88869">
        <ele>798.31</ele>
        <time>2019-12-08T14:38:12.000Z</time>
      </trkpt>
      <trkpt lat="45.21684" lon="5.88854">
        <ele>797.83</ele>
        <time>2019-12-08T14:38:17.000Z</time>
      </trkpt>
      <trkpt lat="45.2166" lon="5.88843">
        <ele>797.15</ele>
        <time>2019-12-08T14:38:22.000Z</time>
      </trkpt>
      <trkpt lat="45.21627" lon="5.88825">
        <ele>795.02</ele>
        <time>2019-12-08T14:38:27.000Z</time>
      </trkpt>
      <trkpt lat="45.21587" lon="5.88792">
        <ele>793.18</ele>
        <time>2019-12-08T14:38:32.000Z</time>
      </trkpt>
      <trkpt lat="45.21544" lon="5.88742">
        <ele>793.99</ele>
        <time>2019-12-08T14:38:37.000Z</time>
      </trkpt>
      <trkpt lat="45.21505" lon="5.88689">
        <ele>789.01</ele>
        <time>2019-12-08T14:38:42.000Z</time>
      </trkpt>
      <trkpt lat="45.2148" lon="5.88608">
        <ele>788.56</ele>
        <time>2019-12-08T14:38:47.000Z</time>
      </trkpt>
      <trkpt lat="45.2145" lon="5.88545">
        <ele>778.64</ele>
        <time>2019-12-08T14:38:52.000Z</time>
      </trkpt>
      <trkpt lat="45.21428" lon="5.88474">
        <ele>774.63</ele>
        <time>2019-12-08T14:38:57.000Z</time>
      </trkpt>
      <trkpt lat="45.21425" lon="5.88395">
        <ele>768.58</ele>
        <time>2019-12-08T14:39:02.000Z</time>
      </trkpt>
      <trkpt lat="45.21411" lon="5.88328">
        <ele>764.41</ele>
        <time>2019-12-08T14:39:07.000Z</time>
      </trkpt>
      <trkpt lat="45.21365" lon="5.88319">
        <ele>760.4</ele>
        <time>2019-12-08T14:39:12.000Z</time>
      </trkpt>
      <trkpt lat="45.21314" lon="5.88345">
        <ele>758.88</ele>
        <time>2019-12-08T14:39:17.000Z</time>
      </trkpt>
      <trkpt lat="45.21269" lon="5.88354">
        <ele>759.22</ele>
        <time>2019-12-08T14:39:22.000Z</time>
      </trkpt>
      <trkpt lat="45.21225" lon="5.88355">
        <ele>756.95</ele>
        <time>2019-12-08T14:39:27.000Z</time>
      </trkpt>
      <trkpt lat="45.21186" lon="5.88355">
        <ele>755.24</ele>
        <time>2019-12-08T14:39:32.000Z</time>
      </trkpt>
      <trkpt lat="45.21145" lon="5.88343">
        <ele>754.46</ele>
        <time>2019-12-08T14:39:37.000Z</time>
      </trkpt>
      <trkpt lat="45.21108" lon="5.88333">
        <ele>753.2</ele>
        <time>2019-12-08T14:39:42.000Z</time>
      </trkpt>
      <trkpt lat="45.21076" lon="5.88317">
        <ele>753.5</ele>
        <time>2019-12-08T14:39:47.000Z</time>
      </trkpt>
      <trkpt lat="45.21046" lon="5.88297">
        <ele>750.39</ele>
        <time>2019-12-08T14:39:52.000Z</time>
      </trkpt>
      <trkpt lat="45.21015" lon="5.88288">
        <ele>749.44</ele>
        <time>2019-12-08T14:39:57.000Z</time>
      </trkpt>
      <trkpt lat="45.20981" lon="5.88283">
        <ele>748.03</ele>
        <time>2019-12-08T14:40:02.000Z</time>
      </trkpt>
      <trkpt lat="45.20949" lon="5.88274">
        <ele>748.32</ele>
        <time>2019-12-08T14:40:07.000Z</time>
      </trkpt>
      <trkpt lat="45.20914" lon="5.88263">
        <ele>748.4</ele>
        <time>2019-12-08T14:40:12.000Z</time>
      </trkpt>
      <trkpt lat="45.20884" lon="5.88264">
        <ele>747.11</ele>
        <time>2019-12-08T14:40:17.000Z</time>
      </trkpt>
      <trkpt lat="45.20856" lon="5.88279">
        <ele>746.53</ele>
        <time>2019-12-08T14:40:22.000Z</time>
      </trkpt>
      <trkpt lat="45.20834" lon="5.88306">
        <ele>745.83</ele>
        <time>2019-12-08T14:40:27.000Z</time>
      </trkpt>
      <trkpt lat="45.208" lon="5.88318">
        <ele>744.81</ele>
        <time>2019-12-08T14:40:32.000Z</time>
      </trkpt>
      <trkpt lat="45.2076" lon="5.88335">
        <ele>739.52</ele>
        <time>2019-12-08T14:40:37.000Z</time>
      </trkpt>
      <trkpt lat="45.20715" lon="5.88342">
        <ele>732.9</ele>
        <time>2019-12-08T14:40:42.000Z</time>
      </trkpt>
      <trkpt lat="45.20673" lon="5.88317">
        <ele>728.89</ele>
        <time>2019-12-08T14:40:47.000Z</time>
      </trkpt>
      <trkpt lat="45.20652" lon="5.88263">
        <ele>727.7</ele>
        <time>2019-12-08T14:40:52.000Z</time>
      </trkpt>
      <trkpt lat="45.20615" lon="5.88236">
        <ele>724.51</ele>
        <time>2019-12-08T14:40:57.000Z</time>
      </trkpt>
      <trkpt lat="45.20595" lon="5.88188">
        <ele>721.27</ele>
        <time>2019-12-08T14:41:02.000Z</time>
      </trkpt>
      <trkpt lat="45.20577" lon="5.88148">
        <ele>722.02</ele>
        <time>2019-12-08T14:41:07.000Z</time>
      </trkpt>
      <trkpt lat="45.20549" lon="5.88126">
        <ele>723.88</ele>
        <time>2019-12-08T14:41:12.000Z</time>
      </trkpt>
      <trkpt lat="45.20522" lon="5.88134">
        <ele>724.02</ele>
        <time>2019-12-08T14:41:17.000Z</time>
      </trkpt>
      <trkpt lat="45.20494" lon="5.88147">
        <ele>723.72</ele>
        <time>2019-12-08T14:41:22.000Z</time>
      </trkpt>
      <trkpt lat="45.20468" lon="5.88144">
        <ele>723.24</ele>
        <time>2019-12-08T14:41:27.000Z</time>
      </trkpt>
      <trkpt lat="45.20442" lon="5.88138">
        <ele>723.73</ele>
        <time>2019-12-08T14:41:32.000Z</time>
      </trkpt>
      <trkpt lat="45.20421" lon="5.88136">
        <ele>724.15</ele>
        <time>2019-12-08T14:41:37.000Z</time>
      </trkpt>
      <trkpt lat="45.20396" lon="5.88134">
        <ele>724.63</ele>
        <time>2019-12-08T14:41:42.000Z</time>
      </trkpt>
      <trkpt lat="45.20371" lon="5.88141">
        <ele>724.19</ele>
        <time>2019-12-08T14:41:47.000Z</time>
      </trkpt>
      <trkpt lat="45.20351" lon="5.88153">
        <ele>725.41</ele>
        <time>2019-12-08T14:41:52.000Z</time>
      </trkpt>
      <trkpt lat="45.20332" lon="5.88169">
        <ele>726.5</ele>
        <time>2019-12-08T14:41:57.000Z</time>
      </trkpt>
      <trkpt lat="45.20313" lon="5.88187">
        <ele>724.54</ele>
        <time>2019-12-08T14:42:02.000Z</time>
      </trkpt>
      <trkpt lat="45.20296" lon="5.88206">
        <ele>728.25</ele>
        <time>2019-12-08T14:42:07.000Z</time>
      </trkpt>
      <trkpt lat="45.20275" lon="5.88217">
        <ele>729.96</ele>
        <time>2019-12-08T14:42:12.000Z</time>
      </trkpt>
      <trkpt lat="45.20254" lon="5.88221">
        <ele>730.88</ele>
        <time>2019-12-08T14:42:17.000Z</time>
      </trkpt>
      <trkpt lat="45.20231" lon="5.88216">
        <ele>732.28</ele>
        <time>2019-12-08T14:42:22.000Z</time>
      </trkpt>
      <trkpt lat="45.2021" lon="5.88209">
        <ele>730.49</ele>
        <time>2019-12-08T14:42:27.000Z</time>
      </trkpt>
      <trkpt lat="45.20195" lon="5.88197">
        <ele>733.24</ele>
        <time>2019-12-08T14:42:32.000Z</time>
      </trkpt>
      <trkpt lat="45.2018" lon="5.88183">
        <ele>733.52</ele>
        <time>2019-12-08T14:42:37.000Z</time>
      </trkpt>
      <trkpt lat="45.20167" lon="5.88164">
        <ele>732.76</ele>
        <time>2019-12-08T14:42:42.000Z</time>
      </trkpt>
      <trkpt lat="45.20159" lon="5.88146">
        <ele>730.91</ele>
        <time>2019-12-08T14:42:47.000Z</time>
      </trkpt>
      <trkpt lat="45.20158" lon="5.88132">
        <ele>733.59</ele>
        <time>2019-12-08T14:42:52.000Z</time>
      </trkpt>
      <trkpt lat="45.20154" lon="5.88116">
        <ele>742.37</ele>
        <time>2019-12-08T14:42:57.000Z</time>
      </trkpt>
      <trkpt lat="45.20151" lon="5.88094">
        <ele>744.93</ele>
        <time>2019-12-08T14:43:02.000Z</time>
      </trkpt>
      <trkpt lat="45.2015" lon="5.88075">
        <ele>751.5</ele>
        <time>2019-12-08T14:43:07.000Z</time>
      </trkpt>
      <trkpt lat="45.2015" lon="5.88052">
        <ele>762.2</ele>
        <time>2019-12-08T14:43:12.000Z</time>
      </trkpt>
      <trkpt lat="45.20148" lon="5.88026">
        <ele>752.85</ele>
        <time>2019-12-08T14:43:17.000Z</time>
      </trkpt>
      <trkpt lat="45.20143" lon="5.88004">
        <ele>750.7</ele>
        <time>2019-12-08T14:43:22.000Z</time>
      </trkpt>
      <trkpt lat="45.20134" lon="5.87979">
        <ele>749.71</ele>
        <time>2019-12-08T14:43:27.000Z</time>
      </trkpt>
      <trkpt lat="45.20128" lon="5.87949">
        <ele>753.19</ele>
        <time>2019-12-08T14:43:32.000Z</time>
      </trkpt>
      <trkpt lat="45.20123" lon="5.87923">
        <ele>757.96</ele>
        <time>2019-12-08T14:43:37.000Z</time>
      </trkpt>
      <trkpt lat="45.20119" lon="5.87897">
        <ele>759.17</ele>
        <time>2019-12-08T14:43:42.000Z</time>
      </trkpt>
      <trkpt lat="45.20117" lon="5.8788">
        <ele>763.52</ele>
        <time>2019-12-08T14:43:47.000Z</time>
      </trkpt>
      <trkpt lat="45.20117" lon="5.87867">
        <ele>765.91</ele>
        <time>2019-12-08T14:43:52.000Z</time>
      </trkpt>
      <trkpt lat="45.20115" lon="5.87851">
        <ele>762.12</ele>
        <time>2019-12-08T14:43:58.000Z</time>
      </trkpt>
      <trkpt lat="45.20115" lon="5.87827">
        <ele>758.7</ele>
        <time>2019-12-08T14:44:03.000Z</time>
      </trkpt>
      <trkpt lat="45.20121" lon="5.87794">
        <ele>761.22</ele>
        <time>2019-12-08T14:44:08.000Z</time>
      </trkpt>
      <trkpt lat="45.20124" lon="5.87768">
        <ele>764.34</ele>
        <time>2019-12-08T14:44:13.000Z</time>
      </trkpt>
      <trkpt lat="45.20125" lon="5.87747">
        <ele>763.96</ele>
        <time>2019-12-08T14:44:18.000Z</time>
      </trkpt>
      <trkpt lat="45.20125" lon="5.87718">
        <ele>761.98</ele>
        <time>2019-12-08T14:44:23.000Z</time>
      </trkpt>
      <trkpt lat="45.20123" lon="5.87696">
        <ele>763.15</ele>
        <time>2019-12-08T14:44:28.000Z</time>
      </trkpt>
      <trkpt lat="45.20122" lon="5.87673">
        <ele>763.79</ele>
        <time>2019-12-08T14:44:33.000Z</time>
      </trkpt>
      <trkpt lat="45.20121" lon="5.87641">
        <ele>767.13</ele>
        <time>2019-12-08T14:44:38.000Z</time>
      </trkpt>
      <trkpt lat="45.20118" lon="5.87613">
        <ele>768.55</ele>
        <time>2019-12-08T14:44:43.000Z</time>
      </trkpt>
      <trkpt lat="45.20113" lon="5.87589">
        <ele>769.69</ele>
        <time>2019-12-08T14:44:48.000Z</time>
      </trkpt>
      <trkpt lat="45.20109" lon="5.87565">
        <ele>772.5</ele>
        <time>2019-12-08T14:44:53.000Z</time>
      </trkpt>
      <trkpt lat="45.20105" lon="5.8754">
        <ele>773.27</ele>
        <time>2019-12-08T14:44:58.000Z</time>
      </trkpt>
      <trkpt lat="45.20106" lon="5.87516">
        <ele>772.52</ele>
        <time>2019-12-08T14:45:03.000Z</time>
      </trkpt>
      <trkpt lat="45.20111" lon="5.8749">
        <ele>775.26</ele>
        <time>2019-12-08T14:45:08.000Z</time>
      </trkpt>
      <trkpt lat="45.20119" lon="5.87467">
        <ele>778.26</ele>
        <time>2019-12-08T14:45:13.000Z</time>
      </trkpt>
      <trkpt lat="45.2013" lon="5.87448">
        <ele>783.05</ele>
        <time>2019-12-08T14:45:18.000Z</time>
      </trkpt>
      <trkpt lat="45.20141" lon="5.87429">
        <ele>782.93</ele>
        <time>2019-12-08T14:45:23.000Z</time>
      </trkpt>
      <trkpt lat="45.20148" lon="5.87408">
        <ele>783.27</ele>
        <time>2019-12-08T14:45:28.000Z</time>
      </trkpt>
      <trkpt lat="45.20149" lon="5.87382">
        <ele>786.46</ele>
        <time>2019-12-08T14:45:33.000Z</time>
      </trkpt>
      <trkpt lat="45.20146" lon="5.87357">
        <ele>785.61</ele>
        <time>2019-12-08T14:45:38.000Z</time>
      </trkpt>
      <trkpt lat="45.20139" lon="5.87336">
        <ele>783.92</ele>
        <time>2019-12-08T14:45:43.000Z</time>
      </trkpt>
      <trkpt lat="45.20132" lon="5.8732">
        <ele>784.96</ele>
        <time>2019-12-08T14:45:48.000Z</time>
      </trkpt>
      <trkpt lat="45.20126" lon="5.87301">
        <ele>789.18</ele>
        <time>2019-12-08T14:45:53.000Z</time>
      </trkpt>
      <trkpt lat="45.20122" lon="5.87275">
        <ele>792.14</ele>
        <time>2019-12-08T14:45:58.000Z</time>
      </trkpt>
      <trkpt lat="45.20114" lon="5.87252">
        <ele>790.84</ele>
        <time>2019-12-08T14:46:03.000Z</time>
      </trkpt>
      <trkpt lat="45.20105" lon="5.87235">
        <ele>790.33</ele>
        <time>2019-12-08T14:46:08.000Z</time>
      </trkpt>
      <trkpt lat="45.20097" lon="5.87215">
        <ele>791.04</ele>
        <time>2019-12-08T14:46:13.000Z</time>
      </trkpt>
      <trkpt lat="45.20087" lon="5.87197">
        <ele>790.7</ele>
        <time>2019-12-08T14:46:18.000Z</time>
      </trkpt>
      <trkpt lat="45.20078" lon="5.87173">
        <ele>790.39</ele>
        <time>2019-12-08T14:46:23.000Z</time>
      </trkpt>
      <trkpt lat="45.20073" lon="5.8715">
        <ele>794.77</ele>
        <time>2019-12-08T14:46:28.000Z</time>
      </trkpt>
      <trkpt lat="45.20066" lon="5.87125">
        <ele>795.76</ele>
        <time>2019-12-08T14:46:33.000Z</time>
      </trkpt>
      <trkpt lat="45.20055" lon="5.87108">
        <ele>796.5</ele>
        <time>2019-12-08T14:46:38.000Z</time>
      </trkpt>
      <trkpt lat="45.2005" lon="5.87094">
        <ele>800.43</ele>
        <time>2019-12-08T14:46:43.000Z</time>
      </trkpt>
      <trkpt lat="45.20052" lon="5.87066">
        <ele>803.24</ele>
        <time>2019-12-08T14:46:48.000Z</time>
      </trkpt>
      <trkpt lat="45.20054" lon="5.87044">
        <ele>808.18</ele>
        <time>2019-12-08T14:46:53.000Z</time>
      </trkpt>
      <trkpt lat="45.20058" lon="5.87029">
        <ele>812.27</ele>
        <time>2019-12-08T14:46:58.000Z</time>
      </trkpt>
      <trkpt lat="45.20062" lon="5.87005">
        <ele>812.15</ele>
        <time>2019-12-08T14:47:03.000Z</time>
      </trkpt>
      <trkpt lat="45.2007" lon="5.86978">
        <ele>812.08</ele>
        <time>2019-12-08T14:47:08.000Z</time>
      </trkpt>
      <trkpt lat="45.20076" lon="5.86954">
        <ele>814.69</ele>
        <time>2019-12-08T14:47:13.000Z</time>
      </trkpt>
      <trkpt lat="45.20079" lon="5.86931">
        <ele>817.68</ele>
        <time>2019-12-08T14:47:18.000Z</time>
      </trkpt>
      <trkpt lat="45.20083" lon="5.86901">
        <ele>817.16</ele>
        <time>2019-12-08T14:47:23.000Z</time>
      </trkpt>
      <trkpt lat="45.20079" lon="5.86875">
        <ele>818.92</ele>
        <time>2019-12-08T14:47:28.000Z</time>
      </trkpt>
      <trkpt lat="45.20069" lon="5.86851">
        <ele>818.62</ele>
        <time>2019-12-08T14:47:33.000Z</time>
      </trkpt>
      <trkpt lat="45.20062" lon="5.86828">
        <ele>822.29</ele>
        <time>2019-12-08T14:47:38.000Z</time>
      </trkpt>
      <trkpt lat="45.2005" lon="5.86807">
        <ele>821.53</ele>
        <time>2019-12-08T14:47:43.000Z</time>
      </trkpt>
      <trkpt lat="45.20037" lon="5.86786">
        <ele>820.4</ele>
        <time>2019-12-08T14:47:48.000Z</time>
      </trkpt>
      <trkpt lat="45.20027" lon="5.86766">
        <ele>822.02</ele>
        <time>2019-12-08T14:47:53.000Z</time>
      </trkpt>
      <trkpt lat="45.20017" lon="5.86748">
        <ele>819.68</ele>
        <time>2019-12-08T14:47:58.000Z</time>
      </trkpt>
      <trkpt lat="45.20005" lon="5.86732">
        <ele>818.75</ele>
        <time>2019-12-08T14:48:03.000Z</time>
      </trkpt>
      <trkpt lat="45.19987" lon="5.8672">
        <ele>819.05</ele>
        <time>2019-12-08T14:48:08.000Z</time>
      </trkpt>
      <trkpt lat="45.19968" lon="5.86716">
        <ele>820.6</ele>
        <time>2019-12-08T14:48:13.000Z</time>
      </trkpt>
      <trkpt lat="45.19954" lon="5.86716">
        <ele>821.81</ele>
        <time>2019-12-08T14:48:18.000Z</time>
      </trkpt>
      <trkpt lat="45.19942" lon="5.86714">
        <ele>824.32</ele>
        <time>2019-12-08T14:48:23.000Z</time>
      </trkpt>
      <trkpt lat="45.19929" lon="5.86721">
        <ele>826.86</ele>
        <time>2019-12-08T14:48:28.000Z</time>
      </trkpt>
      <trkpt lat="45.19912" lon="5.86726">
        <ele>827.78</ele>
        <time>2019-12-08T14:48:33.000Z</time>
      </trkpt>
      <trkpt lat="45.19897" lon="5.86732">
        <ele>829.91</ele>
        <time>2019-12-08T14:48:38.000Z</time>
      </trkpt>
      <trkpt lat="45.19879" lon="5.8673">
        <ele>830.01</ele>
        <time>2019-12-08T14:48:43.000Z</time>
      </trkpt>
      <trkpt lat="45.19863" lon="5.8673">
        <ele>832.27</ele>
        <time>2019-12-08T14:48:48.000Z</time>
      </trkpt>
      <trkpt lat="45.19845" lon="5.86727">
        <ele>835.92</ele>
        <time>2019-12-08T14:48:53.000Z</time>
      </trkpt>
      <trkpt lat="45.19827" lon="5.86725">
        <ele>835.72</ele>
        <time>2019-12-08T14:48:58.000Z</time>
      </trkpt>
      <trkpt lat="45.19808" lon="5.86721">
        <ele>839.48</ele>
        <time>2019-12-08T14:49:03.000Z</time>
      </trkpt>
      <trkpt lat="45.19791" lon="5.86718">
        <ele>840.87</ele>
        <time>2019-12-08T14:49:08.000Z</time>
      </trkpt>
      <trkpt lat="45.19776" lon="5.86715">
        <ele>846.39</ele>
        <time>2019-12-08T14:49:13.000Z</time>
      </trkpt>
      <trkpt lat="45.1976" lon="5.86713">
        <ele>845.02</ele>
        <time>2019-12-08T14:49:18.000Z</time>
      </trkpt>
      <trkpt lat="45.19743" lon="5.86715">
        <ele>848.05</ele>
        <time>2019-12-08T14:49:23.000Z</time>
      </trkpt>
      <trkpt lat="45.19728" lon="5.86727">
        <ele>848.75</ele>
        <time>2019-12-08T14:49:28.000Z</time>
      </trkpt>
      <trkpt lat="45.19719" lon="5.86748">
        <ele>850.94</ele>
        <time>2019-12-08T14:49:33.000Z</time>
      </trkpt>
      <trkpt lat="45.19716" lon="5.86773">
        <ele>852.19</ele>
        <time>2019-12-08T14:49:38.000Z</time>
      </trkpt>
      <trkpt lat="45.19718" lon="5.86798">
        <ele>853.77</ele>
        <time>2019-12-08T14:49:43.000Z</time>
      </trkpt>
      <trkpt lat="45.19717" lon="5.86823">
        <ele>856.07</ele>
        <time>2019-12-08T14:49:48.000Z</time>
      </trkpt>
      <trkpt lat="45.19708" lon="5.86841">
        <ele>857.04</ele>
        <time>2019-12-08T14:49:53.000Z</time>
      </trkpt>
      <trkpt lat="45.19693" lon="5.86852">
        <ele>857.36</ele>
        <time>2019-12-08T14:49:58.000Z</time>
      </trkpt>
      <trkpt lat="45.19677" lon="5.86855">
        <ele>857.38</ele>
        <time>2019-12-08T14:50:03.000Z</time>
      </trkpt>
      <trkpt lat="45.19658" lon="5.86856">
        <ele>860.46</ele>
        <time>2019-12-08T14:50:08.000Z</time>
      </trkpt>
      <trkpt lat="45.19638" lon="5.86857">
        <ele>860.91</ele>
        <time>2019-12-08T14:50:13.000Z</time>
      </trkpt>
      <trkpt lat="45.19616" lon="5.86857">
        <ele>860.87</ele>
        <time>2019-12-08T14:50:18.000Z</time>
      </trkpt>
      <trkpt lat="45.19595" lon="5.86857">
        <ele>861.02</ele>
        <time>2019-12-08T14:50:23.000Z</time>
      </trkpt>
      <trkpt lat="45.19575" lon="5.86858">
        <ele>866.2</ele>
        <time>2019-12-08T14:50:28.000Z</time>
      </trkpt>
      <trkpt lat="45.19557" lon="5.86865">
        <ele>869.13</ele>
        <time>2019-12-08T14:50:33.000Z</time>
      </trkpt>
      <trkpt lat="45.1954" lon="5.86881">
        <ele>869.31</ele>
        <time>2019-12-08T14:50:38.000Z</time>
      </trkpt>
      <trkpt lat="45.1953" lon="5.86906">
        <ele>870.27</ele>
        <time>2019-12-08T14:50:43.000Z</time>
      </trkpt>
      <trkpt lat="45.19529" lon="5.86933">
        <ele>871.67</ele>
        <time>2019-12-08T14:50:48.000Z</time>
      </trkpt>
      <trkpt lat="45.19533" lon="5.86962">
        <ele>871.81</ele>
        <time>2019-12-08T14:50:53.000Z</time>
      </trkpt>
      <trkpt lat="45.19537" lon="5.86991">
        <ele>871.79</ele>
        <time>2019-12-08T14:50:58.000Z</time>
      </trkpt>
      <trkpt lat="45.19544" lon="5.87021">
        <ele>872.77</ele>
        <time>2019-12-08T14:51:03.000Z</time>
      </trkpt>
      <trkpt lat="45.19555" lon="5.87047">
        <ele>872.97</ele>
        <time>2019-12-08T14:51:08.000Z</time>
      </trkpt>
      <trkpt lat="45.19567" lon="5.87066">
        <ele>871.81</ele>
        <time>2019-12-08T14:51:13.000Z</time>
      </trkpt>
      <trkpt lat="45.19576" lon="5.87083">
        <ele>868.7</ele>
        <time>2019-12-08T14:51:18.000Z</time>
      </trkpt>
      <trkpt lat="45.19584" lon="5.87094">
        <ele>866.22</ele>
        <time>2019-12-08T14:51:23.000Z</time>
      </trkpt>
      <trkpt lat="45.19593" lon="5.87106">
        <ele>866.5</ele>
        <time>2019-12-08T14:51:28.000Z</time>
      </trkpt>
      <trkpt lat="45.196" lon="5.87117">
        <ele>865.81</ele>
        <time>2019-12-08T14:51:33.000Z</time>
      </trkpt>
      <trkpt lat="45.19611" lon="5.87133">
        <ele>867.18</ele>
        <time>2019-12-08T14:51:38.000Z</time>
      </trkpt>
      <trkpt lat="45.19623" lon="5.87147">
        <ele>872.04</ele>
        <time>2019-12-08T14:51:43.000Z</time>
      </trkpt>
      <trkpt lat="45.19635" lon="5.87164">
        <ele>870.09</ele>
        <time>2019-12-08T14:51:48.000Z</time>
      </trkpt>
      <trkpt lat="45.1965" lon="5.87187">
        <ele>869.25</ele>
        <time>2019-12-08T14:51:53.000Z</time>
      </trkpt>
      <trkpt lat="45.19665" lon="5.87214">
        <ele>869.32</ele>
        <time>2019-12-08T14:51:58.000Z</time>
      </trkpt>
      <trkpt lat="45.19674" lon="5.87243">
        <ele>872.57</ele>
        <time>2019-12-08T14:52:03.000Z</time>
      </trkpt>
      <trkpt lat="45.19679" lon="5.87286">
        <ele>869.98</ele>
        <time>2019-12-08T14:52:08.000Z</time>
      </trkpt>
      <trkpt lat="45.1968" lon="5.87326">
        <ele>873.22</ele>
        <time>2019-12-08T14:52:13.000Z</time>
      </trkpt>
      <trkpt lat="45.19682" lon="5.87361">
        <ele>869.62</ele>
        <time>2019-12-08T14:52:18.000Z</time>
      </trkpt>
      <trkpt lat="45.19683" lon="5.87394">
        <ele>870.49</ele>
        <time>2019-12-08T14:52:23.000Z</time>
      </trkpt>
      <trkpt lat="45.19687" lon="5.87429">
        <ele>869.75</ele>
        <time>2019-12-08T14:52:28.000Z</time>
      </trkpt>
      <trkpt lat="45.19684" lon="5.8746">
        <ele>869.18</ele>
        <time>2019-12-08T14:52:33.000Z</time>
      </trkpt>
      <trkpt lat="45.19676" lon="5.87489">
        <ele>871.51</ele>
        <time>2019-12-08T14:52:38.000Z</time>
      </trkpt>
      <trkpt lat="45.19664" lon="5.87518">
        <ele>873.41</ele>
        <time>2019-12-08T14:52:43.000Z</time>
      </trkpt>
      <trkpt lat="45.19648" lon="5.8754">
        <ele>872.3</ele>
        <time>2019-12-08T14:52:48.000Z</time>
      </trkpt>
      <trkpt lat="45.19631" lon="5.87563">
        <ele>875.12</ele>
        <time>2019-12-08T14:52:53.000Z</time>
      </trkpt>
      <trkpt lat="45.19612" lon="5.87585">
        <ele>876.76</ele>
        <time>2019-12-08T14:52:58.000Z</time>
      </trkpt>
      <trkpt lat="45.19595" lon="5.87606">
        <ele>878.36</ele>
        <time>2019-12-08T14:53:03.000Z</time>
      </trkpt>
      <trkpt lat="45.19577" lon="5.87627">
        <ele>880.26</ele>
        <time>2019-12-08T14:53:08.000Z</time>
      </trkpt>
      <trkpt lat="45.19558" lon="5.87645">
        <ele>881.71</ele>
        <time>2019-12-08T14:53:13.000Z</time>
      </trkpt>
      <trkpt lat="45.19533" lon="5.87658">
        <ele>883.16</ele>
        <time>2019-12-08T14:53:18.000Z</time>
      </trkpt>
      <trkpt lat="45.1951" lon="5.87663">
        <ele>883.32</ele>
        <time>2019-12-08T14:53:23.000Z</time>
      </trkpt>
      <trkpt lat="45.19486" lon="5.87664">
        <ele>884.42</ele>
        <time>2019-12-08T14:53:28.000Z</time>
      </trkpt>
      <trkpt lat="45.19465" lon="5.87668">
        <ele>884.98</ele>
        <time>2019-12-08T14:53:33.000Z</time>
      </trkpt>
      <trkpt lat="45.1944" lon="5.87668">
        <ele>886.14</ele>
        <time>2019-12-08T14:53:38.000Z</time>
      </trkpt>
      <trkpt lat="45.19417" lon="5.87664">
        <ele>887.32</ele>
        <time>2019-12-08T14:53:43.000Z</time>
      </trkpt>
      <trkpt lat="45.194" lon="5.87673">
        <ele>889.64</ele>
        <time>2019-12-08T14:53:48.000Z</time>
      </trkpt>
      <trkpt lat="45.19374" lon="5.87684">
        <ele>887.33</ele>
        <time>2019-12-08T14:53:53.000Z</time>
      </trkpt>
      <trkpt lat="45.19359" lon="5.87707">
        <ele>888.5</ele>
        <time>2019-12-08T14:53:58.000Z</time>
      </trkpt>
      <trkpt lat="45.1935" lon="5.8773">
        <ele>889.22</ele>
        <time>2019-12-08T14:54:03.000Z</time>
      </trkpt>
      <trkpt lat="45.19346" lon="5.87743">
        <ele>890.88</ele>
        <time>2019-12-08T14:56:17.000Z</time>
      </trkpt>
      <trkpt lat="45.19346" lon="5.87765">
        <ele>889.24</ele>
        <time>2019-12-08T14:56:22.000Z</time>
      </trkpt>
      <trkpt lat="45.19346" lon="5.87799">
        <ele>887.93</ele>
        <time>2019-12-08T14:56:27.000Z</time>
      </trkpt>
      <trkpt lat="45.19344" lon="5.87833">
        <ele>888.3</ele>
        <time>2019-12-08T14:56:32.000Z</time>
      </trkpt>
      <trkpt lat="45.19344" lon="5.87871">
        <ele>888.36</ele>
        <time>2019-12-08T14:56:37.000Z</time>
      </trkpt>
      <trkpt lat="45.19353" lon="5.87915">
        <ele>884.18</ele>
        <time>2019-12-08T14:56:42.000Z</time>
      </trkpt>
      <trkpt lat="45.19373" lon="5.87954">
        <ele>884.53</ele>
        <time>2019-12-08T14:56:47.000Z</time>
      </trkpt>
      <trkpt lat="45.19403" lon="5.87994">
        <ele>883.05</ele>
        <time>2019-12-08T14:56:52.000Z</time>
      </trkpt>
      <trkpt lat="45.19429" lon="5.88042">
        <ele>884.9</ele>
        <time>2019-12-08T14:56:57.000Z</time>
      </trkpt>
      <trkpt lat="45.19431" lon="5.88112">
        <ele>879.38</ele>
        <time>2019-12-08T14:57:02.000Z</time>
      </trkpt>
      <trkpt lat="45.19419" lon="5.88176">
        <ele>877.78</ele>
        <time>2019-12-08T14:57:07.000Z</time>
      </trkpt>
      <trkpt lat="45.19391" lon="5.88211">
        <ele>878.38</ele>
        <time>2019-12-08T14:57:12.000Z</time>
      </trkpt>
      <trkpt lat="45.19392" lon="5.88252">
        <ele>877.89</ele>
        <time>2019-12-08T14:57:17.000Z</time>
      </trkpt>
      <trkpt lat="45.19387" lon="5.88304">
        <ele>877.3</ele>
        <time>2019-12-08T14:57:22.000Z</time>
      </trkpt>
      <trkpt lat="45.19376" lon="5.88363">
        <ele>871.28</ele>
        <time>2019-12-08T14:57:27.000Z</time>
      </trkpt>
      <trkpt lat="45.19355" lon="5.88414">
        <ele>867.55</ele>
        <time>2019-12-08T14:57:32.000Z</time>
      </trkpt>
      <trkpt lat="45.19305" lon="5.88437">
        <ele>863.29</ele>
        <time>2019-12-08T14:57:37.000Z</time>
      </trkpt>
      <trkpt lat="45.19247" lon="5.88458">
        <ele>856.02</ele>
        <time>2019-12-08T14:57:42.000Z</time>
      </trkpt>
      <trkpt lat="45.19191" lon="5.88469">
        <ele>847.23</ele>
        <time>2019-12-08T14:57:47.000Z</time>
      </trkpt>
      <trkpt lat="45.19133" lon="5.88461">
        <ele>844.5</ele>
        <time>2019-12-08T14:57:52.000Z</time>
      </trkpt>
      <trkpt lat="45.19081" lon="5.88452">
        <ele>842.87</ele>
        <time>2019-12-08T14:57:57.000Z</time>
      </trkpt>
      <trkpt lat="45.19015" lon="5.88455">
        <ele>841.48</ele>
        <time>2019-12-08T14:58:02.000Z</time>
      </trkpt>
      <trkpt lat="45.18953" lon="5.88465">
        <ele>834.34</ele>
        <time>2019-12-08T14:58:07.000Z</time>
      </trkpt>
      <trkpt lat="45.18896" lon="5.88476">
        <ele>831.22</ele>
        <time>2019-12-08T14:58:12.000Z</time>
      </trkpt>
      <trkpt lat="45.18843" lon="5.88473">
        <ele>830.28</ele>
        <time>2019-12-08T14:58:17.000Z</time>
      </trkpt>
      <trkpt lat="45.18799" lon="5.88432">
        <ele>830.64</ele>
        <time>2019-12-08T14:58:22.000Z</time>
      </trkpt>
      <trkpt lat="45.18769" lon="5.88378">
        <ele>825.18</ele>
        <time>2019-12-08T14:58:27.000Z</time>
      </trkpt>
      <trkpt lat="45.18743" lon="5.8833">
        <ele>821.93</ele>
        <time>2019-12-08T14:58:32.000Z</time>
      </trkpt>
      <trkpt lat="45.1872" lon="5.88279">
        <ele>820.77</ele>
        <time>2019-12-08T14:58:37.000Z</time>
      </trkpt>
      <trkpt lat="45.18709" lon="5.88223">
        <ele>820.73</ele>
        <time>2019-12-08T14:58:42.000Z</time>
      </trkpt>
      <trkpt lat="45.18716" lon="5.88155">
        <ele>821.5</ele>
        <time>2019-12-08T14:58:47.000Z</time>
      </trkpt>
      <trkpt lat="45.18722" lon="5.88084">
        <ele>820.72</ele>
        <time>2019-12-08T14:58:52.000Z</time>
      </trkpt>
      <trkpt lat="45.18703" lon="5.88006">
        <ele>818.71</ele>
        <time>2019-12-08T14:58:57.000Z</time>
      </trkpt>
      <trkpt lat="45.18672" lon="5.87925">
        <ele>808.42</ele>
        <time>2019-12-08T14:59:02.000Z</time>
      </trkpt>
      <trkpt lat="45.18616" lon="5.87865">
        <ele>802.24</ele>
        <time>2019-12-08T14:59:07.000Z</time>
      </trkpt>
      <trkpt lat="45.18546" lon="5.87824">
        <ele>794.63</ele>
        <time>2019-12-08T14:59:12.000Z</time>
      </trkpt>
      <trkpt lat="45.18479" lon="5.8779">
        <ele>788.65</ele>
        <time>2019-12-08T14:59:17.000Z</time>
      </trkpt>
      <trkpt lat="45.18425" lon="5.87801">
        <ele>784.46</ele>
        <time>2019-12-08T14:59:22.000Z</time>
      </trkpt>
      <trkpt lat="45.18369" lon="5.87855">
        <ele>770.8</ele>
        <time>2019-12-08T14:59:27.000Z</time>
      </trkpt>
      <trkpt lat="45.18314" lon="5.87918">
        <ele>760.4</ele>
        <time>2019-12-08T14:59:32.000Z</time>
      </trkpt>
      <trkpt lat="45.18271" lon="5.87983">
        <ele>755.41</ele>
        <time>2019-12-08T14:59:37.000Z</time>
      </trkpt>
      <trkpt lat="45.1825" lon="5.88012">
        <ele>753.45</ele>
        <time>2019-12-08T14:59:42.000Z</time>
      </trkpt>
      <trkpt lat="45.18252" lon="5.8799">
        <ele>751.45</ele>
        <time>2019-12-08T14:59:47.000Z</time>
      </trkpt>
      <trkpt lat="45.1826" lon="5.87939">
        <ele>749.78</ele>
        <time>2019-12-08T14:59:52.000Z</time>
      </trkpt>
      <trkpt lat="45.18259" lon="5.87872">
        <ele>747.64</ele>
        <time>2019-12-08T14:59:57.000Z</time>
      </trkpt>
      <trkpt lat="45.18278" lon="5.87789">
        <ele>743.1</ele>
        <time>2019-12-08T15:00:02.000Z</time>
      </trkpt>
      <trkpt lat="45.18292" lon="5.87725">
        <ele>739.38</ele>
        <time>2019-12-08T15:00:07.000Z</time>
      </trkpt>
      <trkpt lat="45.18296" lon="5.87694">
        <ele>736.49</ele>
        <time>2019-12-08T15:00:12.000Z</time>
      </trkpt>
      <trkpt lat="45.18297" lon="5.87674">
        <ele>733.83</ele>
        <time>2019-12-08T15:00:17.000Z</time>
      </trkpt>
      <trkpt lat="45.18302" lon="5.8764">
        <ele>733.79</ele>
        <time>2019-12-08T15:00:22.000Z</time>
      </trkpt>
      <trkpt lat="45.18317" lon="5.87601">
        <ele>728.53</ele>
        <time>2019-12-08T15:00:27.000Z</time>
      </trkpt>
      <trkpt lat="45.18329" lon="5.8756">
        <ele>725.51</ele>
        <time>2019-12-08T15:00:32.000Z</time>
      </trkpt>
      <trkpt lat="45.18339" lon="5.87521">
        <ele>726.28</ele>
        <time>2019-12-08T15:00:37.000Z</time>
      </trkpt>
      <trkpt lat="45.18357" lon="5.87479">
        <ele>721.27</ele>
        <time>2019-12-08T15:00:42.000Z</time>
      </trkpt>
      <trkpt lat="45.1837" lon="5.87443">
        <ele>720.56</ele>
        <time>2019-12-08T15:00:47.000Z</time>
      </trkpt>
      <trkpt lat="45.18382" lon="5.87406">
        <ele>716.08</ele>
        <time>2019-12-08T15:00:52.000Z</time>
      </trkpt>
      <trkpt lat="45.1839" lon="5.87385">
        <ele>710.17</ele>
        <time>2019-12-08T15:00:57.000Z</time>
      </trkpt>
      <trkpt lat="45.1838" lon="5.87382">
        <ele>700.24</ele>
        <time>2019-12-08T15:01:23.000Z</time>
      </trkpt>
      <trkpt lat="45.18377" lon="5.8738">
        <ele>691.32</ele>
        <time>2019-12-08T15:02:16.000Z</time>
      </trkpt>
    </trkseg>
  </trk>
</gpx>